Provisional Data: Blockhouse Creek near English Center, PA


Please select a monitoring station.
Please select start date.
Please select start date.

Toggle Unit: C/F Toggle Unit: C/F
Sample Time Temperature (C) Temperature (F) Specific Conductivity (mS/cm) pH   Turbidity (NTU+) DO (mg/L)
1/12/2021 12:00:00 AM 1.05 33.89 0.111 6.88 3.09 13.79
1/12/2021 12:15:00 AM 1.04 33.872 0.109 7.03 3.13 13.8
1/12/2021 12:30:00 AM 1.03 33.854 0.111 7.03 3.15 13.81
1/12/2021 12:45:00 AM 1.01 33.818 0.11 7.03 3.22 13.82
1/12/2021 1:00:00 AM 0.99 33.782 0.11 7.02 3.09 13.83
1/12/2021 1:15:00 AM 0.98 33.764 0.109 7.01 3.17 13.83
1/12/2021 1:30:00 AM 0.98 33.764 0.109 6.9 3.12 13.84
1/12/2021 1:45:00 AM 0.98 33.764 0.109 7.04 3.14 13.84
1/12/2021 2:00:00 AM 0.97 33.746 0.11 7.04 3.2 13.85
1/12/2021 2:15:00 AM 0.97 33.746 0.109 7.05 3.1 13.85
1/12/2021 2:30:00 AM 0.97 33.746 0.109 6.8 3.03 13.85
1/12/2021 2:45:00 AM 0.97 33.746 0.109 7.05 3.08 13.85
1/12/2021 3:00:00 AM 0.95 33.71 0.109 6.62 3.12 13.86
1/12/2021 3:15:00 AM 0.92 33.656 0.107 7.01 3.1 13.86
1/12/2021 3:30:00 AM 0.9 33.62 0.109 7 3.05 13.87
1/12/2021 3:45:00 AM 0.87 33.566 0.108 7.01 3.28 13.87
1/12/2021 4:00:00 AM 0.84 33.512 0.108 7.04 3.02 13.88
1/12/2021 4:15:00 AM 0.81 33.458 0.108 7.05 3.09 13.89
1/12/2021 4:30:00 AM 0.79 33.422 0.108 6.85 3.09 13.9
1/12/2021 4:45:00 AM 0.76 33.368 0.108 7.01 3.06 13.91
1/12/2021 5:00:00 AM 0.74 33.332 0.107 7.06 3.15 13.92
1/12/2021 5:15:00 AM 0.7 33.26 0.108 6.92 3.29 13.93
1/12/2021 5:30:00 AM 0.67 33.206 0.107 6.99 3.09 13.95
1/12/2021 5:45:00 AM 0.64 33.152 0.107 7.01 3.17 13.97
1/12/2021 6:00:00 AM 0.63 33.134 0.107 6.98 3.18 13.97
1/12/2021 6:15:00 AM 0.61 33.098 0.107 7.01 3.1 13.98
1/12/2021 6:30:00 AM 0.59 33.062 0.107 7.03 3.17 13.98
1/12/2021 6:45:00 AM 0.58 33.044 0.106 6.99 3.09 14
1/12/2021 7:00:00 AM 0.57 33.026 0.107 7.03 3.12 14.01
1/12/2021 7:15:00 AM 0.55 32.99 0.107 7.01 3.08 14.01
1/12/2021 7:30:00 AM 0.54 32.972 0.106 7.05 3.13 14.01
1/12/2021 7:45:00 AM 0.54 32.972 0.106 7 3.12 14.02
1/12/2021 8:00:00 AM 0.53 32.954 0.106 7.02 3.1 14.04
1/12/2021 8:15:00 AM 0.53 32.954 0.106 7.04 3.13 14.05
1/12/2021 8:30:00 AM 0.54 32.972 0.106 7.07 3.1 14.06
1/12/2021 8:45:00 AM 0.57 33.026 0.106 7.06 3.09 14.06
1/12/2021 9:00:00 AM 0.59 33.062 0.106 7.05 3.01 14.07
1/12/2021 9:15:00 AM 0.62 33.116 0.107 7.06 3.09 14.08
1/12/2021 9:30:00 AM 0.66 33.188 0.106 7.05 3.06 14.08
1/12/2021 9:45:00 AM 0.71 33.278 0.106 7.01 2.98 14.07
1/12/2021 10:00:00 AM 0.77 33.386 0.105 7.06 3.09 14.06
1/12/2021 10:15:00 AM 0.83 33.494 0.105 7.04 3.01 14.06
1/12/2021 10:30:00 AM 0.9 33.62 0.105 7.06 3.15 14.04
1/12/2021 10:45:00 AM 0.97 33.746 0.105 7.04 3.27 14.01
1/12/2021 11:00:00 AM 1.04 33.872 0.105 7.01 3.03 13.99
1/12/2021 11:15:00 AM 1.09 33.962 0.105 7.08 2.95 13.97
1/12/2021 11:30:00 AM 1.14 34.052 0.105 7.07 3.02 13.95
1/12/2021 11:45:00 AM 1.22 34.196 0.105 7.04 2.95 13.93
1/12/2021 12:00:00 PM 1.3 34.34 0.104 7.08 2.98 13.9
1/12/2021 12:15:00 PM 1.39 34.502 0.105 7.11 3 13.87
1/12/2021 12:30:00 PM 1.5 34.7 0.105 7.08 3.02 13.84
1/12/2021 12:45:00 PM 1.57 34.826 0.104 7.05 2.89 13.81
1/12/2021 1:00:00 PM 1.66 34.988 0.105 7.1 2.85 13.78
1/12/2021 1:15:00 PM 1.76 35.168 0.104 7.08 2.92 13.74
1/12/2021 1:30:00 PM 1.83 35.294 0.104 7.07 3 13.7
1/12/2021 1:45:00 PM 1.88 35.384 0.104 7.06 2.84 13.68
1/12/2021 2:00:00 PM 1.93 35.474 0.105 7.06 2.79 13.65
1/12/2021 2:15:00 PM 1.97 35.546 0.104 7.09 2.93 13.63
1/12/2021 2:30:00 PM 2 35.6 0.104 7.05 2.84 13.61
1/12/2021 2:45:00 PM 2.03 35.654 0.104 6.94 2.94 13.59
1/12/2021 3:00:00 PM 2.05 35.69 0.104 7.08 2.99 13.57
1/12/2021 3:15:00 PM 2.05 35.69 0.104 7.06 2.8 13.55
1/12/2021 3:30:00 PM 2.05 35.69 0.104 7.09 2.94 13.55
1/12/2021 3:45:00 PM 2.05 35.69 0.104 7.1 2.81 13.53
1/12/2021 4:00:00 PM 2.04 35.672 0.104 7.13 2.98 13.53
1/12/2021 4:15:00 PM 2.03 35.654 0.105 7.09 3.02 13.51
1/12/2021 4:30:00 PM 2 35.6 0.104 7.09 2.91 13.5
1/12/2021 4:45:00 PM 1.97 35.546 0.104 7.09 2.92 13.49
1/12/2021 5:00:00 PM 1.94 35.492 0.104 7.13 3.01 13.49
1/12/2021 5:15:00 PM 1.92 35.456 0.105 7.04 3.01 13.48
1/12/2021 5:30:00 PM 1.9 35.42 0.105 7.1 2.96 13.49
1/12/2021 5:45:00 PM 1.88 35.384 0.104 7.01 2.91 13.49
1/12/2021 6:00:00 PM 1.86 35.348 0.104 7.01 2.91 13.49
1/12/2021 6:15:00 PM 1.84 35.312 0.105 7.02 2.93 13.49
1/12/2021 6:30:00 PM 1.82 35.276 0.105 7.03 2.97 13.49
1/12/2021 6:45:00 PM 1.81 35.258 0.105 7.09 3.14 13.49
1/12/2021 7:00:00 PM 1.81 35.258 0.105 7.04 3 13.49
1/12/2021 7:15:00 PM 1.8 35.24 0.105 6.98 2.93 13.5
1/12/2021 7:30:00 PM 1.79 35.222 0.105 6.99 3.02 13.5
1/12/2021 7:45:00 PM 1.79 35.222 0.105 6.9 3.1 13.5
1/12/2021 8:00:00 PM 1.79 35.222 0.105 6.98 3.03 13.49
1/12/2021 8:15:00 PM 1.78 35.204 0.105 7.03 3 13.5
1/12/2021 8:30:00 PM 1.79 35.222 0.105 7 3.16 13.5
1/12/2021 8:45:00 PM 1.78 35.204 0.105 6.88 3.32 13.5
1/12/2021 9:00:00 PM 1.78 35.204 0.105 7.04 3.11 13.49
1/12/2021 9:15:00 PM 1.78 35.204 0.105 6.98 3.09 13.5
1/12/2021 9:30:00 PM 1.78 35.204 0.104 7.03 3.19 13.5
1/12/2021 9:45:00 PM 1.78 35.204 0.105 7.05 3.32 13.49
1/12/2021 10:00:00 PM 1.78 35.204 0.104 6.99 3.12 13.5
1/12/2021 10:15:00 PM 1.78 35.204 0.105 6.94 3.32 13.51
1/12/2021 10:30:00 PM 1.77 35.186 0.105 7.05 3.09 13.5
1/12/2021 10:45:00 PM 1.77 35.186 0.104 7.06 3.03 13.51
1/12/2021 11:00:00 PM 1.76 35.168 0.105 7.02 3.11 13.5
1/12/2021 11:15:00 PM 1.75 35.15 0.104 7.06 2.97 13.51
1/12/2021 11:30:00 PM 1.74 35.132 0.105 7.01 3.17 13.51
1/12/2021 11:45:00 PM 1.74 35.132 0.106 7.05 3.21 13.52
1/13/2021 12:00:00 AM 1.73 35.114 0.105 7.04 3.47 13.52
1/13/2021 12:15:00 AM 1.72 35.096 0.104 6.97 3.08 13.52
1/13/2021 12:30:00 AM 1.72 35.096 0.105 7 3.26 13.52
1/13/2021 12:45:00 AM 1.71 35.078 0.105 7.05 3.13 13.52
1/13/2021 1:00:00 AM 1.71 35.078 0.105 6.78 3.27 13.52
1/13/2021 1:15:00 AM 1.7 35.06 0.105 7.05 3.14 13.52
1/13/2021 1:30:00 AM 1.69 35.042 0.105 7.07 3.22 13.52
1/13/2021 1:45:00 AM 1.69 35.042 0.104 6.99 3.07 13.52
1/13/2021 2:00:00 AM 1.68 35.024 0.105 7.08 3.22 13.53
1/13/2021 2:15:00 AM 1.67 35.006 0.104 7.05 2.97 13.53
1/13/2021 2:30:00 AM 1.66 34.988 0.105 7.06 3.15 13.54
1/13/2021 2:45:00 AM 1.65 34.97 0.105 7.01 2.91 13.54
1/13/2021 3:00:00 AM 1.63 34.934 0.104 7.01 3.01 13.54
1/13/2021 3:15:00 AM 1.63 34.934 0.104 7.06 3.07 13.54
1/13/2021 3:30:00 AM 1.63 34.934 0.104 7.06 3 13.55
1/13/2021 3:45:00 AM 1.61 34.898 0.106 7.08 3.06 13.55
1/13/2021 4:00:00 AM 1.6 34.88 0.105 6.99 2.98 13.56
1/13/2021 4:15:00 AM 1.58 34.844 0.105 6.99 3.09 13.57
1/13/2021 4:30:00 AM 1.57 34.826 0.105 6.99 2.97 13.57
1/13/2021 4:45:00 AM 1.56 34.808 0.105 7.06 2.88 13.57
1/13/2021 5:00:00 AM 1.54 34.772 0.105 7.03 2.99 13.57
1/13/2021 5:15:00 AM 1.52 34.736 0.105 7.05 2.95 13.58
1/13/2021 5:30:00 AM 1.52 34.736 0.105 7.07 2.99 13.59
1/13/2021 5:45:00 AM 1.5 34.7 0.105 7.09 3.04 13.59
1/13/2021 6:00:00 AM 1.48 34.664 0.105 7.07 3.1 13.6
1/13/2021 6:15:00 AM 1.47 34.646 0.103 6.98 2.47 13.6
1/13/2021 6:30:00 AM 1.46 34.628 0.105 6.88 3.07 13.61
1/13/2021 6:45:00 AM 1.44 34.592 0.106 7.09 3.02 13.61
1/13/2021 7:00:00 AM 1.43 34.574 0.105 7.01 2.95 13.62
1/13/2021 7:15:00 AM 1.42 34.556 0.105 7.05 2.96 13.62
1/13/2021 7:30:00 AM 1.42 34.556 0.106 7.06 2.93 13.62
1/13/2021 7:45:00 AM 1.42 34.556 0.106 7.01 3.06 13.63
1/13/2021 8:00:00 AM 1.43 34.574 0.105 7.07 3.05 13.64
1/13/2021 8:15:00 AM 1.43 34.574 0.105 7.09 3.03 13.64
1/13/2021 8:30:00 AM 1.44 34.592 0.105 6.89 3.07 13.65
1/13/2021 8:45:00 AM 1.44 34.592 0.105 7.1 3.06 13.65
1/13/2021 9:00:00 AM 1.44 34.592 0.106 6.98 2.94 13.65
1/13/2021 9:15:00 AM 1.44 34.592 0.105 6.98 3.07 13.65
1/13/2021 9:30:00 AM 1.43 34.574 0.105 7 2.94 13.67
1/13/2021 9:45:00 AM 1.45 34.61 0.105 6.98 3.11 13.68
1/13/2021 10:00:00 AM 1.47 34.646 0.104 7.02 2.87 13.68
1/13/2021 10:15:00 AM 1.48 34.664 0.105 7 2.93 13.69
1/13/2021 10:30:00 AM 1.5 34.7 0.104 7.01 2.83 13.68
1/13/2021 10:45:00 AM 1.53 34.754 0.106 6.95 2.93 13.68
1/13/2021 11:00:00 AM 1.55 34.79 0.105 7.08 2.98 13.68
1/13/2021 11:15:00 AM 1.58 34.844 0.105 7.08 2.78 13.68
1/13/2021 11:30:00 AM 1.61 34.898 0.105 7.07 2.96 13.67
1/13/2021 11:45:00 AM 1.65 34.97 0.105 7.06 2.83 13.66
1/13/2021 12:00:00 PM 1.68 35.024 0.106 7.15 2.99 13.66
1/13/2021 12:15:00 PM 1.72 35.096 0.105 7.03 2.95 13.64
1/13/2021 12:30:00 PM 1.76 35.168 0.104 7.13 2.93 13.62
1/13/2021 12:45:00 PM 1.8 35.24 0.105 6.98 2.92 13.62
1/13/2021 1:00:00 PM 1.84 35.312 0.105 7.09 2.9 13.6
1/13/2021 1:15:00 PM 1.91 35.438 0.104 7.06 2.9 13.59
1/13/2021 1:30:00 PM 1.96 35.528 0.105 7.03 2.99 13.56
1/13/2021 1:45:00 PM 2 35.6 0.105 7.06 2.99 13.54
1/13/2021 2:00:00 PM 2.03 35.654 0.105 7.03 2.95 13.53
1/13/2021 2:15:00 PM 2.09 35.762 0.105 7.05 3.1 13.51
1/13/2021 2:30:00 PM 2.13 35.834 0.104 7.04 2.93 13.48
1/13/2021 2:45:00 PM 2.16 35.888 0.104 7.04 3.04 13.47
1/13/2021 3:00:00 PM 2.2 35.96 0.105 7.07 3.02 13.45
1/13/2021 3:15:00 PM 2.23 36.014 0.105 7.1 2.91 13.43
1/13/2021 3:30:00 PM 2.26 36.068 0.104 7.1 2.91 13.41
1/13/2021 3:45:00 PM 2.28 36.104 0.105 7.03 2.83 13.4
1/13/2021 4:00:00 PM 2.29 36.122 0.104 7.09 3.14 13.38
1/13/2021 4:15:00 PM 2.29 36.122 0.105 7.05 3.06 13.37
1/13/2021 4:30:00 PM 2.28 36.104 0.103 7.04 2.84 13.35
1/13/2021 4:45:00 PM 2.26 36.068 0.105 7.07 2.96 13.34
1/13/2021 5:00:00 PM 2.24 36.032 0.104 7.01 3.08 13.31
1/13/2021 5:15:00 PM 2.21 35.978 0.104 7.05 2.93 13.31
1/13/2021 5:30:00 PM 2.17 35.906 0.104 7.06 2.96 13.3
1/13/2021 5:45:00 PM 2.14 35.852 0.105 7.02 3.01 13.3
1/13/2021 6:00:00 PM 2.1 35.78 0.105 7.01 3.02 13.3
1/13/2021 6:15:00 PM 2.07 35.726 0.105 7.1 2.9 13.31
1/13/2021 6:30:00 PM 2.04 35.672 0.105 7.03 3.02 13.32
1/13/2021 6:45:00 PM 2.02 35.636 0.104 7.03 3.15 13.33
1/13/2021 7:00:00 PM 1.99 35.582 0.105 6.99 3.06 13.33
1/13/2021 7:15:00 PM 1.98 35.564 0.104 7.01 2.93 13.33
1/13/2021 7:30:00 PM 1.96 35.528 0.105 6.98 3.06 13.34
1/13/2021 7:45:00 PM 1.95 35.51 0.105 6.99 2.88 13.35
1/13/2021 8:00:00 PM 1.94 35.492 0.105 7 2.99 13.35
1/13/2021 8:15:00 PM 1.93 35.474 0.105 7.03 3.11 13.35
1/13/2021 8:30:00 PM 1.92 35.456 0.104 7.04 2.99 13.36
1/13/2021 8:45:00 PM 1.91 35.438 0.104 7.02 2.99 13.36
1/13/2021 9:00:00 PM 1.91 35.438 0.104 7 3.03 13.36
1/13/2021 9:15:00 PM 1.9 35.42 0.104 7 3.06 13.36
1/13/2021 9:30:00 PM 1.89 35.402 0.105 7.06 3.09 13.37
1/13/2021 9:45:00 PM 1.88 35.384 0.105 7.02 2.99 13.37
1/13/2021 10:00:00 PM 1.88 35.384 0.104 7.02 3 13.37
1/13/2021 10:15:00 PM 1.87 35.366 0.105 6.99 2.96 13.37
1/13/2021 10:30:00 PM 1.87 35.366 0.104 7.01 3.07 13.37
1/13/2021 10:45:00 PM 1.86 35.348 0.104 6.99 3.16 13.37
1/13/2021 11:00:00 PM 1.86 35.348 0.104 6.98 3.22 13.38
1/13/2021 11:15:00 PM 1.86 35.348 0.105 6.98 3.18 13.37
1/13/2021 11:30:00 PM 1.85 35.33 0.105 7.03 3.12 13.37
1/13/2021 11:45:00 PM 1.84 35.312 0.104 7.03 3.05 13.38
1/14/2021 12:00:00 AM 1.83 35.294 0.104 7.02 3.11 13.38
1/14/2021 12:15:00 AM 1.83 35.294 0.105 7.05 3.1 13.38
1/14/2021 12:30:00 AM 1.82 35.276 0.105 7.01 3.11 13.39
1/14/2021 12:45:00 AM 1.81 35.258 0.105 7.02 3.21 13.39
1/14/2021 1:00:00 AM 1.81 35.258 0.105 6.86 2.92 13.39
1/14/2021 1:15:00 AM 1.81 35.258 0.105 7.03 3.12 13.39
1/14/2021 1:30:00 AM 1.8 35.24 0.104 7.03 3.13 13.39
1/14/2021 1:45:00 AM 1.8 35.24 0.105 6.9 3.07 13.39
1/14/2021 2:00:00 AM 1.79 35.222 0.105 7.06 2.99 13.4
1/14/2021 2:15:00 AM 1.78 35.204 0.105 7.03 3.1 13.4
1/14/2021 2:30:00 AM 1.77 35.186 0.105 7.04 2.95 13.4
1/14/2021 2:45:00 AM 1.77 35.186 0.104 7.06 2.92 13.4
1/14/2021 3:00:00 AM 1.77 35.186 0.104 7.01 2.92 13.4
1/14/2021 3:15:00 AM 1.77 35.186 0.105 7.01 2.86 13.4
1/14/2021 3:30:00 AM 1.78 35.204 0.105 7.01 2.98 13.4
1/14/2021 3:45:00 AM 1.78 35.204 0.105 7 3.05 13.4
1/14/2021 4:00:00 AM 1.78 35.204 0.105 6.97 3.1 13.4
1/14/2021 4:15:00 AM 1.79 35.222 0.104 7.04 2.8 13.4
1/14/2021 4:30:00 AM 1.79 35.222 0.105 7.01 2.98 13.39
1/14/2021 4:45:00 AM 1.79 35.222 0.105 6.97 3.12 13.39
1/14/2021 5:00:00 AM 1.8 35.24 0.105 6.99 2.9 13.39
1/14/2021 5:15:00 AM 1.8 35.24 0.104 6.98 2.99 13.38
1/14/2021 5:30:00 AM 1.8 35.24 0.105 6.97 3.09 13.38
1/14/2021 5:45:00 AM 1.81 35.258 0.105 7 3.17 13.39
1/14/2021 6:00:00 AM 1.81 35.258 0.104 7 2.91 13.39
1/14/2021 6:15:00 AM 1.81 35.258 0.105 6.95 3.03 13.39
1/14/2021 6:30:00 AM 1.81 35.258 0.105 6.96 2.95 13.39
1/14/2021 6:45:00 AM 1.81 35.258 0.104 7 2.93 13.38
1/14/2021 7:00:00 AM 1.8 35.24 0.105 6.97 2.96 13.39
1/14/2021 7:15:00 AM 1.8 35.24 0.105 6.96 3 13.39
1/14/2021 7:30:00 AM 1.78 35.204 0.105 7 2.93 13.39
1/14/2021 7:45:00 AM 1.77 35.186 0.104 7.06 2.96 13.4
1/14/2021 8:00:00 AM 1.76 35.168 0.105 6.97 2.88 13.4
1/14/2021 8:15:00 AM 1.76 35.168 0.104 6.99 3.02 13.42
1/14/2021 8:30:00 AM 1.76 35.168 0.105 7.03 2.99 13.44
1/14/2021 8:45:00 AM 1.77 35.186 0.105 6.98 2.98 13.45
1/14/2021 9:00:00 AM 1.79 35.222 0.104 7.01 2.98 13.47
1/14/2021 9:15:00 AM 1.82 35.276 0.104 7.01 3.02 13.48
1/14/2021 9:30:00 AM 1.85 35.33 0.104 7.1 2.9 13.48
1/14/2021 9:45:00 AM 1.88 35.384 0.105 7.07 3 13.49
1/14/2021 10:00:00 AM 1.92 35.456 0.105 7.06 3.13 13.49
1/14/2021 10:15:00 AM 1.97 35.546 0.104 7.04 2.85 13.48
1/14/2021 10:30:00 AM 2.03 35.654 0.104 7.04 3.03 13.47
1/14/2021 10:45:00 AM 2.09 35.762 0.105 7.04 3.16 13.46
1/14/2021 11:00:00 AM 2.17 35.906 0.104 7.07 2.95 13.45
1/14/2021 11:15:00 AM 2.22 35.996 0.104 7.04 2.9 13.43
1/14/2021 11:30:00 AM 2.27 36.086 0.105 6.93 3.01 13.41
1/14/2021 11:45:00 AM 2.37 36.266 0.104 7.04 2.95 13.39
1/14/2021 12:00:00 PM 2.48 36.464 0.104 7.05 2.96 13.36
1/14/2021 12:15:00 PM 2.6 36.68 0.104 7.08 3.16 13.33
1/14/2021 12:30:00 PM 2.68 36.824 0.104 7.07 3.02 13.29
1/14/2021 12:45:00 PM 2.77 36.986 0.104 7.08 3.04 13.27
1/14/2021 1:00:00 PM 2.85 37.13 0.104 7.09 3.14 13.23
1/14/2021 1:15:00 PM 2.95 37.31 0.103 7.08 2.97 13.19
1/14/2021 1:30:00 PM 3 37.4 0.104 7.1 3.07 13.17
1/14/2021 1:45:00 PM 3.04 37.472 0.104 7.09 2.91 13.14
1/14/2021 2:00:00 PM 3.06 37.508 0.104 7.12 3.03 13.12
1/14/2021 2:15:00 PM 3.07 37.526 0.104 7.08 2.97 13.1
1/14/2021 2:30:00 PM 3.07 37.526 0.103 7.18 3.01 13.1
1/14/2021 2:45:00 PM 3.09 37.562 0.103 7.08 2.97 13.07
1/14/2021 3:00:00 PM 3.12 37.616 0.104 7.06 3.09 13.07
1/14/2021 3:15:00 PM 3.14 37.652 0.104 7.06 2.96 13.07
1/14/2021 3:30:00 PM 3.15 37.67 0.104 7.05 3.09 13.04
1/14/2021 3:45:00 PM 3.16 37.688 0.104 7.13 3.17 13.04
1/14/2021 4:00:00 PM 3.16 37.688 0.104 7.05 3.08 13.04
1/14/2021 4:15:00 PM 3.16 37.688 0.103 7.05 3.1 13.01
1/14/2021 4:30:00 PM 3.14 37.652 0.104 7.02 3.01 13
1/14/2021 4:45:00 PM 3.12 37.616 0.103 7.06 3.05 12.98
1/14/2021 5:00:00 PM 3.1 37.58 0.103 7.08 2.88 12.98
1/14/2021 5:15:00 PM 3.07 37.526 0.103 7.11 2.89 12.97
1/14/2021 5:30:00 PM 3.05 37.49 0.104 7.08 2.98 12.96
1/14/2021 5:45:00 PM 3.03 37.454 0.104 7.08 3.03 12.95
1/14/2021 6:00:00 PM 3.01 37.418 0.104 7.03 2.99 12.96
1/14/2021 6:15:00 PM 3 37.4 0.104 6.99 3.09 12.96
1/14/2021 6:30:00 PM 2.98 37.364 0.104 6.99 3.04 12.97
1/14/2021 6:45:00 PM 2.97 37.346 0.104 7.01 3.08 12.96
1/14/2021 7:00:00 PM 2.95 37.31 0.104 6.99 3.08 12.97
1/14/2021 7:15:00 PM 2.94 37.292 0.103 7 2.98 12.98
1/14/2021 7:30:00 PM 2.92 37.256 0.104 7.04 3.03 12.97
1/14/2021 7:45:00 PM 2.9 37.22 0.104 6.99 2.92 12.98
1/14/2021 8:00:00 PM 2.87 37.166 0.105 6.99 3.09 12.99
1/14/2021 8:15:00 PM 2.83 37.094 0.105 6.98 3.12 12.99
1/14/2021 8:30:00 PM 2.79 37.022 0.103 7 2.92 13.01
1/14/2021 8:45:00 PM 2.75 36.95 0.105 7.04 3.02 13.02
1/14/2021 9:00:00 PM 2.72 36.896 0.104 7.01 3.06 13.03
1/14/2021 9:15:00 PM 2.68 36.824 0.105 6.97 3.02 13.05
1/14/2021 9:30:00 PM 2.64 36.752 0.105 6.99 3.18 13.06
1/14/2021 9:45:00 PM 2.61 36.698 0.105 6.99 3.03 13.07
1/14/2021 10:00:00 PM 2.58 36.644 0.106 7.02 3.07 13.08
1/14/2021 10:15:00 PM 2.54 36.572 0.105 7.01 3.16 13.1
1/14/2021 10:30:00 PM 2.52 36.536 0.105 6.99 3.29 13.11
1/14/2021 10:45:00 PM 2.49 36.482 0.106 7 3.11 13.12
1/14/2021 11:00:00 PM 2.47 36.446 0.106 6.73 3.01 13.12
1/14/2021 11:15:00 PM 2.45 36.41 0.105 6.98 3.07 13.13
1/14/2021 11:30:00 PM 2.43 36.374 0.106 6.98 2.97 13.15
1/14/2021 11:45:00 PM 2.41 36.338 0.106 7 3.14 13.15
1/15/2021 12:00:00 AM 2.39 36.302 0.107 6.98 3.09 13.16
1/15/2021 12:15:00 AM 2.37 36.266 0.106 6.9 3.15 13.17
1/15/2021 12:30:00 AM 2.36 36.248 0.106 7.01 3.11 13.18
1/15/2021 12:45:00 AM 2.35 36.23 0.107 7.06 3.17 13.19
1/15/2021 1:00:00 AM 2.34 36.212 0.106 7.04 3.33 13.19
1/15/2021 1:15:00 AM 2.34 36.212 0.106 7.03 3.7 13.19
1/15/2021 1:30:00 AM 2.34 36.212 0.106 7.09 3.7 13.2
1/15/2021 1:45:00 AM 2.34 36.212 0.107 7.05 3.22 13.2
1/15/2021 2:00:00 AM 2.33 36.194 0.106 7 2.96 13.21
1/15/2021 2:15:00 AM 2.31 36.158 0.106 7.06 2.99 13.21
1/15/2021 2:30:00 AM 2.29 36.122 0.106 7.01 3.07 13.22
1/15/2021 2:45:00 AM 2.27 36.086 0.107 6.99 3.01 13.23
1/15/2021 3:00:00 AM 2.24 36.032 0.107 7.05 2.88 13.23
1/15/2021 3:15:00 AM 2.21 35.978 0.107 6.89 3.29 13.24
1/15/2021 3:30:00 AM 2.18 35.924 0.108 7.06 3.14 13.25
1/15/2021 3:45:00 AM 2.15 35.87 0.108 6.99 3.16 13.26
1/15/2021 4:00:00 AM 2.13 35.834 0.107 7.07 3.12 13.26
1/15/2021 4:15:00 AM 2.1 35.78 0.108 7 3.04 13.27
1/15/2021 4:30:00 AM 2.07 35.726 0.107 7.05 2.98 13.29
1/15/2021 4:45:00 AM 2.06 35.708 0.106 6.98 3.03 13.29
1/15/2021 5:00:00 AM 2.04 35.672 0.108 6.72 3.16 13.3
1/15/2021 5:15:00 AM 2.02 35.636 0.108 6.78 3.06 13.3
1/15/2021 5:30:00 AM 2 35.6 0.108 7 3.1 13.31
1/15/2021 5:45:00 AM 1.98 35.564 0.108 6.99 2.96 13.32
1/15/2021 6:00:00 AM 1.97 35.546 0.107 7.01 2.91 13.32
1/15/2021 6:15:00 AM 1.97 35.546 0.109 7 2.95 13.33
1/15/2021 6:30:00 AM 1.97 35.546 0.109 7.01 2.99 13.33
1/15/2021 6:45:00 AM 1.96 35.528 0.109 6.95 3.01 13.34
1/15/2021 7:00:00 AM 1.96 35.528 0.109 7.03 2.83 13.33
1/15/2021 7:15:00 AM 1.96 35.528 0.11 6.92 3.77 13.34
1/15/2021 7:30:00 AM 1.96 35.528 0.11 7 3.03 13.34
1/15/2021 7:45:00 AM 1.96 35.528 0.11 7.02 2.9 13.34
1/15/2021 8:00:00 AM 1.97 35.546 0.11 7.01 3.05 13.36
1/15/2021 8:15:00 AM 1.97 35.546 0.11 7.03 2.95 13.37
1/15/2021 8:30:00 AM 1.99 35.582 0.11 7.01 2.88 13.38
1/15/2021 8:45:00 AM 2 35.6 0.111 6.9 3.08 13.4
1/15/2021 9:00:00 AM 2.02 35.636 0.111 7.1 3.01 13.41
1/15/2021 9:15:00 AM 2.05 35.69 0.111 7.05 2.98 13.43
1/15/2021 9:30:00 AM 2.08 35.744 0.11 7.05 2.81 13.44
1/15/2021 9:45:00 AM 2.13 35.834 0.11 7.06 2.86 13.44
1/15/2021 10:00:00 AM 2.17 35.906 0.111 7.08 3.09 13.44
1/15/2021 10:15:00 AM 2.21 35.978 0.11 7.1 3.01 13.43
1/15/2021 10:30:00 AM 2.25 36.05 0.111 7.07 3.04 13.42
1/15/2021 10:45:00 AM 2.3 36.14 0.11 7 2.85 13.42
1/15/2021 11:00:00 AM 2.34 36.212 0.11 6.84 2.93 13.4
1/15/2021 11:15:00 AM 2.39 36.302 0.111 7.06 2.82 13.38
1/15/2021 11:30:00 AM 2.42 36.356 0.11 7.06 2.91 13.37
1/15/2021 11:45:00 AM 2.46 36.428 0.11 7.05 3.04 13.35
1/15/2021 12:00:00 PM 2.48 36.464 0.11 7.04 2.97 13.32
1/15/2021 12:15:00 PM 2.51 36.518 0.11 6.85 2.91 13.31
1/15/2021 12:30:00 PM 2.55 36.59 0.11 7.16 3.06 13.3
1/15/2021 12:45:00 PM 2.59 36.662 0.11 6.96 2.97 13.28
1/15/2021 1:00:00 PM 2.64 36.752 0.109 7.09 2.93 13.28
1/15/2021 1:15:00 PM 2.7 36.86 0.11 7.1 3.06 13.25
1/15/2021 1:30:00 PM 2.77 36.986 0.11 7.11 2.98 13.23
1/15/2021 1:45:00 PM 2.81 37.058 0.111 7.11 3.03 13.21
1/15/2021 2:00:00 PM 2.86 37.148 0.11 7.09 3.01 13.2
1/15/2021 2:15:00 PM 2.88 37.184 0.11 7 3.03 13.17
1/15/2021 2:30:00 PM 2.89 37.202 0.109 7.09 2.96 13.13
1/15/2021 2:45:00 PM 2.89 37.202 0.11 6.86 3.1 13.11
1/15/2021 3:00:00 PM 2.88 37.184 0.11 7.08 3.02 13.11
1/15/2021 3:15:00 PM 2.89 37.202 0.109 7.03 2.93 13.1
1/15/2021 3:30:00 PM 2.9 37.22 0.11 7.12 2.87 13.08
1/15/2021 3:45:00 PM 2.9 37.22 0.111 7.07 3.06 13.08
1/15/2021 4:00:00 PM 2.91 37.238 0.11 7.14 2.96 13.05
1/15/2021 4:15:00 PM 2.91 37.238 0.111 7.06 3.01 13.05
1/15/2021 4:30:00 PM 2.92 37.256 0.11 6.98 2.88 13.02
1/15/2021 4:45:00 PM 2.91 37.238 0.111 7.05 3.09 13.01
1/15/2021 5:00:00 PM 2.91 37.238 0.11 7.03 3.17 13
1/15/2021 5:15:00 PM 2.92 37.256 0.11 6.9 2.94 12.98
1/15/2021 5:30:00 PM 2.92 37.256 0.109 7.1 2.97 12.98
1/15/2021 5:45:00 PM 2.93 37.274 0.11 7.12 2.88 12.96
1/15/2021 6:00:00 PM 2.93 37.274 0.111 7 3.04 12.96
1/15/2021 6:15:00 PM 2.94 37.292 0.11 7.09 3.64 12.96
1/15/2021 6:30:00 PM 2.95 37.31 0.11 7.02 3.35 12.95
1/15/2021 6:45:00 PM 2.95 37.31 0.11 7.05 2.91 12.94
1/15/2021 7:00:00 PM 2.96 37.328 0.111 7.06 3.06 12.93
1/15/2021 7:15:00 PM 2.96 37.328 0.11 7.02 3.07 12.93
1/15/2021 7:30:00 PM 2.97 37.346 0.11 7.02 2.98 12.93
1/15/2021 7:45:00 PM 2.97 37.346 0.111 6.95 3.14 12.92
1/15/2021 8:00:00 PM 2.97 37.346 0.11 6.99 3.35 12.93
1/15/2021 8:15:00 PM 2.97 37.346 0.11 7.11 3.29 12.93
1/15/2021 8:30:00 PM 2.97 37.346 0.11 7.03 3.33 12.91
1/15/2021 8:45:00 PM 2.97 37.346 0.11 6.99 3.38 12.91
1/15/2021 9:00:00 PM 2.97 37.346 0.109 6.85 3.62 12.91
1/15/2021 9:15:00 PM 2.97 37.346 0.109 7.01 3.55 12.91
1/15/2021 9:30:00 PM 2.97 37.346 0.109 6.91 3.5 12.9
1/15/2021 9:45:00 PM 2.97 37.346 0.109 7.01 3.62 12.9
1/15/2021 10:00:00 PM 2.96 37.328 0.109 6.99 4.26 12.9
1/15/2021 10:15:00 PM 2.96 37.328 0.109 6.99 4.19 12.91
1/15/2021 10:30:00 PM 2.96 37.328 0.108 6.99 4.12 12.9
1/15/2021 10:45:00 PM 2.96 37.328 0.109 6.97 4.23 12.89
1/15/2021 11:00:00 PM 2.95 37.31 0.109 7 4.25 12.89
1/15/2021 11:15:00 PM 2.95 37.31 0.109 6.99 4.18 12.9
1/15/2021 11:30:00 PM 2.95 37.31 0.109 6.98 4.19 12.89
1/15/2021 11:45:00 PM 2.94 37.292 0.109 7 4.34 12.9
1/16/2021 12:00:00 AM 2.92 37.256 0.109 6.99 4.51 12.89
1/16/2021 12:15:00 AM 2.92 37.256 0.109 6.98 4.66 12.9
1/16/2021 12:30:00 AM 2.91 37.238 0.109 6.99 4.73 12.91
1/16/2021 12:45:00 AM 2.9 37.22 0.11 7.03 5.02 12.91
1/16/2021 1:00:00 AM 2.9 37.22 0.109 7 5.1 12.9
1/16/2021 1:15:00 AM 2.89 37.202 0.109 7.05 5.38 12.91
1/16/2021 1:30:00 AM 2.89 37.202 0.111 7 5.18 12.92
1/16/2021 1:45:00 AM 2.89 37.202 0.11 6.97 6.09 12.93
1/16/2021 2:00:00 AM 2.88 37.184 0.112 6.97 6.27 12.92
1/16/2021 2:15:00 AM 2.88 37.184 0.112 6.96 7.41 12.93
1/16/2021 2:30:00 AM 2.87 37.166 0.115 6.97 7.62 12.93
1/16/2021 2:45:00 AM 2.87 37.166 0.118 6.96 8.59 12.93
1/16/2021 3:00:00 AM 2.87 37.166 0.121 6.79 8.99 12.92
1/16/2021 3:15:00 AM 2.86 37.148 0.126 6.98 9.73 12.93
1/16/2021 3:30:00 AM 2.85 37.13 0.129 7 11.24 12.92
1/16/2021 3:45:00 AM 2.84 37.112 0.075 7.04 11.56 12.94
1/16/2021 4:00:00 AM 2.82 37.076 0.139 6.98 11.03 12.93
1/16/2021 4:15:00 AM 2.8 37.04 0.076 6.96 11.08 12.95
1/16/2021 4:30:00 AM 2.77 36.986 0.141 6.98 11.41 12.95
1/16/2021 4:45:00 AM 2.74 36.932 0.143 6.97 11 12.97
1/16/2021 5:00:00 AM 2.7 36.86 0.081 7 10.75 12.99
1/16/2021 5:15:00 AM 2.65 36.77 0.079 6.96 11.02 13.01
1/16/2021 5:30:00 AM 2.61 36.698 0.08 6.98 10.68 13.02
1/16/2021 5:45:00 AM 2.57 36.626 0.098 6.98 11.04 13.04
1/16/2021 6:00:00 AM 2.53 36.554 0.078 6.96 11.34 13.05
1/16/2021 6:15:00 AM 2.49 36.482 0.079 7.03 10.75 13.06
1/16/2021 6:30:00 AM 2.45 36.41 0.145 6.97 11.09 13.07
1/16/2021 6:45:00 AM 2.42 36.356 0.145 6.99 10.76 13.09
1/16/2021 7:00:00 AM 2.38 36.284 0.087 6.98 11.76 13.09
1/16/2021 7:15:00 AM 2.36 36.248 0.082 6.97 10.89 13.1
1/16/2021 7:30:00 AM 2.33 36.194 0.149 7.04 10.81 13.11
1/16/2021 7:45:00 AM 2.31 36.158 0.151 6.97 10.13 13.11
1/16/2021 8:00:00 AM 2.29 36.122 0.083 7.02 9.88 13.12
1/16/2021 8:15:00 AM 2.27 36.086 0.093 7.05 9.31 13.14
1/16/2021 8:30:00 AM 2.27 36.086 0.154 7.04 9.06 13.15
1/16/2021 8:45:00 AM 2.27 36.086 0.155 7.05 8.89 13.17
1/16/2021 9:00:00 AM 2.3 36.14 0.085 7.03 9.12 13.17
1/16/2021 9:15:00 AM 2.33 36.194 0.157 7.06 9.35 13.18
1/16/2021 9:30:00 AM 2.36 36.248 0.157 7.05 8.68 13.18
1/16/2021 9:45:00 AM 2.41 36.338 0.086 7.07 8.44 13.18
1/16/2021 10:00:00 AM 2.44 36.392 0.085 7.1 7.78 13.18
1/16/2021 10:15:00 AM 2.48 36.464 0.092 7.12 7.41 13.18
1/16/2021 10:30:00 AM 2.52 36.536 0.082 7.08 7.17 13.17
1/16/2021 10:45:00 AM 2.57 36.626 0.082 7.07 6.77 13.16
1/16/2021 11:00:00 AM 2.62 36.716 0.082 7.07 7.04 13.15
1/16/2021 11:15:00 AM 2.67 36.806 0.157 7.11 8.19 13.15
1/16/2021 11:30:00 AM 2.73 36.914 0.084 7.1 7.15 13.13
1/16/2021 11:45:00 AM 2.79 37.022 0.159 7.08 6.46 13.11
1/16/2021 12:00:00 PM 2.85 37.13 0.084 7.09 6.46 13.1
1/16/2021 12:15:00 PM 2.94 37.292 0.16 7.13 5.98 13.08
1/16/2021 12:30:00 PM 3 37.4 0.088 7.13 6.01 13.04
1/16/2021 12:45:00 PM 3.08 37.544 0.108 7.15 6.09 13.03
1/16/2021 1:00:00 PM 3.16 37.688 0.097 7.14 5.83 12.99
1/16/2021 1:15:00 PM 3.22 37.796 0.095 7.17 5.7 12.97
1/16/2021 1:30:00 PM 3.28 37.904 0.089 7.18 5.64 12.93
1/16/2021 1:45:00 PM 3.33 37.994 0.1 7.15 5.45 12.92
1/16/2021 2:00:00 PM 3.38 38.084 0.1 7.16 5.6 12.91
1/16/2021 2:15:00 PM 3.4 38.12 0.1 7.17 5.59 12.88
1/16/2021 2:30:00 PM 3.43 38.174 0.087 7.19 5.68 12.86
1/16/2021 2:45:00 PM 3.46 38.228 0.086 7.19 5.26 12.85
1/16/2021 3:00:00 PM 3.47 38.246 0.089 7.14 5.31 12.84
1/16/2021 3:15:00 PM 3.46 38.228 0.09 7.11 5.15 12.84
1/16/2021 3:30:00 PM 3.46 38.228 0.095 7.12 5.27 12.83
1/16/2021 3:45:00 PM 3.44 38.192 0.087 7.12 5.18 12.81
1/16/2021 4:00:00 PM 3.41 38.138 0.086 7.16 5.14 12.8
1/16/2021 4:15:00 PM 3.38 38.084 0.099 7.12 5.12 12.8
1/16/2021 4:30:00 PM 3.36 38.048 0.088 7.09 5.04 12.8
1/16/2021 4:45:00 PM 3.33 37.994 0.086 7.11 4.84 12.78
1/16/2021 5:00:00 PM 3.29 37.922 0.087 7.1 5.12 12.77
1/16/2021 5:15:00 PM 3.24 37.832 0.092 7.09 4.93 12.77
1/16/2021 5:30:00 PM 3.19 37.742 0.096 7.07 4.9 12.78
1/16/2021 5:45:00 PM 3.15 37.67 0.087 7.06 4.94 12.79
1/16/2021 6:00:00 PM 3.1 37.58 0.089 7.07 5.09 12.8
1/16/2021 6:15:00 PM 3.08 37.544 0.094 7.05 4.74 12.8
1/16/2021 6:30:00 PM 3.04 37.472 0.084 7.05 5.1 12.79
1/16/2021 6:45:00 PM 3.01 37.418 0.091 7.03 4.63 12.8
1/16/2021 7:00:00 PM 2.96 37.328 0.084 7.04 4.57 12.82
1/16/2021 7:15:00 PM 2.92 37.256 0.084 7.07 4.62 12.84
1/16/2021 7:30:00 PM 2.88 37.184 0.091 7.02 6.85 12.85
1/16/2021 7:45:00 PM 2.85 37.13 0.156 7.04 4.67 12.86
1/16/2021 8:00:00 PM 2.83 37.094 0.084 7.01 4.71 12.87
1/16/2021 8:15:00 PM 2.81 37.058 0.155 7.04 4.6 12.87
1/16/2021 8:30:00 PM 2.78 37.004 0.156 7.05 4.52 12.89
1/16/2021 8:45:00 PM 2.77 36.986 0.156 7.02 4.81 12.89
1/16/2021 9:00:00 PM 2.75 36.95 0.157 7.06 4.86 12.9
1/16/2021 9:15:00 PM 2.74 36.932 0.085 7.05 4.77 12.91
1/16/2021 9:30:00 PM 2.71 36.878 0.155 7.02 4.6 12.92
1/16/2021 9:45:00 PM 2.69 36.842 0.084 7.05 4.47 12.92
1/16/2021 10:00:00 PM 2.67 36.806 0.09 7.04 4.57 12.93
1/16/2021 10:15:00 PM 2.65 36.77 0.096 7.05 4.92 12.94
1/16/2021 10:30:00 PM 2.61 36.698 0.088 7.02 4.22 12.94
1/16/2021 10:45:00 PM 2.58 36.644 0.085 7.07 4.4 12.95
1/16/2021 11:00:00 PM 2.55 36.59 0.154 7.05 4.51 12.97
1/16/2021 11:15:00 PM 2.52 36.536 0.086 7.05 4.47 12.98
1/16/2021 11:30:00 PM 2.49 36.482 0.085 7.03 4.61 12.98
1/16/2021 11:45:00 PM 2.46 36.428 0.086 7.01 4.39 13
1/17/2021 12:00:00 AM 2.42 36.356 0.154 7.02 4.51 13.01
1/17/2021 12:15:00 AM 2.39 36.302 0.154 7.03 4.41 13.02
1/17/2021 12:30:00 AM 2.37 36.266 0.098 7.01 4.62 13.03
1/17/2021 12:45:00 AM 2.35 36.23 0.085 7 4.49 13.04
1/17/2021 1:00:00 AM 2.33 36.194 0.083 7.06 4.63 13.05
1/17/2021 1:15:00 AM 2.31 36.158 0.082 7.06 4.45 13.05
1/17/2021 1:30:00 AM 2.29 36.122 0.154 7.03 4.18 13.07
1/17/2021 1:45:00 AM 2.27 36.086 0.091 7.02 4.24 13.07
1/17/2021 2:00:00 AM 2.24 36.032 0.083 7.02 4.53 13.08
1/17/2021 2:15:00 AM 2.22 35.996 0.085 7.01 4.3 13.1
1/17/2021 2:30:00 AM 2.19 35.942 0.082 6.99 4.47 13.1
1/17/2021 2:45:00 AM 2.17 35.906 0.084 7.01 4.45 13.11
1/17/2021 3:00:00 AM 2.14 35.852 0.153 7.02 4.22 13.13
1/17/2021 3:15:00 AM 2.11 35.798 0.153 7.02 4.23 13.14
1/17/2021 3:30:00 AM 2.1 35.78 0.152 7.03 4.29 13.15
1/17/2021 3:45:00 AM 2.08 35.744 0.083 7.09 4.19 13.15
1/17/2021 4:00:00 AM 2.06 35.708 0.083 7.05 4.37 13.16
1/17/2021 4:15:00 AM 2.03 35.654 0.153 7.04 4.38 13.17
1/17/2021 4:30:00 AM 2.01 35.618 0.079 7.03 4.22 13.18
1/17/2021 4:45:00 AM 1.98 35.564 0.15 7.02 4.29 13.2
1/17/2021 5:00:00 AM 1.95 35.51 0.152 7.03 4.04 13.2
1/17/2021 5:15:00 AM 1.94 35.492 0.15 7.03 3.97 13.2
1/17/2021 5:30:00 AM 1.92 35.456 0.151 7.07 4.25 13.22
1/17/2021 5:45:00 AM 1.88 35.384 0.151 7.04 4.56 13.23
1/17/2021 6:00:00 AM 1.85 35.33 0.151 7.01 4.18 13.24
1/17/2021 6:15:00 AM 1.81 35.258 0.084 7.02 4.02 13.25
1/17/2021 6:30:00 AM 1.77 35.186 0.088 7.04 3.89 13.27
1/17/2021 6:45:00 AM 1.77 35.186 0.15 7.02 4.02 13.27
1/17/2021 7:00:00 AM 1.78 35.204 0.149 7.04 4.05 13.28
1/17/2021 7:15:00 AM 1.77 35.186 0.15 7.02 3.93 13.29
1/17/2021 7:30:00 AM 1.76 35.168 0.149 7.03 3.88 13.29
1/17/2021 7:45:00 AM 1.76 35.168 0.149 7.03 3.88 13.3
1/17/2021 8:00:00 AM 1.76 35.168 0.148 7.04 4.15 13.31
1/17/2021 8:15:00 AM 1.78 35.204 0.078 7.03 4 13.31
1/17/2021 8:30:00 AM 1.79 35.222 0.081 7.06 3.88 13.33
1/17/2021 8:45:00 AM 1.8 35.24 0.148 7.04 3.76 13.35
1/17/2021 9:00:00 AM 1.81 35.258 0.147 7.06 3.81 13.36
1/17/2021 9:15:00 AM 1.82 35.276 0.148 7.09 3.67 13.37
1/17/2021 9:30:00 AM 1.84 35.312 0.077 7.06 3.85 13.37
1/17/2021 9:45:00 AM 1.86 35.348 0.146 7.05 3.6 13.38
1/17/2021 10:00:00 AM 1.89 35.402 0.082 7.05 3.59 13.39
1/17/2021 10:15:00 AM 1.92 35.456 0.147 7.1 3.78 13.4
1/17/2021 10:30:00 AM 1.97 35.546 0.147 7.09 3.82 13.41
1/17/2021 10:45:00 AM 1.99 35.582 0.078 7.08 3.83 13.4
1/17/2021 11:00:00 AM 2.02 35.636 0.146 7.09 3.79 13.39
1/17/2021 11:15:00 AM 2.05 35.69 0.146 7.08 3.63 13.39
1/17/2021 11:30:00 AM 2.08 35.744 0.146 7.07 3.48 13.38
1/17/2021 11:45:00 AM 2.11 35.798 0.145 7.09 3.7 13.38
1/17/2021 12:00:00 PM 2.15 35.87 0.083 7.09 3.65 13.37
1/17/2021 12:15:00 PM 2.18 35.924 0.146 7.11 3.59 13.36
1/17/2021 12:30:00 PM 2.22 35.996 0.085 7.1 3.67 13.35
1/17/2021 12:45:00 PM 2.24 36.032 0.079 7.1 3.66 13.34
1/17/2021 1:00:00 PM 2.27 36.086 0.082 7.11 3.6 13.32
1/17/2021 1:15:00 PM 2.3 36.14 0.08 7.09 3.54 13.32
1/17/2021 1:30:00 PM 2.34 36.212 0.08 7.1 3.65 13.31
1/17/2021 1:45:00 PM 2.39 36.302 0.083 7.11 3.71 13.31
1/17/2021 2:00:00 PM 2.43 36.374 0.085 7.09 3.76 13.29
1/17/2021 2:15:00 PM 2.46 36.428 0.081 7.09 3.59 13.27
1/17/2021 2:30:00 PM 2.49 36.482 0.143 7.08 3.59 13.26
1/17/2021 2:45:00 PM 2.5 36.5 0.082 7.09 3.49 13.24
1/17/2021 3:00:00 PM 2.51 36.518 0.086 7.09 3.5 13.23
1/17/2021 3:15:00 PM 2.52 36.536 0.141 7.09 3.55 13.21
1/17/2021 3:30:00 PM 2.54 36.572 0.142 7.08 3.65 13.2
1/17/2021 3:45:00 PM 2.55 36.59 0.075 7.09 3.56 13.19
1/17/2021 4:00:00 PM 2.56 36.608 0.085 7.08 3.59 13.17
1/17/2021 4:15:00 PM 2.57 36.626 0.075 7.07 3.69 13.15
1/17/2021 4:30:00 PM 2.57 36.626 0.138 7.05 3.48 13.14
1/17/2021 4:45:00 PM 2.57 36.626 0.141 7.03 3.47 13.13
1/17/2021 5:00:00 PM 2.57 36.626 0.077 7.05 3.57 13.1
1/17/2021 5:15:00 PM 2.56 36.608 0.082 7.03 3.7 13.09
1/17/2021 5:30:00 PM 2.55 36.59 0.14 7.02 3.5 13.09
1/17/2021 5:45:00 PM 2.55 36.59 0.077 7.03 3.59 13.08
1/17/2021 6:00:00 PM 2.54 36.572 0.139 7.05 3.6 13.07
1/17/2021 6:15:00 PM 2.52 36.536 0.136 7.04 3.47 13.07
1/17/2021 6:30:00 PM 2.5 36.5 0.077 7.03 3.59 13.07
1/17/2021 6:45:00 PM 2.5 36.5 0.137 7.05 3.53 13.07
1/17/2021 7:00:00 PM 2.5 36.5 0.138 7.04 3.69 13.06
1/17/2021 7:15:00 PM 2.49 36.482 0.138 7.04 3.46 13.07
1/17/2021 7:30:00 PM 2.49 36.482 0.078 7.01 3.62 13.07
1/17/2021 7:45:00 PM 2.48 36.464 0.074 7 3.7 13.07
1/17/2021 8:00:00 PM 2.48 36.464 0.134 7.01 3.56 13.07
1/17/2021 8:15:00 PM 2.47 36.446 0.135 7.01 3.84 13.07
1/17/2021 8:30:00 PM 2.47 36.446 0.079 7.07 3.55 13.07
1/17/2021 8:45:00 PM 2.47 36.446 0.079 7.03 3.61 13.07
1/17/2021 9:00:00 PM 2.47 36.446 0.135 7.03 3.7 13.07
1/17/2021 9:15:00 PM 2.47 36.446 0.134 7.03 3.46 13.08
1/17/2021 9:30:00 PM 2.47 36.446 0.136 7.07 3.58 13.07
1/17/2021 9:45:00 PM 2.46 36.428 0.134 7.06 3.6 13.07
1/17/2021 10:00:00 PM 2.45 36.41 0.076 7.03 3.61 13.08
1/17/2021 10:15:00 PM 2.44 36.392 0.134 7.01 3.59 13.08
1/17/2021 10:30:00 PM 2.44 36.392 0.133 7.01 3.69 13.08
1/17/2021 10:45:00 PM 2.43 36.374 0.132 7.01 3.57 13.08
1/17/2021 11:00:00 PM 2.41 36.338 0.136 7.04 3.7 13.08
1/17/2021 11:15:00 PM 2.4 36.32 0.129 7.02 3.72 13.08
1/17/2021 11:30:00 PM 2.4 36.32 0.133 7.02 3.81 13.09
1/17/2021 11:45:00 PM 2.39 36.302 0.076 7.02 3.67 13.09
1/18/2021 12:00:00 AM 2.39 36.302 0.133 7.02 3.54 13.09
1/18/2021 12:15:00 AM 2.38 36.284 0.132 6.99 3.56 13.09
1/18/2021 12:30:00 AM 2.38 36.284 0.132 7.01 3.67 13.1
1/18/2021 12:45:00 AM 2.37 36.266 0.13 7 3.71 13.09
1/18/2021 1:00:00 AM 2.35 36.23 0.131 7 3.5 13.1
1/18/2021 1:15:00 AM 2.33 36.194 0.132 7 3.55 13.1
1/18/2021 1:30:00 AM 2.32 36.176 0.131 6.99 3.7 13.11
1/18/2021 1:45:00 AM 2.31 36.158 0.131 7.04 3.8 13.11
1/18/2021 2:00:00 AM 2.3 36.14 0.13 7.05 3.58 13.12
1/18/2021 2:15:00 AM 2.29 36.122 0.131 7.01 3.55 13.12
1/18/2021 2:30:00 AM 2.29 36.122 0.13 6.98 3.55 13.13
1/18/2021 2:45:00 AM 2.3 36.14 0.13 7.01 3.4 13.13
1/18/2021 3:00:00 AM 2.3 36.14 0.129 6.97 3.58 13.13
1/18/2021 3:15:00 AM 2.31 36.158 0.13 7 3.61 13.12
1/18/2021 3:30:00 AM 2.31 36.158 0.134 6.98 3.48 13.12
1/18/2021 3:45:00 AM 2.31 36.158 0.13 7 3.67 13.12
1/18/2021 4:00:00 AM 2.31 36.158 0.13 7.01 3.46 13.12
1/18/2021 4:15:00 AM 2.3 36.14 0.13 7.04 3.64 13.13
1/18/2021 4:30:00 AM 2.29 36.122 0.128 7.06 3.28 13.13
1/18/2021 4:45:00 AM 2.27 36.086 0.129 7.01 3.42 13.13
1/18/2021 5:00:00 AM 2.27 36.086 0.128 7.01 3.55 13.13
1/18/2021 5:15:00 AM 2.27 36.086 0.129 7 3.67 13.13
1/18/2021 5:30:00 AM 2.27 36.086 0.128 6.99 3.53 13.14
1/18/2021 5:45:00 AM 2.27 36.086 0.128 6.99 3.46 13.13
1/18/2021 6:00:00 AM 2.26 36.068 0.128 7.01 3.47 13.14
1/18/2021 6:15:00 AM 2.25 36.05 0.128 7.02 3.49 13.14
1/18/2021 6:30:00 AM 2.25 36.05 0.128 7.06 3.66 13.15
1/18/2021 6:45:00 AM 2.24 36.032 0.128 7.02 3.68 13.15
1/18/2021 7:00:00 AM 2.23 36.014 0.128 6.88 3.86 13.16
1/18/2021 7:15:00 AM 2.22 35.996 0.127 7.02 3.54 13.15
1/18/2021 7:30:00 AM 2.21 35.978 0.127 7.01 3.44 13.16
1/18/2021 7:45:00 AM 2.2 35.96 0.127 7.03 3.39 13.17
1/18/2021 8:00:00 AM 2.2 35.96 0.127 7.01 3.42 13.19
1/18/2021 8:15:00 AM 2.2 35.96 0.127 7 3.38 13.21
1/18/2021 8:30:00 AM 2.21 35.978 0.127 7 3.46 13.24
1/18/2021 8:45:00 AM 2.22 35.996 0.128 7.02 3.35 13.26
1/18/2021 9:00:00 AM 2.25 36.05 0.127 7.03 3.36 13.29
1/18/2021 9:15:00 AM 2.28 36.104 0.126 7.06 3.42 13.3
1/18/2021 9:30:00 AM 2.3 36.14 0.127 7.04 3.37 13.31
1/18/2021 9:45:00 AM 2.32 36.176 0.127 7.04 3.48 13.31
1/18/2021 10:00:00 AM 2.37 36.266 0.126 7.05 3.54 13.32
1/18/2021 10:15:00 AM 2.43 36.374 0.126 7.09 3.48 13.32
1/18/2021 10:30:00 AM 2.47 36.446 0.127 7.07 3.32 13.33
1/18/2021 10:45:00 AM 2.52 36.536 0.127 7.08 3.35 13.32
1/18/2021 11:00:00 AM 2.57 36.626 0.126 7.09 3.33 13.31
1/18/2021 11:15:00 AM 2.62 36.716 0.126 7.07 3.38 13.3
1/18/2021 11:30:00 AM 2.64 36.752 0.126 7.12 3.39 13.28
1/18/2021 11:45:00 AM 2.67 36.806 0.125 7.14 3.32 13.28
1/18/2021 12:00:00 PM 2.72 36.896 0.126 7.15 3.35 13.26
1/18/2021 12:15:00 PM 2.77 36.986 0.125 7.16 3.32 13.25
1/18/2021 12:30:00 PM 2.81 37.058 0.125 7.17 3.41 13.25
1/18/2021 12:45:00 PM 2.84 37.112 0.125 7.16 3.37 13.23
1/18/2021 1:00:00 PM 2.86 37.148 0.124 7.18 3.22 13.21
1/18/2021 1:15:00 PM 2.88 37.184 0.124 7.16 3.26 13.19
1/18/2021 1:30:00 PM 2.9 37.22 0.124 7.15 3.43 13.2
1/18/2021 1:45:00 PM 2.92 37.256 0.125 7.15 3.36 13.18
1/18/2021 2:00:00 PM 2.93 37.274 0.124 7.13 3.42 13.17
1/18/2021 2:15:00 PM 2.94 37.292 0.124 7.16 3.48 13.16
1/18/2021 2:30:00 PM 2.94 37.292 0.124 7.15 3.26 13.16
1/18/2021 2:45:00 PM 2.95 37.31 0.124 7.14 3.3 13.16
1/18/2021 3:00:00 PM 2.97 37.346 0.124 7.13 3.36 13.15
1/18/2021 3:15:00 PM 2.97 37.346 0.124 7.16 3.32 13.15
1/18/2021 3:30:00 PM 2.96 37.328 0.124 7.16 3.38 13.13
1/18/2021 3:45:00 PM 2.95 37.31 0.124 7.09 3.41 13.11
1/18/2021 4:00:00 PM 2.91 37.238 0.124 7.07 3.23 13.11
1/18/2021 4:15:00 PM 2.87 37.166 0.124 7.1 3.39 13.1
1/18/2021 4:30:00 PM 2.85 37.13 0.123 7.14 3.37 13.09
1/18/2021 4:45:00 PM 2.81 37.058 0.123 7.13 3.34 13.09
1/18/2021 5:00:00 PM 2.78 37.004 0.123 7.09 3.32 13.08
1/18/2021 5:15:00 PM 2.75 36.95 0.123 7.1 3.46 13.08
1/18/2021 5:30:00 PM 2.72 36.896 0.123 7.08 3.5 13.08
1/18/2021 5:45:00 PM 2.7 36.86 0.123 7.05 3.44 13.08
1/18/2021 6:00:00 PM 2.68 36.824 0.123 7.05 3.4 13.08
1/18/2021 6:15:00 PM 2.66 36.788 0.122 7.03 3.41 13.09
1/18/2021 6:30:00 PM 2.64 36.752 0.122 7.03 3.51 13.1
1/18/2021 6:45:00 PM 2.62 36.716 0.123 7.08 3.49 13.1
1/18/2021 7:00:00 PM 2.6 36.68 0.123 7.03 3.42 13.1
1/18/2021 7:15:00 PM 2.58 36.644 0.123 7.01 3.32 13.11
1/18/2021 7:30:00 PM 2.56 36.608 0.122 7.02 3.58 13.12
1/18/2021 7:45:00 PM 2.54 36.572 0.123 7.03 3.42 13.13
1/18/2021 8:00:00 PM 2.53 36.554 0.123 7.04 3.3 13.13
1/18/2021 8:15:00 PM 2.52 36.536 0.123 7.03 3.46 13.14
1/18/2021 8:30:00 PM 2.5 36.5 0.123 7.03 3.47 13.14
1/18/2021 8:45:00 PM 2.49 36.482 0.123 7 3.22 13.15
1/18/2021 9:00:00 PM 2.47 36.446 0.122 7.02 3.35 13.16
1/18/2021 9:15:00 PM 2.45 36.41 0.122 7.06 3.51 13.17
1/18/2021 9:30:00 PM 2.44 36.392 0.123 7.03 3.62 13.17
1/18/2021 9:45:00 PM 2.43 36.374 0.122 7.03 3.59 13.18
1/18/2021 10:00:00 PM 2.41 36.338 0.122 7.06 3.38 13.19
1/18/2021 10:15:00 PM 2.4 36.32 0.122 7.05 3.33 13.2
1/18/2021 10:30:00 PM 2.39 36.302 0.122 7.04 3.22 13.19
1/18/2021 10:45:00 PM 2.38 36.284 0.122 7.03 3.41 13.2
1/18/2021 11:00:00 PM 2.36 36.248 0.122 7.05 3.55 13.21
1/18/2021 11:15:00 PM 2.35 36.23 0.122 7.02 3.23 13.22
1/18/2021 11:30:00 PM 2.34 36.212 0.122 7.05 3.4 13.22
1/18/2021 11:45:00 PM 2.32 36.176 0.121 7.04 3.43 13.23
1/19/2021 12:00:00 AM 2.31 36.158 0.122 7.04 3.46 13.23
1/19/2021 12:15:00 AM 2.31 36.158 0.12 7.04 3.5 13.24
1/19/2021 12:30:00 AM 2.29 36.122 0.121 7.05 3.3 13.24
1/19/2021 12:45:00 AM 2.28 36.104 0.122 7.05 3.27 13.24
1/19/2021 1:00:00 AM 2.27 36.086 0.122 7.07 3.3 13.25
1/19/2021 1:15:00 AM 2.25 36.05 0.121 7.04 3.51 13.26
1/19/2021 1:30:00 AM 2.24 36.032 0.122 7.02 3.36 13.26
1/19/2021 1:45:00 AM 2.22 35.996 0.122 7.04 3.33 13.27
1/19/2021 2:00:00 AM 2.2 35.96 0.121 7.03 3.21 13.28
1/19/2021 2:15:00 AM 2.17 35.906 0.121 7.05 3.25 13.28
1/19/2021 2:30:00 AM 2.15 35.87 0.121 7.03 3.34 13.29
1/19/2021 2:45:00 AM 2.12 35.816 0.122 7.04 3.27 13.3
1/19/2021 3:00:00 AM 2.09 35.762 0.12 7.02 3.37 13.32
1/19/2021 3:15:00 AM 2.07 35.726 0.121 7.03 3.25 13.33
1/19/2021 3:30:00 AM 2.05 35.69 0.121 7.02 3.41 13.34
1/19/2021 3:45:00 AM 2.03 35.654 0.121 7.01 3.32 13.34
1/19/2021 4:00:00 AM 2.01 35.618 0.121 7.05 3.37 13.36
1/19/2021 4:15:00 AM 1.99 35.582 0.121 7.02 3.3 13.36
1/19/2021 4:30:00 AM 1.97 35.546 0.121 7.02 3.31 13.37
1/19/2021 4:45:00 AM 1.95 35.51 0.121 7.01 3.2 13.39
1/19/2021 5:00:00 AM 1.93 35.474 0.121 7.02 3.35 13.39
1/19/2021 5:15:00 AM 1.91 35.438 0.121 7.02 3.29 13.4
1/19/2021 5:30:00 AM 1.88 35.384 0.122 7.04 3.23 13.42
1/19/2021 5:45:00 AM 1.87 35.366 0.12 7.05 3.1 13.42
1/19/2021 6:00:00 AM 1.87 35.366 0.121 7.03 3.29 13.43
1/19/2021 6:15:00 AM 1.86 35.348 0.12 7.02 3.33 13.44
1/19/2021 6:30:00 AM 1.86 35.348 0.12 7.04 3.57 13.43
1/19/2021 6:45:00 AM 1.85 35.33 0.12 7.03 3.26 13.45
1/19/2021 7:00:00 AM 1.85 35.33 0.12 7.04 3.22 13.45
1/19/2021 7:15:00 AM 1.84 35.312 0.119 7.04 3.24 13.45
1/19/2021 7:30:00 AM 1.84 35.312 0.12 7.01 3.38 13.45
1/19/2021 7:45:00 AM 1.83 35.294 0.12 7 3.22 13.46
1/19/2021 8:00:00 AM 1.84 35.312 0.12 7.06 3.35 13.47
1/19/2021 8:15:00 AM 1.83 35.294 0.121 7.03 3.38 13.49
1/19/2021 8:30:00 AM 1.83 35.294 0.12 7.03 3.14 13.5
1/19/2021 8:45:00 AM 1.78 35.204 0.119 7.07 3.02 13.52
1/19/2021 9:00:00 AM 1.77 35.186 0.12 7.06 3.22 13.54
1/19/2021 9:15:00 AM 1.74 35.132 0.121 7.05 3.18 13.55
1/19/2021 9:30:00 AM 1.76 35.168 0.119 7.05 3.23 13.6
1/19/2021 9:45:00 AM 1.8 35.24 0.12 7.06 3.17 13.63
1/19/2021 10:00:00 AM 1.84 35.312 0.12 7.08 3.08 13.65
1/19/2021 10:15:00 AM 1.88 35.384 0.12 7.08 3.15 13.66
1/19/2021 10:30:00 AM 1.93 35.474 0.12 7.09 3.13 13.66
1/19/2021 10:45:00 AM 1.97 35.546 0.12 7.09 3.19 13.66
1/19/2021 11:00:00 AM 2.02 35.636 0.12 7.07 3.03 13.65
1/19/2021 11:15:00 AM 2.07 35.726 0.119 7.13 3.21 13.65
1/19/2021 11:30:00 AM 2.1 35.78 0.119 7.1 3.09 13.63
1/19/2021 11:45:00 AM 2.14 35.852 0.118 7.14 3.07 13.62
1/19/2021 12:00:00 PM 2.19 35.942 0.119 7.12 3.06 13.61
1/19/2021 12:15:00 PM 2.22 35.996 0.119 7.05 3.04 13.59
1/19/2021 12:30:00 PM 2.26 36.068 0.119 7.12 3.18 13.58
1/19/2021 12:45:00 PM 2.38 36.284 0.118 7.17 3.12 13.56
1/19/2021 1:00:00 PM 2.39 36.302 0.119 7.17 3.25 13.54
1/19/2021 1:15:00 PM 2.49 36.482 0.118 7.15 3.03 13.53
1/19/2021 1:30:00 PM 2.55 36.59 0.117 7.18 2.95 13.5
1/19/2021 1:45:00 PM 2.58 36.644 0.118 7.17 3.12 13.49
1/19/2021 2:00:00 PM 2.62 36.716 0.118 7.17 3.17 13.47
1/19/2021 2:15:00 PM 2.62 36.716 0.118 7.19 3.01 13.46
1/19/2021 2:30:00 PM 2.64 36.752 0.118 7.14 3.05 13.45
1/19/2021 2:45:00 PM 2.69 36.842 0.118 7.19 3.03 13.44
1/19/2021 3:00:00 PM 2.71 36.878 0.118 7.15 3.11 13.41
1/19/2021 3:15:00 PM 2.73 36.914 0.117 7.2 2.97 13.41
1/19/2021 3:30:00 PM 2.72 36.896 0.118 7.18 3.08 13.4
1/19/2021 3:45:00 PM 2.71 36.878 0.118 7.16 3.04 13.39
1/19/2021 4:00:00 PM 2.7 36.86 0.118 7.14 3.04 13.39
1/19/2021 4:15:00 PM 2.69 36.842 0.117 7.19 3.13 13.38
1/19/2021 4:30:00 PM 2.66 36.788 0.118 7.14 3.1 13.36
1/19/2021 4:45:00 PM 2.63 36.734 0.118 7.14 3.24 13.35
1/19/2021 5:00:00 PM 2.58 36.644 0.118 7.09 3.13 13.34
1/19/2021 5:15:00 PM 2.53 36.554 0.117 7.09 3.12 13.33
1/19/2021 5:30:00 PM 2.48 36.464 0.117 7.08 3.17 13.31
1/19/2021 5:45:00 PM 2.44 36.392 0.117 7.1 3.17 13.3
1/19/2021 6:00:00 PM 2.39 36.302 0.118 7.06 3.32 13.3
1/19/2021 6:15:00 PM 2.34 36.212 0.118 7.07 3.05 13.3
1/19/2021 6:30:00 PM 2.28 36.104 0.116 7.05 3.19 13.31
1/19/2021 6:45:00 PM 2.23 36.014 0.118 7.08 3.27 13.33
1/19/2021 7:00:00 PM 2.18 35.924 0.117 7.1 3.3 13.34
1/19/2021 7:15:00 PM 2.13 35.834 0.118 7.05 3.37 13.35
1/19/2021 7:30:00 PM 2.09 35.762 0.118 6.88 3.44 13.37
1/19/2021 7:45:00 PM 2.05 35.69 0.117 7.02 3.35 13.37
1/19/2021 8:00:00 PM 2.01 35.618 0.118 6.99 3.44 13.38
1/19/2021 8:15:00 PM 1.97 35.546 0.118 7.06 3.42 13.39
1/19/2021 8:30:00 PM 1.93 35.474 0.117 7.02 3.6 13.41
1/19/2021 8:45:00 PM 1.89 35.402 0.117 7.02 3.25 13.43
1/19/2021 9:00:00 PM 1.86 35.348 0.118 7.02 3.53 13.43
1/19/2021 9:15:00 PM 1.84 35.312 0.117 6.99 3.27 13.44
1/19/2021 9:30:00 PM 1.82 35.276 0.118 7.04 3.35 13.45
1/19/2021 9:45:00 PM 1.8 35.24 0.117 7.03 3.36 13.46
1/19/2021 10:00:00 PM 1.78 35.204 0.116 7.09 3.29 13.46
1/19/2021 10:15:00 PM 1.76 35.168 0.118 7.06 3.58 13.47
1/19/2021 10:30:00 PM 1.74 35.132 0.117 7.01 3.38 13.48
1/19/2021 10:45:00 PM 1.72 35.096 0.117 7.01 3.19 13.48
1/19/2021 11:00:00 PM 1.7 35.06 0.116 7.02 3.09 13.49
1/19/2021 11:15:00 PM 1.67 35.006 0.116 7.01 3.06 13.49
1/19/2021 11:30:00 PM 1.64 34.952 0.117 7.01 3.18 13.5
1/19/2021 11:45:00 PM 1.62 34.916 0.117 7.01 3.18 13.51
1/20/2021 12:00:00 AM 1.6 34.88 0.117 7.01 3.03 13.51
1/20/2021 12:15:00 AM 1.57 34.826 0.117 6.86 3.43 13.52
1/20/2021 12:30:00 AM 1.55 34.79 0.117 7.03 3.33 13.52
1/20/2021 12:45:00 AM 1.53 34.754 0.117 7 3.26 13.53
1/20/2021 1:00:00 AM 1.51 34.718 0.117 7.06 3.15 13.53
1/20/2021 1:15:00 AM 1.49 34.682 0.116 7.03 3.14 13.54
1/20/2021 1:30:00 AM 1.48 34.664 0.117 6.82 3.36 13.55
1/20/2021 1:45:00 AM 1.47 34.646 0.117 6.98 3.13 13.55
1/20/2021 2:00:00 AM 1.47 34.646 0.117 7.02 3.15 13.55
1/20/2021 2:15:00 AM 1.46 34.628 0.117 7 3.12 13.55
1/20/2021 2:30:00 AM 1.45 34.61 0.117 7.04 3.11 13.55
1/20/2021 2:45:00 AM 1.45 34.61 0.117 7.04 3.11 13.55
1/20/2021 3:00:00 AM 1.45 34.61 0.118 7.01 3.2 13.55
1/20/2021 3:15:00 AM 1.44 34.592 0.117 7.01 3.38 13.55
1/20/2021 3:30:00 AM 1.43 34.574 0.117 7.01 3.33 13.55
1/20/2021 3:45:00 AM 1.43 34.574 0.117 7 3.28 13.55
1/20/2021 4:00:00 AM 1.44 34.592 0.117 7.02 3.14 13.55
1/20/2021 4:15:00 AM 1.44 34.592 0.116 7.02 2.97 13.55
1/20/2021 4:30:00 AM 1.44 34.592 0.117 7 3.42 13.55
1/20/2021 4:45:00 AM 1.43 34.574 0.117 6.94 3.16 13.55
1/20/2021 5:00:00 AM 1.42 34.556 0.116 7.04 3.28 13.55
1/20/2021 5:15:00 AM 1.41 34.538 0.116 7.04 3.13 13.55
1/20/2021 5:30:00 AM 1.39 34.502 0.117 7.01 2.99 13.55
1/20/2021 5:45:00 AM 1.38 34.484 0.116 6.84 3.01 13.56
1/20/2021 6:00:00 AM 1.37 34.466 0.116 7.02 3.13 13.56
1/20/2021 6:15:00 AM 1.36 34.448 0.116 7.04 3.15 13.56
1/20/2021 6:30:00 AM 1.35 34.43 0.116 7.01 3.14 13.57
1/20/2021 6:45:00 AM 1.34 34.412 0.116 7.01 3.18 13.58
1/20/2021 7:00:00 AM 1.34 34.412 0.116 7.01 2.99 13.58
1/20/2021 7:15:00 AM 1.33 34.394 0.117 7.03 3.06 13.59
1/20/2021 7:30:00 AM 1.31 34.358 0.116 7 3.24 13.6
1/20/2021 7:45:00 AM 1.3 34.34 0.116 7.01 3.2 13.61
1/20/2021 8:00:00 AM 1.28 34.304 0.115 7 3.07 13.63
1/20/2021 8:15:00 AM 1.25 34.25 0.116 7.01 2.95 13.68
1/20/2021 8:30:00 AM 1.22 34.196 0.116 7 3.16 13.72
1/20/2021 8:45:00 AM 1.2 34.16 0.116 7.05 3.05 13.77
1/20/2021 9:00:00 AM 1.17 34.106 0.116 7.08 3.03 13.81
1/20/2021 9:15:00 AM 1.2 34.16 0.116 7.06 3.67 13.83
1/20/2021 9:30:00 AM 1.21 34.178 0.115 7.1 2.92 13.86
1/20/2021 9:45:00 AM 1.23 34.214 0.116 7.09 3.13 13.87
1/20/2021 10:00:00 AM 1.28 34.304 0.116 7.11 3.06 13.88
1/20/2021 10:15:00 AM 1.3 34.34 0.115 7.09 2.97 13.88
1/20/2021 10:30:00 AM 1.33 34.394 0.116 7.1 3.01 13.88
1/20/2021 10:45:00 AM 1.36 34.448 0.116 7.11 3 13.88
1/20/2021 11:00:00 AM 1.41 34.538 0.116 7.14 2.99 13.88
1/20/2021 11:15:00 AM 1.4 34.52 0.116 7.17 3.1 13.88
1/20/2021 11:30:00 AM 1.44 34.592 0.116 7.14 2.97 13.87
1/20/2021 11:45:00 AM 1.53 34.754 0.115 7.19 2.85 13.85
1/20/2021 12:00:00 PM 1.57 34.826 0.115 7.12 2.98 13.84
1/20/2021 12:15:00 PM 1.63 34.934 0.115 7.19 2.94 13.82
1/20/2021 12:30:00 PM 1.68 35.024 0.115 7.14 2.94 13.81
1/20/2021 12:45:00 PM 1.81 35.258 0.115 7.12 2.85 13.79
1/20/2021 1:00:00 PM 1.9 35.42 0.115 7.2 2.98 13.78
1/20/2021 1:15:00 PM 1.92 35.456 0.115 7.19 3.05 13.76
1/20/2021 1:30:00 PM 2.02 35.636 0.115 7.06 3.03 13.72
1/20/2021 1:45:00 PM 2.05 35.69 0.114 7.15 3.04 13.69
1/20/2021 2:00:00 PM 2.04 35.672 0.115 7.15 3.04 13.68
1/20/2021 2:15:00 PM 2.05 35.69 0.114 7.14 3 13.68
1/20/2021 2:30:00 PM 2.02 35.636 0.114 7.13 3.04 13.68
1/20/2021 2:45:00 PM 2.03 35.654 0.114 7.18 3.05 13.67
1/20/2021 3:00:00 PM 2.03 35.654 0.113 7.15 2.98 13.67
1/20/2021 3:15:00 PM 1.99 35.582 0.115 7.12 2.94 13.67
1/20/2021 3:30:00 PM 1.96 35.528 0.114 7.16 2.98 13.68
1/20/2021 3:45:00 PM 1.92 35.456 0.113 7.14 2.91 13.68
1/20/2021 4:00:00 PM 1.86 35.348 0.115 7.18 2.96 13.69
1/20/2021 4:15:00 PM 1.83 35.294 0.115 7.15 3.11 13.69
1/20/2021 4:30:00 PM 1.79 35.222 0.114 6.99 3.15 13.69
1/20/2021 4:45:00 PM 1.73 35.114 0.115 7.1 2.92 13.7
1/20/2021 5:00:00 PM 1.67 35.006 0.114 7.11 3.36 13.69
1/20/2021 5:15:00 PM 1.61 34.898 0.113 7.1 3.27 13.67
1/20/2021 5:30:00 PM 1.55 34.79 0.114 7.1 3.15 13.66
1/20/2021 5:45:00 PM 1.49 34.682 0.113 7.03 2.9 13.65
1/20/2021 6:00:00 PM 1.43 34.574 0.114 7.08 3.01 13.65
1/20/2021 6:15:00 PM 1.38 34.484 0.114 7.03 2.97 13.66
1/20/2021 6:30:00 PM 1.31 34.358 0.114 6.98 2.97 13.67
1/20/2021 6:45:00 PM 1.26 34.268 0.115 7.02 3.19 13.69
1/20/2021 7:00:00 PM 1.22 34.196 0.115 6.88 2.98 13.7
1/20/2021 7:15:00 PM 1.18 34.124 0.115 7.09 3.09 13.71
1/20/2021 7:30:00 PM 1.14 34.052 0.115 7.02 3.18 13.72
1/20/2021 7:45:00 PM 1.1 33.98 0.114 7.05 3.49 13.73
1/20/2021 8:00:00 PM 1.06 33.908 0.114 7.07 3.46 13.74
1/20/2021 8:15:00 PM 1.02 33.836 0.115 7.02 3.58 13.75
1/20/2021 8:30:00 PM 0.98 33.764 0.114 7.02 3.41 13.77
1/20/2021 8:45:00 PM 0.94 33.692 0.115 7.02 3.14 13.79
1/20/2021 9:00:00 PM 0.92 33.656 0.114 7.02 3.08 13.8
1/20/2021 9:15:00 PM 0.88 33.584 0.114 7.07 3.31 13.82
1/20/2021 9:30:00 PM 0.83 33.494 0.115 7.07 3.34 13.83
1/20/2021 9:45:00 PM 0.78 33.404 0.114 7.01 3.14 13.85
1/20/2021 10:00:00 PM 0.73 33.314 0.115 7.03 3.35 13.86
1/20/2021 10:15:00 PM 0.69 33.242 0.114 7.07 3.29 13.88
1/20/2021 10:30:00 PM 0.66 33.188 0.115 6.99 3.15 13.9
1/20/2021 10:45:00 PM 0.61 33.098 0.115 6.81 3.23 13.91
1/20/2021 11:00:00 PM 0.57 33.026 0.114 6.99 3.04 13.92
1/20/2021 11:15:00 PM 0.53 32.954 0.115 6.97 3.01 13.94
1/20/2021 11:30:00 PM 0.5 32.9 0.115 6.99 3.24 13.94
1/20/2021 11:45:00 PM 0.47 32.846 0.114 6.99 3.03 13.97
1/21/2021 12:00:00 AM 0.45 32.81 0.114 6.99 3.05 13.97
1/21/2021 12:15:00 AM 0.44 32.792 0.115 7.02 3.12 13.97
1/21/2021 12:30:00 AM 0.43 32.774 0.115 6.98 2.98 13.98
1/21/2021 12:45:00 AM 0.42 32.756 0.115 7.06 3.07 13.98
1/21/2021 1:00:00 AM 0.41 32.738 0.115 6.98 3.09 13.98
1/21/2021 1:15:00 AM 0.37 32.666 0.114 6.99 3.11 13.98
1/21/2021 1:30:00 AM 0.33 32.594 0.115 6.98 2.95 13.99
1/21/2021 1:45:00 AM 0.29 32.522 0.115 7 3.09 14.01
1/21/2021 2:00:00 AM 0.25 32.45 0.114 6.98 3.15 14.02
1/21/2021 2:15:00 AM 0.21 32.378 0.115 6.98 3.13 14.03
1/21/2021 2:30:00 AM 0.17 32.306 0.113 6.99 3.04 14.04
1/21/2021 2:45:00 AM 0.13 32.234 0.114 6.98 3.13 14.05
1/21/2021 3:00:00 AM 0.1 32.18 0.114 6.97 3.08 14.06
1/21/2021 3:15:00 AM 0.06 32.108 0.113 7.04 2.94 14.07
1/21/2021 3:30:00 AM 0.03 32.054 0.114 6.97 3.1 14.08
1/21/2021 3:45:00 AM -0.01 31.982 0.114 7.02 3.08 14.09
1/21/2021 4:00:00 AM -0.04 31.928 0.114 7.02 3.04 14.1
1/21/2021 4:15:00 AM -0.08 31.856 0.115 6.99 3.07 14.12
1/21/2021 4:30:00 AM -0.1 31.82 0.115 6.99 3.06 14.13
1/21/2021 4:45:00 AM -0.1 31.82 0.115 6.95 3.05 14.13
1/21/2021 5:00:00 AM -0.1 31.82 0.114 7.06 3.1 14.14
1/21/2021 5:15:00 AM -0.09 31.838 0.114 7.01 3.16 14.13
1/21/2021 5:30:00 AM -0.09 31.838 0.114 7 3.09 14.13
1/21/2021 5:45:00 AM -0.08 31.856 0.115 7 3.07 14.12
1/21/2021 6:00:00 AM -0.07 31.874 0.114 6.99 3.16 14.12
1/21/2021 6:15:00 AM -0.07 31.874 0.114 7.01 3.09 14.12
1/21/2021 6:30:00 AM -0.07 31.874 0.114 6.99 3.19 14.11
1/21/2021 6:45:00 AM -0.07 31.874 0.114 7 2.89 14.1
1/21/2021 7:00:00 AM -0.06 31.892 0.114 6.99 2.97 14.1
1/21/2021 7:15:00 AM -0.05 31.91 0.114 7 3.01 14.1
1/21/2021 7:30:00 AM -0.04 31.928 0.114 7 3.11 14.09
1/21/2021 7:45:00 AM -0.03 31.946 0.114 7.01 3.05 14.1
1/21/2021 8:00:00 AM -0.02 31.964 0.113 6.99 2.99 14.11
1/21/2021 8:15:00 AM 0.01 32.018 0.112 7.03 3.05 14.12
1/21/2021 8:30:00 AM 0.03 32.054 0.113 7.01 3.04 14.14
1/21/2021 8:45:00 AM 0.05 32.09 0.113 7.03 3.11 14.16
1/21/2021 9:00:00 AM 0.08 32.144 0.113 7.09 3.01 14.18
1/21/2021 9:15:00 AM 0.13 32.234 0.112 7.11 2.95 14.19
1/21/2021 9:30:00 AM 0.17 32.306 0.112 7.07 2.99 14.21
1/21/2021 9:45:00 AM 0.22 32.396 0.111 7.06 2.88 14.2
1/21/2021 10:00:00 AM 0.28 32.504 0.111 6.94 2.94 14.21
1/21/2021 10:15:00 AM 0.34 32.612 0.111 7.15 2.99 14.2
1/21/2021 10:30:00 AM 0.41 32.738 0.111 7.17 2.96 14.19
1/21/2021 10:45:00 AM 0.48 32.864 0.11 7.11 2.9 14.17
1/21/2021 11:00:00 AM 0.55 32.99 0.11 7.1 2.95 14.15
1/21/2021 11:15:00 AM 0.62 33.116 0.11 7.09 2.9 14.14
1/21/2021 11:30:00 AM 0.71 33.278 0.11 7.09 3.01 14.11
1/21/2021 11:45:00 AM 0.78 33.404 0.109 7.1 2.99 14.08
1/21/2021 12:00:00 PM 0.87 33.566 0.109 7.12 2.97 14.05
1/21/2021 12:15:00 PM 0.92 33.656 0.11 7.16 3.11 14.03
1/21/2021 12:30:00 PM 0.96 33.728 0.109 7.12 2.91 13.99
1/21/2021 12:45:00 PM 1.05 33.89 0.109 7.11 2.98 13.97
1/21/2021 1:00:00 PM 1.12 34.016 0.109 7.11 2.87 13.94
1/21/2021 1:15:00 PM 1.18 34.124 0.109 7.12 3.12 13.91
1/21/2021 1:30:00 PM 1.28 34.304 0.109 7 3 13.87
1/21/2021 1:45:00 PM 1.38 34.484 0.109 7.16 3.01 13.82
1/21/2021 2:00:00 PM 1.47 34.646 0.109 7.15 3.04 13.77
1/21/2021 2:15:00 PM 1.58 34.844 0.109 7.15 2.97 13.73
1/21/2021 2:30:00 PM 1.68 35.024 0.109 7.14 2.99 13.68
1/21/2021 2:45:00 PM 1.76 35.168 0.109 7.14 2.95 13.63
1/21/2021 3:00:00 PM 1.82 35.276 0.11 7.15 3.2 13.59
1/21/2021 3:15:00 PM 1.87 35.366 0.11 7.15 3.16 13.56
1/21/2021 3:30:00 PM 1.91 35.438 0.11 7.17 3.13 13.53
1/21/2021 3:45:00 PM 1.94 35.492 0.11 7.14 3.23 13.5
1/21/2021 4:00:00 PM 1.96 35.528 0.111 7.14 3.61 13.48
1/21/2021 4:15:00 PM 1.95 35.51 0.11 7.14 3.25 13.47
1/21/2021 4:30:00 PM 1.93 35.474 0.111 7.17 3.2 13.45
1/21/2021 4:45:00 PM 1.91 35.438 0.111 7.14 3.12 13.44
1/21/2021 5:00:00 PM 1.87 35.366 0.112 7.12 3.12 13.42
1/21/2021 5:15:00 PM 1.82 35.276 0.112 7.14 3 13.41
1/21/2021 5:30:00 PM 1.77 35.186 0.113 7.11 3.1 13.39
1/21/2021 5:45:00 PM 1.73 35.114 0.113 7.15 3.21 13.38
1/21/2021 6:00:00 PM 1.69 35.042 0.113 7.1 3.18 13.38
1/21/2021 6:15:00 PM 1.65 34.97 0.113 7.1 3.17 13.38
1/21/2021 6:30:00 PM 1.6 34.88 0.114 6.93 3.18 13.39
1/21/2021 6:45:00 PM 1.56 34.808 0.114 7.06 3.27 13.39
1/21/2021 7:00:00 PM 1.55 34.79 0.114 7.03 3.25 13.4
1/21/2021 7:15:00 PM 1.54 34.772 0.114 7.1 4.22 13.4
1/21/2021 7:30:00 PM 1.53 34.754 0.114 7.04 3.17 13.41
1/21/2021 7:45:00 PM 1.52 34.736 0.115 7.05 3.16 13.4
1/21/2021 8:00:00 PM 1.52 34.736 0.115 7.06 3.2 13.4
1/21/2021 8:15:00 PM 1.52 34.736 0.115 7.05 3.19 13.4
1/21/2021 8:30:00 PM 1.52 34.736 0.114 7.07 3.07 13.4
1/21/2021 8:45:00 PM 1.52 34.736 0.115 7.05 3.49 13.4
1/21/2021 9:00:00 PM 1.52 34.736 0.115 7.08 3.47 13.4
1/21/2021 9:15:00 PM 1.51 34.718 0.115 7.05 3.34 13.39
1/21/2021 9:30:00 PM 1.51 34.718 0.115 7.13 3.28 13.4
1/21/2021 9:45:00 PM 1.51 34.718 0.116 7.08 3.33 13.4
1/21/2021 10:00:00 PM 1.51 34.718 0.115 7.09 3.11 13.4
1/21/2021 10:15:00 PM 1.49 34.682 0.116 7.06 3.12 13.4
1/21/2021 10:30:00 PM 1.49 34.682 0.115 7.05 3.05 13.41
1/21/2021 10:45:00 PM 1.48 34.664 0.116 7.03 3 13.41
1/21/2021 11:00:00 PM 1.46 34.628 0.115 7.06 3.13 13.42
1/21/2021 11:15:00 PM 1.44 34.592 0.115 7.05 3.36 13.43
1/21/2021 11:30:00 PM 1.43 34.574 0.114 7.03 3.56 13.43
1/21/2021 11:45:00 PM 1.42 34.556 0.115 7.06 3.23 13.43
1/22/2021 12:00:00 AM 1.41 34.538 0.114 7.07 3.89 13.44
1/22/2021 12:15:00 AM 1.38 34.484 0.114 7.05 3.78 13.45
1/22/2021 12:30:00 AM 1.36 34.448 0.114 7.03 3.58 13.46
1/22/2021 12:45:00 AM 1.35 34.43 0.115 7.09 3.32 13.46
1/22/2021 1:00:00 AM 1.33 34.394 0.114 7.03 3.6 13.47
1/22/2021 1:15:00 AM 1.31 34.358 0.114 7.05 3.56 13.47
1/22/2021 1:30:00 AM 1.29 34.322 0.114 7.03 3.26 13.48
1/22/2021 1:45:00 AM 1.3 34.34 0.114 7.06 3.34 13.48
1/22/2021 2:00:00 AM 1.3 34.34 0.113 7.03 3.09 13.48
1/22/2021 2:15:00 AM 1.3 34.34 0.114 7.04 2.96 13.49
1/22/2021 2:30:00 AM 1.31 34.358 0.113 7.06 3.25 13.49
1/22/2021 2:45:00 AM 1.32 34.376 0.112 7.03 3.14 13.48
1/22/2021 3:00:00 AM 1.33 34.394 0.113 7.08 3.15 13.48
1/22/2021 3:15:00 AM 1.34 34.412 0.113 7.09 3.21 13.48
1/22/2021 3:30:00 AM 1.34 34.412 0.113 7.07 3.03 13.49
1/22/2021 3:45:00 AM 1.35 34.43 0.112 7.03 3.03 13.48
1/22/2021 4:00:00 AM 1.35 34.43 0.112 7.11 3.07 13.48
1/22/2021 4:15:00 AM 1.35 34.43 0.111 7.05 2.98 13.48
1/22/2021 4:30:00 AM 1.35 34.43 0.112 7.05 3.18 13.48
1/22/2021 4:45:00 AM 1.35 34.43 0.111 7.02 3 13.48
1/22/2021 5:00:00 AM 1.35 34.43 0.112 7.09 3.28 13.48
1/22/2021 5:15:00 AM 1.35 34.43 0.112 7.09 3.12 13.48
1/22/2021 5:30:00 AM 1.35 34.43 0.112 7.09 3.32 13.48
1/22/2021 5:45:00 AM 1.35 34.43 0.112 7.02 2.95 13.48
1/22/2021 6:00:00 AM 1.35 34.43 0.111 7.03 2.99 13.48
1/22/2021 6:15:00 AM 1.35 34.43 0.112 6.89 3.01 13.48
1/22/2021 6:30:00 AM 1.35 34.43 0.111 7.1 2.96 13.49
1/22/2021 6:45:00 AM 1.34 34.412 0.111 6.98 3.1 13.49
1/22/2021 7:00:00 AM 1.33 34.394 0.111 7 3.11 13.49
1/22/2021 7:15:00 AM 1.32 34.376 0.111 7.08 2.93 13.49
1/22/2021 7:30:00 AM 1.31 34.358 0.111 7.09 2.95 13.5
1/22/2021 7:45:00 AM 1.28 34.304 0.11 7.07 3.11 13.53
1/22/2021 8:00:00 AM 1.25 34.25 0.111 6.84 2.9 13.56
1/22/2021 8:15:00 AM 1.25 34.25 0.111 7.04 2.87 13.6
1/22/2021 8:30:00 AM 1.27 34.286 0.111 6.82 2.94 13.64
1/22/2021 8:45:00 AM 1.3 34.34 0.111 7.1 3.01 13.67
1/22/2021 9:00:00 AM 1.34 34.412 0.11 7.08 2.89 13.71
1/22/2021 9:15:00 AM 1.37 34.466 0.11 7.16 2.92 13.72
1/22/2021 9:30:00 AM 1.42 34.556 0.11 7.14 2.95 13.73
1/22/2021 9:45:00 AM 1.48 34.664 0.11 7.18 2.79 13.74
1/22/2021 10:00:00 AM 1.56 34.808 0.109 7.17 2.81 13.73
1/22/2021 10:15:00 AM 1.58 34.844 0.109 7.18 2.89 13.73
1/22/2021 10:30:00 AM 1.61 34.898 0.109 7.13 2.92 13.72
1/22/2021 10:45:00 AM 1.67 35.006 0.109 7.13 2.88 13.72
1/22/2021 11:00:00 AM 1.73 35.114 0.109 7.22 2.93 13.71
1/22/2021 11:15:00 AM 1.83 35.294 0.108 7.19 2.82 13.71
1/22/2021 11:30:00 AM 1.89 35.402 0.108 7.2 2.85 13.69
1/22/2021 11:45:00 AM 1.95 35.51 0.109 7.21 2.82 13.67
1/22/2021 12:00:00 PM 2.09 35.762 0.109 7.13 2.87 13.65
1/22/2021 12:15:00 PM 2.09 35.762 0.109 7.2 2.93 13.6
1/22/2021 12:30:00 PM 2.11 35.798 0.109 7.16 3.12 13.59
1/22/2021 12:45:00 PM 2.13 35.834 0.108 7.16 2.84 13.56
1/22/2021 1:00:00 PM 2.15 35.87 0.109 7.16 2.96 13.55
1/22/2021 1:15:00 PM 2.17 35.906 0.109 7.16 2.82 13.55
1/22/2021 1:30:00 PM 2.17 35.906 0.109 7.13 2.96 13.55
1/22/2021 1:45:00 PM 2.14 35.852 0.108 7.18 2.8 13.52
1/22/2021 2:00:00 PM 2.05 35.69 0.108 7.08 2.97 13.48
1/22/2021 2:15:00 PM 2.07 35.726 0.108 7.14 2.95 13.51
1/22/2021 2:30:00 PM 2.11 35.798 0.108 7.16 3.05 13.53
1/22/2021 2:45:00 PM 2.12 35.816 0.108 7.14 3.01 13.54
1/22/2021 3:00:00 PM 2.11 35.798 0.108 7.21 2.92 13.54
1/22/2021 3:15:00 PM 2.12 35.816 0.108 7.17 3.58 13.52
1/22/2021 3:30:00 PM 2.11 35.798 0.108 7.15 2.73 13.53
1/22/2021 3:45:00 PM 2.09 35.762 0.108 7.09 2.79 13.54
1/22/2021 4:00:00 PM 2.06 35.708 0.108 7.14 2.78 13.53
1/22/2021 4:15:00 PM 2.03 35.654 0.108 7.13 2.8 13.52
1/22/2021 4:30:00 PM 2.01 35.618 0.108 7.11 2.76 13.51
1/22/2021 4:45:00 PM 1.98 35.564 0.108 7.11 2.91 13.47
1/22/2021 5:00:00 PM 1.95 35.51 0.108 7.11 2.95 13.45
1/22/2021 5:15:00 PM 1.93 35.474 0.108 7.09 3.2 13.43
1/22/2021 5:30:00 PM 1.92 35.456 0.108 7.09 2.98 13.41
1/22/2021 5:45:00 PM 1.89 35.402 0.107 7.06 2.94 13.4
1/22/2021 6:00:00 PM 1.86 35.348 0.108 7.11 2.72 13.4
1/22/2021 6:15:00 PM 1.84 35.312 0.108 7.07 2.98 13.41
1/22/2021 6:30:00 PM 1.81 35.258 0.109 7.08 3.02 13.4
1/22/2021 6:45:00 PM 1.79 35.222 0.108 7.06 2.98 13.41
1/22/2021 7:00:00 PM 1.75 35.15 0.109 7.04 2.91 13.43
1/22/2021 7:15:00 PM 1.7 35.06 0.108 6.99 2.85 13.44
1/22/2021 7:30:00 PM 1.66 34.988 0.108 6.99 2.85 13.45
1/22/2021 7:45:00 PM 1.64 34.952 0.108 7.04 2.98 13.46
1/22/2021 8:00:00 PM 1.6 34.88 0.108 7.04 2.8 13.47
1/22/2021 8:15:00 PM 1.56 34.808 0.108 7.03 2.87 13.48
1/22/2021 8:30:00 PM 1.51 34.718 0.109 7.04 2.97 13.5
1/22/2021 8:45:00 PM 1.48 34.664 0.108 7.04 3.22 13.51
1/22/2021 9:00:00 PM 1.45 34.61 0.108 7.03 3.46 13.53
1/22/2021 9:15:00 PM 1.39 34.502 0.109 7.04 3.09 13.55
1/22/2021 9:30:00 PM 1.36 34.448 0.108 7.04 2.89 13.56
1/22/2021 9:45:00 PM 1.32 34.376 0.108 7.03 2.93 13.58
1/22/2021 10:00:00 PM 1.3 34.34 0.109 7.03 3.23 13.59
1/22/2021 10:15:00 PM 1.24 34.232 0.109 7.02 3.07 13.61
1/22/2021 10:30:00 PM 1.18 34.124 0.109 7.01 2.94 13.64
1/22/2021 10:45:00 PM 1.13 34.034 0.11 6.96 3.06 13.66
1/22/2021 11:00:00 PM 1.07 33.926 0.11 7.02 3.07 13.68
1/22/2021 11:15:00 PM 1.05 33.89 0.109 7.07 3.05 13.69
1/22/2021 11:30:00 PM 1.01 33.818 0.11 7.08 3.21 13.71
1/22/2021 11:45:00 PM 0.97 33.746 0.11 7.01 3.35 13.73
1/23/2021 12:00:00 AM 0.93 33.674 0.11 7.02 2.93 13.74
1/23/2021 12:15:00 AM 0.91 33.638 0.11 7.03 2.89 13.75
1/23/2021 12:30:00 AM 0.88 33.584 0.11 7.02 3.1 13.77
1/23/2021 12:45:00 AM 0.83 33.494 0.11 7.01 3.24 13.78
1/23/2021 1:00:00 AM 0.78 33.404 0.111 7.08 3.16 13.79
1/23/2021 1:15:00 AM 0.74 33.332 0.11 7.02 3.1 13.81
1/23/2021 1:30:00 AM 0.69 33.242 0.111 7.02 2.92 13.83
1/23/2021 1:45:00 AM 0.64 33.152 0.11 7.02 3.05 13.86
1/23/2021 2:00:00 AM 0.62 33.116 0.111 7.01 3.04 13.87
1/23/2021 2:15:00 AM 0.6 33.08 0.111 7.03 2.89 13.89
1/23/2021 2:30:00 AM 0.57 33.026 0.111 7.02 2.82 13.9
1/23/2021 2:45:00 AM 0.51 32.918 0.11 7.01 2.94 13.92
1/23/2021 3:00:00 AM 0.46 32.828 0.11 7.02 3.27 13.94
1/23/2021 3:15:00 AM 0.43 32.774 0.111 7.01 3.08 13.96
1/23/2021 3:30:00 AM 0.43 32.774 0.111 7 3.07 13.97
1/23/2021 3:45:00 AM 0.42 32.756 0.111 7.08 2.89 13.98
1/23/2021 4:00:00 AM 0.41 32.738 0.111 7.06 2.98 13.98
1/23/2021 4:15:00 AM 0.37 32.666 0.11 7.03 2.88 14
1/23/2021 4:30:00 AM 0.32 32.576 0.11 7.09 2.85 14.02
1/23/2021 4:45:00 AM 0.28 32.504 0.111 7.01 3.06 14.04
1/23/2021 5:00:00 AM 0.24 32.432 0.11 7.08 3.13 14.05
1/23/2021 5:15:00 AM 0.21 32.378 0.111 7.1 3 14.07
1/23/2021 5:30:00 AM 0.18 32.324 0.11 6.99 2.92 14.09
1/23/2021 5:45:00 AM 0.14 32.252 0.11 7.01 2.98 14.1
1/23/2021 6:00:00 AM 0.11 32.198 0.11 7.04 2.85 14.12
1/23/2021 6:15:00 AM 0.05 32.09 0.11 6.92 2.96 14.14
1/23/2021 6:30:00 AM 0.01 32.018 0.11 6.79 2.99 14.16
1/23/2021 6:45:00 AM -0.03 31.946 0.11 7.06 3 14.18
1/23/2021 7:00:00 AM -0.06 31.892 0.111 6.97 2.93 14.2
1/23/2021 7:15:00 AM -0.08 31.856 0.11 7 3.04 14.21
1/23/2021 7:30:00 AM -0.09 31.838 0.11 7.08 2.99 14.23
1/23/2021 7:45:00 AM -0.09 31.838 0.11 7.08 2.9 14.25
1/23/2021 8:00:00 AM -0.09 31.838 0.111 6.85 2.88 14.27
1/23/2021 8:15:00 AM -0.09 31.838 0.111 7.08 2.95 14.3
1/23/2021 8:30:00 AM -0.09 31.838 0.111 7.12 3.1 14.33
1/23/2021 8:45:00 AM -0.08 31.856 0.11 7.05 2.97 14.36
1/23/2021 9:00:00 AM -0.08 31.856 0.111 7.02 2.95 14.4
1/23/2021 9:15:00 AM -0.06 31.892 0.111 7.15 2.86 14.45
1/23/2021 9:30:00 AM -0.03 31.946 0.111 6.87 3.03 14.48
1/23/2021 9:45:00 AM 0 32 0.111 7.14 2.82 14.5
1/23/2021 10:00:00 AM 0.04 32.072 0.111 7.08 2.84 14.52
1/23/2021 10:15:00 AM 0.06 32.108 0.11 7.19 2.91 14.53
1/23/2021 10:30:00 AM 0.11 32.198 0.11 7.09 2.77 14.53
1/23/2021 10:45:00 AM 0.16 32.288 0.11 7.13 2.85 14.53
1/23/2021 11:00:00 AM 0.19 32.342 0.11 7.12 2.89 14.53
1/23/2021 11:15:00 AM 0.24 32.432 0.11 7.14 2.94 14.52
1/23/2021 11:30:00 AM 0.29 32.522 0.109 7.14 2.94 14.51
1/23/2021 11:45:00 AM 0.35 32.63 0.11 7 2.8 14.48
1/23/2021 12:00:00 PM 0.41 32.738 0.109 7.15 2.85 14.47
1/23/2021 12:15:00 PM 0.47 32.846 0.109 7.16 2.78 14.45
1/23/2021 12:30:00 PM 0.53 32.954 0.109 7.17 2.78 14.44
1/23/2021 12:45:00 PM 0.59 33.062 0.109 7.17 2.78 14.41
1/23/2021 1:00:00 PM 0.63 33.134 0.109 7.23 2.9 14.4
1/23/2021 1:15:00 PM 0.67 33.206 0.108 7.19 2.89 14.37
1/23/2021 1:30:00 PM 0.71 33.278 0.108 7.17 2.88 14.36
1/23/2021 1:45:00 PM 0.76 33.368 0.108 7.17 2.93 14.34
1/23/2021 2:00:00 PM 0.78 33.404 0.108 7.2 2.87 14.32
1/23/2021 2:15:00 PM 0.81 33.458 0.108 7.07 2.8 14.31
1/23/2021 2:30:00 PM 0.83 33.494 0.108 7.25 2.87 14.3
1/23/2021 2:45:00 PM 0.81 33.458 0.108 7.24 2.91 14.29
1/23/2021 3:00:00 PM 0.81 33.458 0.108 7.15 2.86 14.29
1/23/2021 3:15:00 PM 0.81 33.458 0.108 7.19 2.78 14.29
1/23/2021 3:30:00 PM 0.81 33.458 0.107 7.23 2.71 14.27
1/23/2021 3:45:00 PM 0.8 33.44 0.108 7.18 2.82 14.28
1/23/2021 4:00:00 PM 0.77 33.386 0.108 7.23 2.77 14.27
1/23/2021 4:15:00 PM 0.71 33.278 0.108 7.18 2.81 14.27
1/23/2021 4:30:00 PM 0.7 33.26 0.108 7.22 2.98 14.27
1/23/2021 4:45:00 PM 0.69 33.242 0.108 7.21 3.09 14.24
1/23/2021 5:00:00 PM 0.63 33.134 0.109 7.13 2.78 14.22
1/23/2021 5:15:00 PM 0.57 33.026 0.108 7.17 2.74 14.2
1/23/2021 5:30:00 PM 0.54 32.972 0.109 7.16 2.89 14.17
1/23/2021 5:45:00 PM 0.48 32.864 0.109 6.84 3.12 14.16
1/23/2021 6:00:00 PM 0.44 32.792 0.108 7.07 3 14.15
1/23/2021 6:15:00 PM 0.4 32.72 0.11 6.69 2.9 14.16
1/23/2021 6:30:00 PM 0.36 32.648 0.11 7.15 2.87 14.16
1/23/2021 6:45:00 PM 0.32 32.576 0.11 7.13 2.96 14.16
1/23/2021 7:00:00 PM 0.3 32.54 0.109 6.99 2.97 14.16
1/23/2021 7:15:00 PM 0.28 32.504 0.11 7.14 2.9 14.17
1/23/2021 7:30:00 PM 0.24 32.432 0.11 7.13 2.75 14.18
1/23/2021 7:45:00 PM 0.22 32.396 0.11 7.12 3.04 14.19
1/23/2021 8:00:00 PM 0.18 32.324 0.109 7.07 3.1 14.2
1/23/2021 8:15:00 PM 0.15 32.27 0.11 6.96 3.03 14.21
1/23/2021 8:30:00 PM 0.12 32.216 0.11 7.12 2.99 14.22
1/23/2021 8:45:00 PM 0.12 32.216 0.11 7.05 2.93 14.22
1/23/2021 9:00:00 PM 0.11 32.198 0.111 7.13 3.05 14.23
1/23/2021 9:15:00 PM 0.1 32.18 0.111 7.14 2.95 14.23
1/23/2021 9:30:00 PM 0.09 32.162 0.11 7.13 2.99 14.23
1/23/2021 9:45:00 PM 0.07 32.126 0.11 7.12 3.03 14.24
1/23/2021 10:00:00 PM 0.05 32.09 0.112 7.11 3 14.25
1/23/2021 10:15:00 PM 0.05 32.09 0.111 7.13 2.93 14.26
1/23/2021 10:30:00 PM 0.03 32.054 0.112 7.12 2.92 14.26
1/23/2021 10:45:00 PM 0.01 32.018 0.111 7.04 3.05 14.27
1/23/2021 11:00:00 PM 0 32 0.111 7.11 3.07 14.27
1/23/2021 11:15:00 PM -0.05 31.91 0.111 7.14 3.04 14.28
1/23/2021 11:30:00 PM -0.05 31.91 0.112 7.1 2.92 14.29
1/23/2021 11:45:00 PM -0.07 31.874 0.111 7.02 3.07 14.29
1/24/2021 12:00:00 AM -0.09 31.838 0.111 7.1 2.94 14.31
1/24/2021 12:15:00 AM -0.13 31.766 0.111 7.12 2.91 14.32
1/24/2021 12:30:00 AM -0.11 31.802 0.112 7.1 2.97 14.34
1/24/2021 12:45:00 AM -0.11 31.802 0.113 7 3.09 14.35
1/24/2021 1:00:00 AM -0.11 31.802 0.113 7.04 2.95 14.36
1/24/2021 1:15:00 AM -0.11 31.802 0.113 7.05 2.96 14.36
1/24/2021 1:30:00 AM -0.11 31.802 0.113 7.01 2.88 14.36
1/24/2021 1:45:00 AM -0.11 31.802 0.112 7.04 2.96 14.38
1/24/2021 2:00:00 AM -0.11 31.802 0.113 7.07 3.21 14.38
1/24/2021 2:15:00 AM -0.11 31.802 0.113 7.04 2.93 14.38
1/24/2021 2:30:00 AM -0.11 31.802 0.113 7.1 2.86 14.38
1/24/2021 2:45:00 AM -0.11 31.802 0.113 7.05 2.95 14.38
1/24/2021 3:00:00 AM -0.11 31.802 0.113 6.68 3.04 14.38
1/24/2021 3:15:00 AM -0.11 31.802 0.113 7.14 3.01 14.38
1/24/2021 3:30:00 AM -0.1 31.82 0.112 7.13 3.11 14.38
1/24/2021 3:45:00 AM -0.1 31.82 0.113 7.07 3.08 14.38
1/24/2021 4:00:00 AM -0.1 31.82 0.112 7.01 3.07 14.37
1/24/2021 4:15:00 AM -0.11 31.802 0.113 7.04 3.22 14.38
1/24/2021 4:30:00 AM -0.11 31.802 0.112 7.09 3.03 14.38
1/24/2021 4:45:00 AM -0.11 31.802 0.112 7.12 2.9 14.38
1/24/2021 5:00:00 AM -0.11 31.802 0.112 7.12 3.01 14.38
1/24/2021 5:15:00 AM -0.1 31.82 0.111 7.12 2.91 14.38
1/24/2021 5:30:00 AM -0.1 31.82 0.112 7.11 2.96 14.37
1/24/2021 5:45:00 AM -0.1 31.82 0.112 7.14 2.98 14.38
1/24/2021 6:00:00 AM -0.1 31.82 0.112 7.04 3.18 14.37
1/24/2021 6:15:00 AM -0.11 31.802 0.112 7.14 3.12 14.38
1/24/2021 6:30:00 AM -0.11 31.802 0.112 7.05 2.94 14.38
1/24/2021 6:45:00 AM -0.11 31.802 0.11 7.11 2.88 14.38
1/24/2021 7:00:00 AM -0.1 31.82 0.112 7.16 2.97 14.38
1/24/2021 7:15:00 AM -0.1 31.82 0.11 7.16 2.88 14.38
1/24/2021 7:30:00 AM -0.11 31.802 0.111 7.03 2.98 14.38
1/24/2021 7:45:00 AM -0.1 31.82 0.111 7.1 2.92 14.4
1/24/2021 8:00:00 AM -0.1 31.82 0.111 7.11 2.91 14.44
1/24/2021 8:15:00 AM -0.1 31.82 0.111 7.05 2.87 14.48
1/24/2021 8:30:00 AM -0.09 31.838 0.11 7.17 2.77 14.52
1/24/2021 8:45:00 AM -0.1 31.82 0.111 7.1 2.94 14.55
1/24/2021 9:00:00 AM -0.11 31.802 0.11 7.08 2.86 14.58
1/24/2021 9:15:00 AM -0.11 31.802 0.11 7.15 2.85 14.61
1/24/2021 9:30:00 AM -0.11 31.802 0.111 7.15 2.91 14.63
1/24/2021 9:45:00 AM -0.09 31.838 0.111 6.9 2.87 14.64
1/24/2021 10:00:00 AM -0.09 31.838 0.11 7.09 2.84 14.65
1/24/2021 10:15:00 AM -0.09 31.838 0.11 7.21 2.81 14.65
1/24/2021 10:30:00 AM -0.08 31.856 0.11 7.15 2.95 14.66
1/24/2021 10:45:00 AM -0.08 31.856 0.111 7.23 2.87 14.66
1/24/2021 11:00:00 AM -0.07 31.874 0.11 7.23 2.95 14.65
1/24/2021 11:15:00 AM -0.07 31.874 0.11 7.23 2.89 14.64
1/24/2021 11:30:00 AM -0.05 31.91 0.11 7.1 2.81 14.63
1/24/2021 11:45:00 AM -0.04 31.928 0.109 7.13 2.95 14.63
1/24/2021 12:00:00 PM -0.03 31.946 0.109 7.13 2.95 14.61
1/24/2021 12:15:00 PM -0.04 31.928 0.109 7.24 2.86 14.6
1/24/2021 12:30:00 PM -0.04 31.928 0.109 7.19 2.95 14.59
1/24/2021 12:45:00 PM -0.06 31.892 0.109 7.21 3.16 14.57
1/24/2021 1:00:00 PM -0.07 31.874 0.109 7.15 3.12 14.55
1/24/2021 1:15:00 PM -0.08 31.856 0.109 7.08 3.8 14.52
1/24/2021 1:30:00 PM -0.09 31.838 0.11 7.07 3.71 14.5
1/24/2021 1:45:00 PM -0.09 31.838 0.109 7.04 3.26 14.5
1/24/2021 2:00:00 PM -0.09 31.838 0.11 7.02 3.48 14.47
1/24/2021 2:15:00 PM -0.09 31.838 0.099 7.08 3.54 14.45
1/24/2021 2:30:00 PM 0.01 32.018 0.109 7.04 3.41 14.41
1/24/2021 2:45:00 PM 0.29 32.522 0.109 7.16 3.34 14.39
1/24/2021 3:00:00 PM 0.43 32.774 0.109 7.16 3.19 14.39
1/24/2021 3:15:00 PM 0.53 32.954 0.11 7.15 3.08 14.38
1/24/2021 3:30:00 PM 0.58 33.044 0.11 7.18 3.22 14.37
1/24/2021 3:45:00 PM 0.63 33.134 0.109 7.26 3.04 14.35
1/24/2021 4:00:00 PM 0.65 33.17 0.109 7.16 2.98 14.35
1/24/2021 4:15:00 PM 0.64 33.152 0.109 7.17 3.1 14.34
1/24/2021 4:30:00 PM 0.62 33.116 0.108 7.16 2.97 14.31
1/24/2021 4:45:00 PM 0.58 33.044 0.108 7.23 3.12 14.3
1/24/2021 5:00:00 PM 0.55 32.99 0.108 7.2 3.03 14.28
1/24/2021 5:15:00 PM 0.5 32.9 0.108 7.1 2.96 14.24
1/24/2021 5:30:00 PM 0.46 32.828 0.108 7.11 2.96 14.23
1/24/2021 5:45:00 PM 0.41 32.738 0.108 7.15 3.05 14.2
1/24/2021 6:00:00 PM 0.36 32.648 0.108 7.13 2.96 14.19
1/24/2021 6:15:00 PM 0.32 32.576 0.108 7.16 2.95 14.2
1/24/2021 6:30:00 PM 0.29 32.522 0.108 7.13 2.94 14.2
1/24/2021 6:45:00 PM 0.28 32.504 0.109 7.12 2.99 14.19
1/24/2021 7:00:00 PM 0.27 32.486 0.109 7.07 2.98 14.19
1/24/2021 7:15:00 PM 0.26 32.468 0.109 7.13 3.01 14.18
1/24/2021 7:30:00 PM 0.26 32.468 0.109 7.11 2.92 14.17
1/24/2021 7:45:00 PM 0.27 32.486 0.109 7.1 2.87 14.17
1/24/2021 8:00:00 PM 0.27 32.486 0.11 6.93 2.91 14.15
1/24/2021 8:15:00 PM 0.27 32.486 0.11 7.12 3.02 14.15
1/24/2021 8:30:00 PM 0.27 32.486 0.11 7.11 3.02 14.14
1/24/2021 8:45:00 PM 0.28 32.504 0.111 7.04 3 14.13
1/24/2021 9:00:00 PM 0.28 32.504 0.11 7.05 3.04 14.13
1/24/2021 9:15:00 PM 0.29 32.522 0.111 7.12 3.05 14.12
1/24/2021 9:30:00 PM 0.29 32.522 0.111 7.12 3 14.11
1/24/2021 9:45:00 PM 0.3 32.54 0.112 7.12 3.12 14.11
1/24/2021 10:00:00 PM 0.29 32.522 0.112 7.14 3.07 14.11
1/24/2021 10:15:00 PM 0.29 32.522 0.112 7.15 2.88 14.11
1/24/2021 10:30:00 PM 0.28 32.504 0.113 7.12 2.96 14.11
1/24/2021 10:45:00 PM 0.28 32.504 0.112 7.05 2.97 14.12
1/24/2021 11:00:00 PM 0.27 32.486 0.113 7.12 2.85 14.12
1/24/2021 11:15:00 PM 0.27 32.486 0.113 7.14 2.88 14.12
1/24/2021 11:30:00 PM 0.26 32.468 0.113 7.12 2.9 14.13
1/24/2021 11:45:00 PM 0.25 32.45 0.113 7.13 2.9 14.13
1/25/2021 12:00:00 AM 0.23 32.414 0.114 7.12 2.99 14.13
1/25/2021 12:15:00 AM 0.21 32.378 0.114 7.11 3.06 14.14
1/25/2021 12:30:00 AM 0.2 32.36 0.114 7.13 3.13 14.14
1/25/2021 12:45:00 AM 0.17 32.306 0.113 7.12 2.97 14.15
1/25/2021 1:00:00 AM 0.13 32.234 0.113 7.13 3.02 14.16
1/25/2021 1:15:00 AM 0.08 32.144 0.113 7.04 2.92 14.17
1/25/2021 1:30:00 AM 0.04 32.072 0.114 7.14 2.92 14.19
1/25/2021 1:45:00 AM -0.01 31.982 0.113 7.12 2.9 14.21
1/25/2021 2:00:00 AM -0.05 31.91 0.113 7.12 2.95 14.22
1/25/2021 2:15:00 AM -0.1 31.82 0.114 7.14 2.91 14.24
1/25/2021 2:30:00 AM -0.13 31.766 0.113 7.11 2.98 14.25
1/25/2021 2:45:00 AM -0.12 31.784 0.113 7.06 3.03 14.27
1/25/2021 3:00:00 AM -0.1 31.82 0.114 7.1 3.01 14.28
1/25/2021 3:15:00 AM -0.11 31.802 0.114 7.07 3.01 14.29
1/25/2021 3:30:00 AM -0.11 31.802 0.113 7.13 2.86 14.31
1/25/2021 3:45:00 AM -0.11 31.802 0.114 7.08 2.98 14.31
1/25/2021 4:00:00 AM -0.11 31.802 0.114 7.04 3.19 14.31
1/25/2021 4:15:00 AM -0.11 31.802 0.114 7.12 3.13 14.32
1/25/2021 4:30:00 AM -0.11 31.802 0.114 7.05 3 14.32
1/25/2021 4:45:00 AM -0.11 31.802 0.113 7.08 2.97 14.32
1/25/2021 5:00:00 AM -0.11 31.802 0.113 7.06 3.11 14.32
1/25/2021 5:15:00 AM -0.11 31.802 0.114 7.16 2.96 14.33
1/25/2021 5:30:00 AM -0.11 31.802 0.113 7.14 2.91 14.33
1/25/2021 5:45:00 AM -0.1 31.82 0.113 7.15 2.9 14.33
1/25/2021 6:00:00 AM -0.1 31.82 0.113 7.14 3.23 14.32
1/25/2021 6:15:00 AM -0.1 31.82 0.114 7.14 3.02 14.32
1/25/2021 6:30:00 AM -0.1 31.82 0.112 7.13 2.97 14.31
1/25/2021 6:45:00 AM -0.1 31.82 0.113 7.12 2.93 14.32
1/25/2021 7:00:00 AM -0.1 31.82 0.113 7.08 2.91 14.32
1/25/2021 7:15:00 AM -0.1 31.82 0.113 7.13 2.98 14.32
1/25/2021 7:30:00 AM -0.1 31.82 0.112 7.14 3.04 14.33
1/25/2021 7:45:00 AM -0.1 31.82 0.113 7.13 2.97 14.34
1/25/2021 8:00:00 AM -0.1 31.82 0.113 7.18 3.02 14.38
1/25/2021 8:15:00 AM -0.09 31.838 0.113 6.75 2.95 14.42
1/25/2021 8:30:00 AM -0.09 31.838 0.113 7.18 2.89 14.47
1/25/2021 8:45:00 AM -0.09 31.838 0.112 7.2 2.87 14.5
1/25/2021 9:00:00 AM -0.09 31.838 0.112 7.22 2.86 14.53
1/25/2021 9:15:00 AM -0.08 31.856 0.112 7.23 2.95 14.57
1/25/2021 9:30:00 AM -0.08 31.856 0.113 7.06 2.91 14.58
1/25/2021 9:45:00 AM -0.08 31.856 0.112 7.25 2.94 14.6
1/25/2021 10:00:00 AM -0.08 31.856 0.112 7.22 2.86 14.61
1/25/2021 10:15:00 AM -0.08 31.856 0.111 7.25 3.06 14.61
1/25/2021 10:30:00 AM -0.07 31.874 0.111 7.14 2.79 14.61
1/25/2021 10:45:00 AM -0.07 31.874 0.111 7.24 2.89 14.61
1/25/2021 11:00:00 AM -0.07 31.874 0.11 7.2 2.94 14.6
1/25/2021 11:15:00 AM -0.07 31.874 0.111 7.24 3.04 14.6
1/25/2021 11:30:00 AM -0.04 31.928 0.111 7.22 2.98 14.58
1/25/2021 11:45:00 AM -0.05 31.91 0.11 7.21 2.94 14.57
1/25/2021 12:00:00 PM -0.06 31.892 0.109 7.21 3.11 14.55
1/25/2021 12:15:00 PM -0.06 31.892 0.109 7.25 3.1 14.54
1/25/2021 12:30:00 PM -0.07 31.874 0.11 7.18 3.01 14.51
1/25/2021 12:45:00 PM -0.07 31.874 0.109 7.19 3.19 14.48
1/25/2021 1:00:00 PM 0.1 32.18 0.108 7.2 3.5 14.43
1/25/2021 1:15:00 PM 0.38 32.684 0.109 7.22 3.31 14.4
1/25/2021 1:30:00 PM 0.6 33.08 0.108 7.05 3.25 14.37
1/25/2021 1:45:00 PM 0.73 33.314 0.108 7.19 3.09 14.35
1/25/2021 2:00:00 PM 0.79 33.422 0.108 7.2 3.22 14.34
1/25/2021 2:15:00 PM 0.85 33.53 0.108 7.29 3.25 14.33
1/25/2021 2:30:00 PM 0.89 33.602 0.107 7.09 3.11 14.3
1/25/2021 2:45:00 PM 0.94 33.692 0.107 7.22 3.05 14.27
1/25/2021 3:00:00 PM 0.98 33.764 0.107 7.2 3.18 14.25
1/25/2021 3:15:00 PM 1.01 33.818 0.107 7.28 3.01 14.24
1/25/2021 3:30:00 PM 1.03 33.854 0.107 7.19 3.06 14.22
1/25/2021 3:45:00 PM 1.04 33.872 0.106 7.13 2.96 14.21
1/25/2021 4:00:00 PM 1.04 33.872 0.105 7.18 2.97 14.2
1/25/2021 4:15:00 PM 1.03 33.854 0.105 7.19 3.05 14.19
1/25/2021 4:30:00 PM 0.99 33.782 0.105 7.25 3.02 14.17
1/25/2021 4:45:00 PM 0.96 33.728 0.105 6.88 2.88 14.14
1/25/2021 5:00:00 PM 0.92 33.656 0.105 6.98 2.98 14.1
1/25/2021 5:15:00 PM 0.89 33.602 0.106 7.2 3.11 14.06
1/25/2021 5:30:00 PM 0.86 33.548 0.106 7.2 3.03 14.02
1/25/2021 5:45:00 PM 0.83 33.494 0.106 7.17 2.97 14
1/25/2021 6:00:00 PM 0.81 33.458 0.106 7.16 2.93 13.98
1/25/2021 6:15:00 PM 0.79 33.422 0.107 7.07 2.93 13.96
1/25/2021 6:30:00 PM 0.77 33.386 0.106 7.15 2.99 13.95
1/25/2021 6:45:00 PM 0.76 33.368 0.106 7.17 2.95 13.94
1/25/2021 7:00:00 PM 0.76 33.368 0.107 7.14 3.13 13.94
1/25/2021 7:15:00 PM 0.76 33.368 0.107 7.15 3.05 13.92
1/25/2021 7:30:00 PM 0.76 33.368 0.106 7.13 2.88 13.92
1/25/2021 7:45:00 PM 0.76 33.368 0.107 7.13 2.94 13.91
1/25/2021 8:00:00 PM 0.77 33.386 0.107 7.13 3 13.9
1/25/2021 8:15:00 PM 0.77 33.386 0.108 7.13 2.94 13.9
1/25/2021 8:30:00 PM 0.78 33.404 0.108 6.81 3.01 13.89
1/25/2021 8:45:00 PM 0.79 33.422 0.109 7.1 2.99 13.88
1/25/2021 9:00:00 PM 0.8 33.44 0.109 7.05 2.9 13.87
1/25/2021 9:15:00 PM 0.81 33.458 0.11 7.14 2.92 13.87
1/25/2021 9:30:00 PM 0.81 33.458 0.11 7.14 2.96 13.87
1/25/2021 9:45:00 PM 0.82 33.476 0.11 7.06 2.97 13.86
1/25/2021 10:00:00 PM 0.83 33.494 0.11 7.14 3.05 13.86
1/25/2021 10:15:00 PM 0.83 33.494 0.11 7.08 3.45 13.86
1/25/2021 10:30:00 PM 0.84 33.512 0.111 7.1 3.07 13.86
1/25/2021 10:45:00 PM 0.83 33.494 0.11 7.05 3.11 13.85
1/25/2021 11:00:00 PM 0.83 33.494 0.11 7.05 3.02 13.85
1/25/2021 11:15:00 PM 0.83 33.494 0.11 7.06 2.99 13.85
1/25/2021 11:30:00 PM 0.83 33.494 0.11 7.07 2.92 13.85
1/25/2021 11:45:00 PM 0.83 33.494 0.11 7.06 2.99 13.85
1/26/2021 12:00:00 AM 0.83 33.494 0.11 7.05 2.86 13.85
1/26/2021 12:15:00 AM 0.83 33.494 0.11 7.07 3.26 13.85
1/26/2021 12:30:00 AM 0.83 33.494 0.111 7.05 3.48 13.84
1/26/2021 12:45:00 AM 0.83 33.494 0.111 7.07 3.03 13.84
1/26/2021 1:00:00 AM 0.82 33.476 0.111 7.09 3 13.85
1/26/2021 1:15:00 AM 0.82 33.476 0.111 7.05 3.02 13.84
1/26/2021 1:30:00 AM 0.81 33.458 0.111 7.15 3 13.84
1/26/2021 1:45:00 AM 0.8 33.44 0.111 6.97 2.91 13.85
1/26/2021 2:00:00 AM 0.8 33.44 0.112 7.05 2.89 13.85
1/26/2021 2:15:00 AM 0.78 33.404 0.111 7.15 3.01 13.86
1/26/2021 2:30:00 AM 0.78 33.404 0.111 7.05 2.94 13.85
1/26/2021 2:45:00 AM 0.77 33.386 0.112 7.06 3.04 13.86
1/26/2021 3:00:00 AM 0.76 33.368 0.111 7.07 2.88 13.86
1/26/2021 3:15:00 AM 0.75 33.35 0.111 7.15 2.91 13.86
1/26/2021 3:30:00 AM 0.73 33.314 0.111 7.07 2.96 13.86
1/26/2021 3:45:00 AM 0.73 33.314 0.111 7.07 2.83 13.86
1/26/2021 4:00:00 AM 0.73 33.314 0.111 7.04 2.82 13.86
1/26/2021 4:15:00 AM 0.72 33.296 0.111 7.05 2.9 13.86
1/26/2021 4:30:00 AM 0.71 33.278 0.112 7.06 2.85 13.86
1/26/2021 4:45:00 AM 0.71 33.278 0.111 7.06 2.81 13.87
1/26/2021 5:00:00 AM 0.7 33.26 0.112 7.12 2.87 13.85
1/26/2021 5:15:00 AM 0.69 33.242 0.112 7.05 2.91 13.85
1/26/2021 5:30:00 AM 0.69 33.242 0.111 7.05 2.95 13.86
1/26/2021 5:45:00 AM 0.69 33.242 0.111 7.09 2.84 13.86
1/26/2021 6:00:00 AM 0.67 33.206 0.111 7.17 2.87 13.86
1/26/2021 6:15:00 AM 0.66 33.188 0.111 7.1 2.89 13.87
1/26/2021 6:30:00 AM 0.65 33.17 0.111 7.1 2.83 13.87
1/26/2021 6:45:00 AM 0.64 33.152 0.111 7.16 2.84 13.87
1/26/2021 7:00:00 AM 0.64 33.152 0.111 7.11 2.81 13.87
1/26/2021 7:15:00 AM 0.63 33.134 0.111 7.13 2.85 13.86
1/26/2021 7:30:00 AM 0.61 33.098 0.11 7.12 2.99 13.88
1/26/2021 7:45:00 AM 0.59 33.062 0.11 7.16 2.84 13.89
1/26/2021 8:00:00 AM 0.56 33.008 0.11 7.07 2.79 13.91
1/26/2021 8:15:00 AM 0.53 32.954 0.111 7.14 2.9 13.96
1/26/2021 8:30:00 AM 0.51 32.918 0.11 7.12 2.96 13.99
1/26/2021 8:45:00 AM 0.38 32.684 0.11 7.09 2.84 14.02
1/26/2021 9:00:00 AM 0.35 32.63 0.109 7.09 2.79 14.08
1/26/2021 9:15:00 AM 0.38 32.684 0.109 7.03 2.94 14.15
1/26/2021 9:30:00 AM 0.34 32.612 0.108 7.15 2.8 14.19
1/26/2021 9:45:00 AM 0.32 32.576 0.109 7.11 3.01 14.22
1/26/2021 10:00:00 AM 0.32 32.576 0.109 7.15 2.93 14.25
1/26/2021 10:15:00 AM 0.27 32.486 0.109 6.77 2.89 14.26
1/26/2021 10:30:00 AM 0.22 32.396 0.109 7.21 2.86 14.27
1/26/2021 10:45:00 AM 0.09 32.162 0.108 7.2 2.98 14.29
1/26/2021 11:00:00 AM 0.04 32.072 0.109 7.19 2.93 14.32
1/26/2021 11:15:00 AM 0.07 32.126 0.109 7.13 2.95 14.34
1/26/2021 11:30:00 AM 0.12 32.216 0.108 7.15 2.92 14.36
1/26/2021 11:45:00 AM 0.16 32.288 0.107 7.2 2.79 14.35
1/26/2021 12:00:00 PM 0.18 32.324 0.108 7.22 2.81 14.34
1/26/2021 12:15:00 PM 0.11 32.198 0.108 7.15 2.88 14.35
1/26/2021 12:30:00 PM 0.12 32.216 0.108 7.13 2.8 14.36
1/26/2021 12:45:00 PM 0.1 32.18 0.107 6.99 2.74 14.35
1/26/2021 1:00:00 PM 0.03 32.054 0.108 7.15 3.02 14.36
1/26/2021 1:15:00 PM 0.03 32.054 0.108 7.12 2.81 14.38
1/26/2021 1:30:00 PM 0.04 32.072 0.108 7.06 2.81 14.38
1/26/2021 1:45:00 PM 0.08 32.144 0.108 7.24 2.83 14.38
1/26/2021 2:00:00 PM 0.12 32.216 0.107 7.23 2.91 14.38
1/26/2021 2:15:00 PM 0.17 32.306 0.108 7.26 2.82 14.37
1/26/2021 2:30:00 PM 0.22 32.396 0.107 7.25 2.88 14.37
1/26/2021 2:45:00 PM 0.27 32.486 0.108 7.23 2.73 14.35
1/26/2021 3:00:00 PM 0.31 32.558 0.108 7.23 2.83 14.34
1/26/2021 3:15:00 PM 0.34 32.612 0.107 7.21 2.83 14.32
1/26/2021 3:30:00 PM 0.37 32.666 0.107 7.24 2.73 14.29
1/26/2021 3:45:00 PM 0.39 32.702 0.108 7.16 2.75 14.24
1/26/2021 4:00:00 PM 0.41 32.738 0.107 7.24 2.79 14.2
1/26/2021 4:15:00 PM 0.43 32.774 0.107 7.22 2.87 14.17
1/26/2021 4:30:00 PM 0.45 32.81 0.107 7.08 2.75 14.12
1/26/2021 4:45:00 PM 0.45 32.81 0.108 7.12 2.86 14.1
1/26/2021 5:00:00 PM 0.42 32.756 0.108 7.17 2.82 14.07
1/26/2021 5:15:00 PM 0.43 32.774 0.107 7.21 2.81 14.05
1/26/2021 5:30:00 PM 0.44 32.792 0.107 7.17 2.85 14.03
1/26/2021 5:45:00 PM 0.45 32.81 0.107 7.16 2.84 14
1/26/2021 6:00:00 PM 0.46 32.828 0.106 7.16 2.77 13.98
1/26/2021 6:15:00 PM 0.48 32.864 0.107 7.07 2.85 13.96
1/26/2021 6:30:00 PM 0.48 32.864 0.107 7.13 2.97 13.94
1/26/2021 6:45:00 PM 0.46 32.828 0.107 7.07 2.93 13.95
1/26/2021 7:00:00 PM 0.46 32.828 0.106 7.08 2.82 13.93
1/26/2021 7:15:00 PM 0.47 32.846 0.107 7.02 2.93 13.92
1/26/2021 7:30:00 PM 0.5 32.9 0.107 7.13 2.95 13.92
1/26/2021 7:45:00 PM 0.49 32.882 0.107 7.16 3.02 13.91
1/26/2021 8:00:00 PM 0.5 32.9 0.107 7.13 2.88 13.91
1/26/2021 8:15:00 PM 0.51 32.918 0.107 7.12 2.95 13.9
1/26/2021 8:30:00 PM 0.53 32.954 0.107 7.04 2.87 13.9
1/26/2021 8:45:00 PM 0.55 32.99 0.107 7.13 2.94 13.89
1/26/2021 9:00:00 PM 0.56 33.008 0.107 7.1 2.92 13.89
1/26/2021 9:15:00 PM 0.59 33.062 0.106 7.08 2.78 13.88
1/26/2021 9:30:00 PM 0.61 33.098 0.106 7.15 2.88 13.88
1/26/2021 9:45:00 PM 0.62 33.116 0.106 7.14 2.75 13.86
1/26/2021 10:00:00 PM 0.64 33.152 0.106 7 2.91 13.86
1/26/2021 10:15:00 PM 0.65 33.17 0.106 7.13 2.89 13.84
1/26/2021 10:30:00 PM 0.67 33.206 0.107 7.06 2.97 13.84
1/26/2021 10:45:00 PM 0.68 33.224 0.106 7.12 2.92 13.83
1/26/2021 11:00:00 PM 0.7 33.26 0.107 7.13 3.01 13.82
1/26/2021 11:15:00 PM 0.7 33.26 0.109 7.03 3.02 13.82
1/26/2021 11:30:00 PM 0.72 33.296 0.107 7.04 3.02 13.82
1/26/2021 11:45:00 PM 0.74 33.332 0.107 7.15 2.82 13.81
1/27/2021 12:00:00 AM 0.75 33.35 0.106 7.13 2.93 13.8
1/27/2021 12:15:00 AM 0.77 33.386 0.107 7.11 2.99 13.8
1/27/2021 12:30:00 AM 0.78 33.404 0.107 7.11 3.05 13.79
1/27/2021 12:45:00 AM 0.79 33.422 0.106 7.14 2.88 13.79
1/27/2021 1:00:00 AM 0.81 33.458 0.107 7.12 3.02 13.78
1/27/2021 1:15:00 AM 0.83 33.494 0.107 7.11 2.74 13.78
1/27/2021 1:30:00 AM 0.84 33.512 0.107 7.14 2.88 13.78
1/27/2021 1:45:00 AM 0.85 33.53 0.107 7.13 2.85 13.77
1/27/2021 2:00:00 AM 0.86 33.548 0.107 7.14 2.86 13.78
1/27/2021 2:15:00 AM 0.87 33.566 0.107 7.04 2.97 13.77
1/27/2021 2:30:00 AM 0.88 33.584 0.107 7.05 2.87 13.77
1/27/2021 2:45:00 AM 0.88 33.584 0.107 7.03 3.04 13.78
1/27/2021 3:00:00 AM 0.89 33.602 0.107 7.1 2.89 13.78
1/27/2021 3:15:00 AM 0.89 33.602 0.108 7.15 2.96 13.78
1/27/2021 3:30:00 AM 0.88 33.584 0.107 7.18 2.96 13.78
1/27/2021 3:45:00 AM 0.88 33.584 0.107 7.14 2.86 13.79
1/27/2021 4:00:00 AM 0.88 33.584 0.107 7.12 2.94 13.79
1/27/2021 4:15:00 AM 0.88 33.584 0.108 7.16 2.93 13.79
1/27/2021 4:30:00 AM 0.87 33.566 0.107 7.16 2.95 13.8
1/27/2021 4:45:00 AM 0.86 33.548 0.107 7.14 2.94 13.8
1/27/2021 5:00:00 AM 0.86 33.548 0.107 7.06 2.89 13.81
1/27/2021 5:15:00 AM 0.84 33.512 0.107 7.14 2.91 13.81
1/27/2021 5:30:00 AM 0.84 33.512 0.107 7.14 2.86 13.81
1/27/2021 5:45:00 AM 0.84 33.512 0.108 7.14 2.73 13.82
1/27/2021 6:00:00 AM 0.83 33.494 0.107 7.15 2.84 13.83
1/27/2021 6:15:00 AM 0.82 33.476 0.107 7.14 2.84 13.83
1/27/2021 6:30:00 AM 0.81 33.458 0.108 7.15 2.83 13.84
1/27/2021 6:45:00 AM 0.8 33.44 0.108 7.13 2.88 13.84
1/27/2021 7:00:00 AM 0.78 33.404 0.108 7.08 2.93 13.85
1/27/2021 7:15:00 AM 0.76 33.368 0.107 7.17 2.91 13.86
1/27/2021 7:30:00 AM 0.75 33.35 0.108 7.13 2.87 13.88
1/27/2021 7:45:00 AM 0.74 33.332 0.108 7.02 2.91 13.9
1/27/2021 8:00:00 AM 0.75 33.35 0.108 7.17 2.94 13.94
1/27/2021 8:15:00 AM 0.76 33.368 0.108 7.15 2.92 13.98
1/27/2021 8:30:00 AM 0.76 33.368 0.108 7.18 2.9 14.04
1/27/2021 8:45:00 AM 0.79 33.422 0.108 7.2 2.88 14.1
1/27/2021 9:00:00 AM 0.83 33.494 0.108 7.2 2.8 14.16
1/27/2021 9:15:00 AM 0.86 33.548 0.107 7.22 2.87 14.2
1/27/2021 9:30:00 AM 0.89 33.602 0.108 7.16 2.92 14.23
1/27/2021 9:45:00 AM 0.91 33.638 0.108 7.19 2.99 14.24
1/27/2021 10:00:00 AM 0.95 33.71 0.107 7.1 2.78 14.24
1/27/2021 10:15:00 AM 1 33.8 0.108 7.28 2.8 14.24
1/27/2021 10:30:00 AM 1.05 33.89 0.107 7.27 2.8 14.24
1/27/2021 10:45:00 AM 1.1 33.98 0.108 7.28 2.78 14.23
1/27/2021 11:00:00 AM 1.15 34.07 0.107 7.29 2.75 14.22
1/27/2021 11:15:00 AM 1.17 34.106 0.108 7.23 2.84 14.21
1/27/2021 11:30:00 AM 1.2 34.16 0.108 7.21 2.78 14.22
1/27/2021 11:45:00 AM 1.24 34.232 0.108 7.3 2.81 14.22
1/27/2021 12:00:00 PM 1.26 34.268 0.107 7.33 2.9 14.21
1/27/2021 12:15:00 PM 1.28 34.304 0.107 7.26 2.73 14.2
1/27/2021 12:30:00 PM 1.33 34.394 0.107 7.3 2.78 14.19
1/27/2021 12:45:00 PM 1.37 34.466 0.107 7.3 2.75 14.18
1/27/2021 1:00:00 PM 1.4 34.52 0.107 7.33 2.74 14.18
1/27/2021 1:15:00 PM 1.43 34.574 0.107 7.33 2.69 14.16
1/27/2021 1:30:00 PM 1.47 34.646 0.108 7.32 2.81 14.15
1/27/2021 1:45:00 PM 1.49 34.682 0.107 7.32 2.79 14.14
1/27/2021 2:00:00 PM 1.52 34.736 0.107 7.3 2.78 14.13
1/27/2021 2:15:00 PM 1.54 34.772 0.108 7.24 2.79 14.11
1/27/2021 2:30:00 PM 1.53 34.754 0.108 7.24 2.68 14.1
1/27/2021 2:45:00 PM 1.53 34.754 0.107 7.32 2.75 14.09
1/27/2021 3:00:00 PM 1.54 34.772 0.108 7.26 2.81 14.1
1/27/2021 3:15:00 PM 1.54 34.772 0.108 7.32 2.84 14.08
1/27/2021 3:30:00 PM 1.53 34.754 0.108 7.3 2.83 14.07
1/27/2021 3:45:00 PM 1.5 34.7 0.108 7.33 2.95 14.05
1/27/2021 4:00:00 PM 1.48 34.664 0.108 7.28 2.78 14.03
1/27/2021 4:15:00 PM 1.45 34.61 0.108 7.24 2.7 14.02
1/27/2021 4:30:00 PM 1.42 34.556 0.108 7.2 2.79 14
1/27/2021 4:45:00 PM 1.4 34.52 0.108 7.27 2.8 13.97
1/27/2021 5:00:00 PM 1.37 34.466 0.108 7.25 2.89 13.94
1/27/2021 5:15:00 PM 1.34 34.412 0.108 7.1 2.74 13.9
1/27/2021 5:30:00 PM 1.31 34.358 0.109 7.15 2.85 13.86
1/27/2021 5:45:00 PM 1.27 34.286 0.108 7.09 2.76 13.83
1/27/2021 6:00:00 PM 1.24 34.232 0.108 7.12 2.88 13.81
1/27/2021 6:15:00 PM 1.2 34.16 0.109 7.06 2.82 13.81
1/27/2021 6:30:00 PM 1.17 34.106 0.109 7.14 2.73 13.81
1/27/2021 6:45:00 PM 1.14 34.052 0.108 7.2 2.84 13.8
1/27/2021 7:00:00 PM 1.11 33.998 0.109 7.2 2.69 13.81
1/27/2021 7:15:00 PM 1.07 33.926 0.108 6.9 2.69 13.81
1/27/2021 7:30:00 PM 1.03 33.854 0.109 7.16 2.79 13.83
1/27/2021 7:45:00 PM 1.01 33.818 0.108 7.14 2.93 13.84
1/27/2021 8:00:00 PM 0.97 33.746 0.109 6.92 2.74 13.84
1/27/2021 8:15:00 PM 0.93 33.674 0.109 7.16 2.85 13.86
1/27/2021 8:30:00 PM 0.88 33.584 0.108 7.17 2.85 13.87
1/27/2021 8:45:00 PM 0.84 33.512 0.109 7.14 2.95 13.88
1/27/2021 9:00:00 PM 0.78 33.404 0.109 6.85 3.07 13.9
1/27/2021 9:15:00 PM 0.73 33.314 0.109 7.05 3.04 13.91
1/27/2021 9:30:00 PM 0.69 33.242 0.109 7.13 2.95 13.92
1/27/2021 9:45:00 PM 0.64 33.152 0.109 7.13 3 13.95
1/27/2021 10:00:00 PM 0.59 33.062 0.11 7.12 3.12 13.97
1/27/2021 10:15:00 PM 0.54 32.972 0.109 7.02 2.88 13.98
1/27/2021 10:30:00 PM 0.5 32.9 0.11 6.99 2.93 14.01
1/27/2021 10:45:00 PM 0.47 32.846 0.11 7 2.78 14.02
1/27/2021 11:00:00 PM 0.45 32.81 0.11 7 2.87 14.04
1/27/2021 11:15:00 PM 0.42 32.756 0.11 7.04 2.81 14.05
1/27/2021 11:30:00 PM 0.39 32.702 0.11 7.03 2.79 14.06
1/27/2021 11:45:00 PM 0.36 32.648 0.109 7.04 2.74 14.08
1/28/2021 12:00:00 AM 0.34 32.612 0.11 7.13 2.74 14.09
1/28/2021 12:15:00 AM 0.32 32.576 0.11 7.1 2.76 14.1
1/28/2021 12:30:00 AM 0.27 32.486 0.11 7.14 2.86 14.1
1/28/2021 12:45:00 AM 0.24 32.432 0.11 7.16 2.81 14.13
1/28/2021 1:00:00 AM 0.22 32.396 0.11 7.16 2.7 14.13
1/28/2021 1:15:00 AM 0.21 32.378 0.11 7.16 2.84 14.14
1/28/2021 1:30:00 AM 0.19 32.342 0.11 7.12 2.97 14.14
1/28/2021 1:45:00 AM 0.16 32.288 0.11 7.13 2.87 14.15
1/28/2021 2:00:00 AM 0.13 32.234 0.11 7.13 2.98 14.16
1/28/2021 2:15:00 AM 0.08 32.144 0.11 7.13 2.75 14.17
1/28/2021 2:30:00 AM 0.03 32.054 0.11 7.12 2.84 14.19
1/28/2021 2:45:00 AM 0 32 0.11 7.14 2.79 14.21
1/28/2021 3:00:00 AM -0.04 31.928 0.111 7.13 2.86 14.22
1/28/2021 3:15:00 AM -0.06 31.892 0.111 7.13 2.76 14.24
1/28/2021 3:30:00 AM -0.1 31.82 0.111 7.12 2.94 14.25
1/28/2021 3:45:00 AM -0.11 31.802 0.111 7.13 2.89 14.27
1/28/2021 4:00:00 AM -0.11 31.802 0.111 7.16 2.92 14.29
1/28/2021 4:15:00 AM -0.11 31.802 0.11 7.14 2.82 14.3
1/28/2021 4:30:00 AM -0.11 31.802 0.112 7.12 2.88 14.31
1/28/2021 4:45:00 AM -0.11 31.802 0.111 7.12 2.99 14.32
1/28/2021 5:00:00 AM -0.11 31.802 0.11 7.11 2.89 14.33
1/28/2021 5:15:00 AM -0.11 31.802 0.112 7.17 2.99 14.34
1/28/2021 5:30:00 AM -0.11 31.802 0.11 7.16 3.12 14.34
1/28/2021 5:45:00 AM -0.11 31.802 0.112 7.18 3.08 14.35
1/28/2021 6:00:00 AM -0.11 31.802 0.112 7.13 2.9 14.35
1/28/2021 6:15:00 AM -0.11 31.802 0.112 7.13 2.84 14.35
1/28/2021 6:30:00 AM -0.11 31.802 0.112 7.14 2.87 14.35
1/28/2021 6:45:00 AM -0.11 31.802 0.112 7.16 2.86 14.35
1/28/2021 7:00:00 AM -0.11 31.802 0.112 7.15 2.9 14.35
1/28/2021 7:15:00 AM -0.11 31.802 0.112 7.18 2.86 14.36
1/28/2021 7:30:00 AM -0.11 31.802 0.112 7.14 2.94 14.37
1/28/2021 7:45:00 AM -0.11 31.802 0.111 7.15 2.73 14.41
1/28/2021 8:00:00 AM -0.11 31.802 0.112 7.19 2.86 14.47
1/28/2021 8:15:00 AM -0.1 31.82 0.113 7.19 2.92 14.53
1/28/2021 8:30:00 AM -0.1 31.82 0.112 7.23 2.84 14.58
1/28/2021 8:45:00 AM -0.11 31.802 0.112 7.2 2.95 14.63
1/28/2021 9:00:00 AM -0.11 31.802 0.112 7.13 2.78 14.67
1/28/2021 9:15:00 AM -0.1 31.82 0.112 7.27 2.82 14.7
1/28/2021 9:30:00 AM -0.09 31.838 0.112 7.28 2.84 14.73
1/28/2021 9:45:00 AM -0.08 31.856 0.112 7.26 2.8 14.74
1/28/2021 10:00:00 AM -0.09 31.838 0.111 7.26 2.97 14.75
1/28/2021 10:15:00 AM -0.08 31.856 0.111 7.28 2.82 14.76
1/28/2021 10:30:00 AM -0.09 31.838 0.112 7.29 2.75 14.75
1/28/2021 10:45:00 AM -0.09 31.838 0.112 7.29 2.73 14.76
1/28/2021 11:00:00 AM -0.08 31.856 0.112 7.28 2.76 14.75
1/28/2021 11:15:00 AM -0.08 31.856 0.112 7.28 2.91 14.75
1/28/2021 11:30:00 AM -0.08 31.856 0.112 7.29 2.84 14.74
1/28/2021 11:45:00 AM -0.08 31.856 0.111 7.27 2.84 14.74
1/28/2021 12:00:00 PM -0.08 31.856 0.111 7.26 2.87 14.72
1/28/2021 12:15:00 PM -0.08 31.856 0.111 7.28 2.94 14.71
1/28/2021 12:30:00 PM -0.08 31.856 0.111 7.29 2.91 14.68
1/28/2021 12:45:00 PM -0.08 31.856 0.11 7.29 2.97 14.65
1/28/2021 1:00:00 PM -0.08 31.856 0.11 7.29 2.89 14.63
1/28/2021 1:15:00 PM -0.07 31.874 0.11 7.26 2.96 14.62
1/28/2021 1:30:00 PM -0.08 31.856 0.11 7.26 2.92 14.6
1/28/2021 1:45:00 PM -0.09 31.838 0.109 7.26 3.01 14.58
1/28/2021 2:00:00 PM -0.09 31.838 0.11 7.3 3.01 14.56
1/28/2021 2:15:00 PM -0.1 31.82 0.11 7.27 2.9 14.53
1/28/2021 2:30:00 PM -0.11 31.802 0.11 7.3 3.03 14.49
1/28/2021 2:45:00 PM -0.01 31.982 0.11 7.26 2.94 14.46
1/28/2021 3:00:00 PM 0.08 32.144 0.11 7.25 2.79 14.42
1/28/2021 3:15:00 PM 0.26 32.468 0.11 7.27 2.91 14.4
1/28/2021 3:30:00 PM 0.39 32.702 0.11 7.29 2.87 14.4
1/28/2021 3:45:00 PM 0.46 32.828 0.111 7.2 2.93 14.39
1/28/2021 4:00:00 PM 0.47 32.846 0.111 7.3 2.77 14.37
1/28/2021 4:15:00 PM 0.46 32.828 0.111 7.31 2.85 14.38
1/28/2021 4:30:00 PM 0.41 32.738 0.109 7.3 2.73 14.4
1/28/2021 4:45:00 PM 0.35 32.63 0.109 7.29 2.78 14.39
1/28/2021 5:00:00 PM 0.28 32.504 0.11 7.31 2.76 14.4
1/28/2021 5:15:00 PM 0.21 32.378 0.11 7.27 2.8 14.39
1/28/2021 5:30:00 PM 0.12 32.216 0.11 7.26 3.12 14.37
1/28/2021 5:45:00 PM 0.05 32.09 0.11 7.23 2.88 14.36
1/28/2021 6:00:00 PM -0.04 31.928 0.111 7.24 2.95 14.37
1/28/2021 6:15:00 PM -0.13 31.766 0.11 7.19 3.39 14.39
1/28/2021 6:30:00 PM -0.11 31.802 0.11 7.17 3.01 14.42
1/28/2021 6:45:00 PM -0.11 31.802 0.111 7.17 3.18 14.42
1/28/2021 7:00:00 PM -0.11 31.802 0.111 7.06 3 14.43
1/28/2021 7:15:00 PM -0.11 31.802 0.112 7.05 3.04 14.44
1/28/2021 7:30:00 PM -0.11 31.802 0.111 7.19 3.18 14.44
1/28/2021 7:45:00 PM -0.11 31.802 0.112 7.17 3.19 14.43
1/28/2021 8:00:00 PM -0.11 31.802 0.112 6.98 3.19 14.44
1/28/2021 8:15:00 PM -0.11 31.802 0.111 7.19 2.96 14.43
1/28/2021 8:30:00 PM -0.11 31.802 0.112 7.17 3.06 14.44
1/28/2021 8:45:00 PM -0.11 31.802 0.112 7.17 2.91 14.43
1/28/2021 9:00:00 PM -0.11 31.802 0.111 7.2 2.89 14.42
1/28/2021 9:15:00 PM -0.11 31.802 0.113 7.18 2.94 14.42
1/28/2021 9:30:00 PM -0.11 31.802 0.114 7.17 2.87 14.41
1/28/2021 9:45:00 PM -0.11 31.802 0.112 7.19 2.94 14.41
1/28/2021 10:00:00 PM -0.11 31.802 0.113 7.17 3.01 14.4
1/28/2021 10:15:00 PM -0.11 31.802 0.114 7.2 2.88 14.4
1/28/2021 10:30:00 PM -0.11 31.802 0.114 7.17 2.84 14.4
1/28/2021 10:45:00 PM -0.11 31.802 0.114 7.17 2.9 14.39
1/28/2021 11:00:00 PM -0.11 31.802 0.114 7.17 2.83 14.39
1/28/2021 11:15:00 PM -0.11 31.802 0.113 7.17 2.8 14.38
1/28/2021 11:30:00 PM -0.11 31.802 0.114 7.19 2.79 14.38
1/28/2021 11:45:00 PM -0.1 31.82 0.113 7.16 2.86 14.37
1/29/2021 12:00:00 AM -0.11 31.802 0.113 7.17 2.93 14.36
1/29/2021 12:15:00 AM -0.1 31.82 0.113 7.19 2.85 14.37
1/29/2021 12:30:00 AM -0.11 31.802 0.112 7.16 2.82 14.36
1/29/2021 12:45:00 AM -0.1 31.82 0.114 7.16 2.87 14.36
1/29/2021 1:00:00 AM -0.1 31.82 0.113 7.14 2.89 14.36
1/29/2021 1:15:00 AM -0.11 31.802 0.113 7.17 2.85 14.35
1/29/2021 1:30:00 AM -0.11 31.802 0.114 7.16 2.91 14.36
1/29/2021 1:45:00 AM -0.11 31.802 0.114 7.19 2.87 14.36
1/29/2021 2:00:00 AM -0.11 31.802 0.114 7.19 2.84 14.36
1/29/2021 2:15:00 AM -0.11 31.802 0.114 7.17 2.93 14.37
1/29/2021 2:30:00 AM -0.11 31.802 0.114 7.16 2.93 14.37
1/29/2021 2:45:00 AM -0.11 31.802 0.114 7.17 2.97 14.37
1/29/2021 3:00:00 AM -0.11 31.802 0.114 7.09 2.86 14.37
1/29/2021 3:15:00 AM -0.11 31.802 0.114 7.17 2.81 14.37
1/29/2021 3:30:00 AM -0.11 31.802 0.114 7.17 2.89 14.36
1/29/2021 3:45:00 AM -0.11 31.802 0.114 7.17 2.82 14.36
1/29/2021 4:00:00 AM -0.11 31.802 0.114 7.16 2.84 14.36
1/29/2021 4:15:00 AM -0.11 31.802 0.114 7.16 2.86 14.37
1/29/2021 4:30:00 AM -0.11 31.802 0.114 7.16 2.87 14.37
1/29/2021 4:45:00 AM -0.11 31.802 0.114 7.17 2.8 14.36
1/29/2021 5:00:00 AM -0.11 31.802 0.114 7.22 2.82 14.36
1/29/2021 5:15:00 AM -0.11 31.802 0.114 7.18 2.88 14.37
1/29/2021 5:30:00 AM -0.11 31.802 0.115 7.18 2.92 14.37
1/29/2021 5:45:00 AM -0.11 31.802 0.114 7.18 2.9 14.37
1/29/2021 6:00:00 AM -0.11 31.802 0.115 7.21 2.9 14.37
1/29/2021 6:15:00 AM -0.11 31.802 0.115 7.19 2.85 14.37
1/29/2021 6:30:00 AM -0.11 31.802 0.114 7.18 2.91 14.38
1/29/2021 6:45:00 AM -0.11 31.802 0.114 7.18 2.79 14.38
1/29/2021 7:00:00 AM -0.12 31.784 0.115 7.16 2.9 14.38
1/29/2021 7:15:00 AM -0.11 31.802 0.115 7.16 2.86 14.38
1/29/2021 7:30:00 AM -0.11 31.802 0.114 7.18 2.8 14.39
1/29/2021 7:45:00 AM -0.11 31.802 0.114 7.04 2.85 14.43
1/29/2021 8:00:00 AM -0.11 31.802 0.115 7.19 2.96 14.47
1/29/2021 8:15:00 AM -0.11 31.802 0.115 7.18 2.83 14.52
1/29/2021 8:30:00 AM -0.11 31.802 0.115 7.2 2.86 14.57
1/29/2021 8:45:00 AM -0.11 31.802 0.114 7.25 2.87 14.62
1/29/2021 9:00:00 AM -0.1 31.82 0.115 7.27 2.94 14.65
1/29/2021 9:15:00 AM -0.1 31.82 0.113 7.24 2.83 14.69
1/29/2021 9:30:00 AM -0.1 31.82 0.114 7.24 2.96 14.72
1/29/2021 9:45:00 AM -0.1 31.82 0.113 7.25 2.89 14.75
1/29/2021 10:00:00 AM -0.1 31.82 0.114 7.28 3.01 14.77
1/29/2021 10:15:00 AM -0.1 31.82 0.114 7.33 2.97 14.79
1/29/2021 10:30:00 AM -0.1 31.82 0.114 7.3 3.23 14.8
1/29/2021 10:45:00 AM -0.1 31.82 0.113 7.29 2.85 14.82
1/29/2021 11:00:00 AM -0.1 31.82 0.113 7.32 2.92 14.82
1/29/2021 11:15:00 AM -0.1 31.82 0.113 7.33 2.92 14.81
1/29/2021 11:30:00 AM -0.1 31.82 0.113 7.31 3.01 14.83
1/29/2021 11:45:00 AM -0.1 31.82 0.113 7.24 2.98 14.82
1/29/2021 12:00:00 PM -0.1 31.82 0.112 7.25 2.91 14.82
1/29/2021 12:15:00 PM -0.1 31.82 0.112 7.33 3.21 14.81
1/29/2021 12:30:00 PM -0.1 31.82 0.111 7.33 2.79 14.81
1/29/2021 12:45:00 PM -0.1 31.82 0.112 7.34 2.98 14.82
1/29/2021 1:00:00 PM -0.1 31.82 0.112 7.34 3.06 14.81
1/29/2021 1:15:00 PM -0.1 31.82 0.112 7.35 2.88 14.81
1/29/2021 1:30:00 PM -0.1 31.82 0.112 7.35 2.89 14.81
1/29/2021 1:45:00 PM -0.1 31.82 0.112 7.35 3.07 14.81
1/29/2021 2:00:00 PM -0.09 31.838 0.112 7.34 3.02 14.8
1/29/2021 2:15:00 PM -0.09 31.838 0.111 7.36 3.05 14.8
1/29/2021 2:30:00 PM -0.09 31.838 0.111 7.37 3.02 14.8
1/29/2021 2:45:00 PM -0.1 31.82 0.112 7.35 3.2 14.8
1/29/2021 3:00:00 PM -0.1 31.82 0.111 7.35 3.02 14.8
1/29/2021 3:15:00 PM -0.1 31.82 0.111 7.21 2.97 14.81
1/29/2021 3:30:00 PM -0.1 31.82 0.111 7.37 3.03 14.81
1/29/2021 3:45:00 PM -0.1 31.82 0.112 7.36 3.02 14.81
1/29/2021 4:00:00 PM -0.1 31.82 0.113 7.36 3.02 14.8
1/29/2021 4:15:00 PM -0.1 31.82 0.113 7.36 3.07 14.79
1/29/2021 4:30:00 PM -0.1 31.82 0.113 7.35 2.94 14.78
1/29/2021 4:45:00 PM -0.1 31.82 0.113 7.33 3.08 14.76
1/29/2021 5:00:00 PM -0.1 31.82 0.112 7.32 3.07 14.73
1/29/2021 5:15:00 PM -0.1 31.82 0.113 7.29 2.95 14.69
1/29/2021 5:30:00 PM -0.1 31.82 0.113 7.27 2.91 14.65
1/29/2021 5:45:00 PM -0.1 31.82 0.113 7.27 2.97 14.6
1/29/2021 6:00:00 PM -0.1 31.82 0.112 7.25 2.91 14.55
1/29/2021 6:15:00 PM -0.1 31.82 0.114 7.22 2.92 14.52
1/29/2021 6:30:00 PM -0.1 31.82 0.113 7.2 3.01 14.49
1/29/2021 6:45:00 PM -0.1 31.82 0.114 7.2 3.03 14.46
1/29/2021 7:00:00 PM -0.1 31.82 0.114 7.17 3.12 14.45
1/29/2021 7:15:00 PM -0.1 31.82 0.113 7.19 3.18 14.43
1/29/2021 7:30:00 PM -0.1 31.82 0.114 7.18 3.18 14.42
1/29/2021 7:45:00 PM -0.1 31.82 0.114 7.17 3.12 14.41
1/29/2021 8:00:00 PM -0.1 31.82 0.114 7.16 3.1 14.39
1/29/2021 8:15:00 PM -0.1 31.82 0.114 7.16 3.15 14.38
1/29/2021 8:30:00 PM -0.1 31.82 0.114 7.16 3.08 14.38
1/29/2021 8:45:00 PM -0.1 31.82 0.114 7.15 3.11 14.37
1/29/2021 9:00:00 PM -0.1 31.82 0.115 7.15 2.95 14.36
1/29/2021 9:15:00 PM -0.1 31.82 0.114 7.14 2.87 14.36
1/29/2021 9:30:00 PM -0.1 31.82 0.114 7.15 3.01 14.35
1/29/2021 9:45:00 PM -0.1 31.82 0.114 7.14 3.11 14.34
1/29/2021 10:00:00 PM -0.1 31.82 0.115 7.17 2.93 14.34
1/29/2021 10:15:00 PM -0.1 31.82 0.115 7.15 2.96 14.34
1/29/2021 10:30:00 PM -0.1 31.82 0.114 7.13 2.88 14.34
1/29/2021 10:45:00 PM -0.1 31.82 0.115 7.13 2.97 14.34
1/29/2021 11:00:00 PM -0.1 31.82 0.114 7.06 2.98 14.33
1/29/2021 11:15:00 PM -0.1 31.82 0.115 7.11 2.88 14.33
1/29/2021 11:30:00 PM -0.1 31.82 0.115 6.97 3.16 14.33
1/29/2021 11:45:00 PM -0.1 31.82 0.115 7.13 2.83 14.33
1/30/2021 12:00:00 AM -0.1 31.82 0.116 7.02 2.93 14.33
1/30/2021 12:15:00 AM -0.1 31.82 0.115 7.03 2.87 14.33
1/30/2021 12:30:00 AM -0.1 31.82 0.115 7.12 2.83 14.32
1/30/2021 12:45:00 AM -0.1 31.82 0.116 7.12 3.06 14.32
1/30/2021 1:00:00 AM -0.1 31.82 0.115 7.11 2.98 14.32
1/30/2021 1:15:00 AM -0.1 31.82 0.115 7.12 2.95 14.32
1/30/2021 1:30:00 AM -0.1 31.82 0.116 7.13 2.92 14.32
1/30/2021 1:45:00 AM -0.1 31.82 0.116 7.12 2.99 14.33
1/30/2021 2:00:00 AM -0.1 31.82 0.116 7.12 2.77 14.33
1/30/2021 2:15:00 AM -0.1 31.82 0.115 7.04 2.81 14.32
1/30/2021 2:30:00 AM -0.1 31.82 0.115 7.14 2.79 14.33
1/30/2021 2:45:00 AM -0.1 31.82 0.117 7.05 3.05 14.32
1/30/2021 3:00:00 AM -0.1 31.82 0.117 7.12 2.77 14.33
1/30/2021 3:15:00 AM -0.1 31.82 0.117 7.08 2.91 14.34
1/30/2021 3:30:00 AM -0.1 31.82 0.117 7.16 2.82 14.33
1/30/2021 3:45:00 AM -0.1 31.82 0.116 7.12 2.85 14.33
1/30/2021 4:00:00 AM -0.1 31.82 0.118 7.12 2.95 14.34
1/30/2021 4:15:00 AM -0.1 31.82 0.117 6.71 2.89 14.33
1/30/2021 4:30:00 AM -0.1 31.82 0.116 7.15 2.77 14.34
1/30/2021 4:45:00 AM -0.1 31.82 0.118 7 2.81 14.34
1/30/2021 5:00:00 AM -0.1 31.82 0.118 7.02 2.85 14.34
1/30/2021 5:15:00 AM -0.1 31.82 0.117 6.97 2.79 14.34
1/30/2021 5:30:00 AM -0.11 31.802 0.118 7 2.87 14.35
1/30/2021 5:45:00 AM -0.11 31.802 0.118 7.08 2.89 14.34
1/30/2021 6:00:00 AM -0.11 31.802 0.118 7.04 2.87 14.34
1/30/2021 6:15:00 AM -0.11 31.802 0.117 7.13 2.74 14.35
1/30/2021 6:30:00 AM -0.11 31.802 0.118 7.15 2.9 14.35
1/30/2021 6:45:00 AM -0.11 31.802 0.118 7.09 2.84 14.35
1/30/2021 7:00:00 AM -0.11 31.802 0.117 7.04 2.69 14.35
1/30/2021 7:15:00 AM -0.11 31.802 0.119 7.01 2.8 14.36
1/30/2021 7:30:00 AM -0.11 31.802 0.119 7.04 2.68 14.36
1/30/2021 7:45:00 AM -0.11 31.802 0.118 7.06 2.71 14.4
1/30/2021 8:00:00 AM -0.1 31.82 0.118 7.08 2.67 14.44
1/30/2021 8:15:00 AM -0.1 31.82 0.118 7.17 2.75 14.48
1/30/2021 8:30:00 AM -0.1 31.82 0.117 7.18 2.72 14.54
1/30/2021 8:45:00 AM -0.1 31.82 0.118 7.18 2.86 14.59
1/30/2021 9:00:00 AM -0.1 31.82 0.118 7.19 2.84 14.64
1/30/2021 9:15:00 AM -0.1 31.82 0.118 7.21 2.73 14.69
1/30/2021 9:30:00 AM -0.09 31.838 0.118 7.24 2.8 14.74
1/30/2021 9:45:00 AM -0.08 31.856 0.119 7.18 2.91 14.78
1/30/2021 10:00:00 AM -0.08 31.856 0.119 7.26 2.84 14.81
1/30/2021 10:15:00 AM -0.08 31.856 0.119 7.25 2.74 14.83
1/30/2021 10:30:00 AM -0.08 31.856 0.118 7.26 2.68 14.86
1/30/2021 10:45:00 AM -0.07 31.874 0.118 7.28 2.88 14.87
1/30/2021 11:00:00 AM -0.06 31.892 0.119 7.25 2.87 14.89
1/30/2021 11:15:00 AM -0.06 31.892 0.117 7.3 2.92 14.89
1/30/2021 11:30:00 AM -0.06 31.892 0.117 7.3 2.86 14.9
1/30/2021 11:45:00 AM -0.06 31.892 0.118 7.33 2.98 14.91
1/30/2021 12:00:00 PM -0.05 31.91 0.116 7.33 2.89 14.91
1/30/2021 12:15:00 PM -0.05 31.91 0.117 7.29 3.11 14.9
1/30/2021 12:30:00 PM -0.05 31.91 0.117 7.32 2.94 14.89
1/30/2021 12:45:00 PM -0.05 31.91 0.116 7.35 3.07 14.88
1/30/2021 1:00:00 PM -0.05 31.91 0.116 7.34 2.9 14.87
1/30/2021 1:15:00 PM -0.05 31.91 0.116 7.33 3.1 14.86
1/30/2021 1:30:00 PM -0.05 31.91 0.116 7.36 2.85 14.85
1/30/2021 1:45:00 PM -0.05 31.91 0.115 7.34 3.3 14.83
1/30/2021 2:00:00 PM -0.05 31.91 0.115 7.33 3.14 14.82
1/30/2021 2:15:00 PM -0.07 31.874 0.116 7.34 3.12 14.8
1/30/2021 2:30:00 PM -0.08 31.856 0.115 7.37 3.12 14.79
1/30/2021 2:45:00 PM -0.09 31.838 0.116 7.34 3.13 14.77
1/30/2021 3:00:00 PM -0.09 31.838 0.115 7.33 3.08 14.77
1/30/2021 3:15:00 PM -0.09 31.838 0.116 7.34 3.18 14.76
1/30/2021 3:30:00 PM -0.09 31.838 0.115 7.31 3.15 14.76
1/30/2021 3:45:00 PM -0.09 31.838 0.115 7.34 3.08 14.76
1/30/2021 4:00:00 PM -0.09 31.838 0.115 7.37 2.9 14.75
1/30/2021 4:15:00 PM -0.09 31.838 0.115 7.34 3.01 14.74
1/30/2021 4:30:00 PM -0.09 31.838 0.116 7.34 2.86 14.74
1/30/2021 4:45:00 PM -0.09 31.838 0.115 7.32 2.87 14.73
1/30/2021 5:00:00 PM -0.09 31.838 0.115 7.33 3.01 14.71
1/30/2021 5:15:00 PM -0.1 31.82 0.114 7.35 2.91 14.67
1/30/2021 5:30:00 PM -0.1 31.82 0.115 7.31 2.99 14.63
1/30/2021 5:45:00 PM -0.1 31.82 0.115 7.29 3.02 14.58
1/30/2021 6:00:00 PM -0.1 31.82 0.114 7.29 2.85 14.53
1/30/2021 6:15:00 PM -0.1 31.82 0.115 7.25 2.98 14.5
1/30/2021 6:30:00 PM -0.1 31.82 0.114 7.19 3 14.46
1/30/2021 6:45:00 PM -0.1 31.82 0.114 7.22 2.89 14.44
1/30/2021 7:00:00 PM -0.1 31.82 0.115 7.2 2.9 14.42
1/30/2021 7:15:00 PM -0.1 31.82 0.115 7.19 2.93 14.4
1/30/2021 7:30:00 PM -0.1 31.82 0.115 7.19 2.98 14.4
1/30/2021 7:45:00 PM -0.1 31.82 0.116 7.17 3.03 14.39
1/30/2021 8:00:00 PM -0.1 31.82 0.115 7.19 2.99 14.39
1/30/2021 8:15:00 PM -0.1 31.82 0.116 7.18 3.27 14.39
1/30/2021 8:30:00 PM -0.1 31.82 0.116 7.15 3 14.39
1/30/2021 8:45:00 PM -0.1 31.82 0.116 7.17 2.96 14.39
1/30/2021 9:00:00 PM -0.1 31.82 0.115 7.15 2.93 14.38
1/30/2021 9:15:00 PM -0.1 31.82 0.115 7.16 2.88 14.38
1/30/2021 9:30:00 PM -0.1 31.82 0.115 7.16 2.96 14.38
1/30/2021 9:45:00 PM -0.11 31.802 0.114 7.16 2.89 14.37
1/30/2021 10:00:00 PM -0.11 31.802 0.115 7.14 3.01 14.37
1/30/2021 10:15:00 PM -0.11 31.802 0.114 7.14 2.83 14.37
1/30/2021 10:30:00 PM -0.1 31.82 0.114 7.13 3.04 14.37
1/30/2021 10:45:00 PM -0.11 31.802 0.115 7.14 3.01 14.36
1/30/2021 11:00:00 PM -0.11 31.802 0.115 7.02 2.97 14.36
1/30/2021 11:15:00 PM -0.1 31.82 0.115 7.15 3.08 14.36
1/30/2021 11:30:00 PM -0.1 31.82 0.115 7.06 2.92 14.35
1/30/2021 11:45:00 PM -0.1 31.82 0.114 7.11 2.92 14.35
1/31/2021 12:00:00 AM -0.1 31.82 0.114 7.13 2.94 14.35
1/31/2021 12:15:00 AM -0.1 31.82 0.116 7.13 2.9 14.35
1/31/2021 12:30:00 AM -0.1 31.82 0.115 7.13 2.99 14.34
1/31/2021 12:45:00 AM -0.1 31.82 0.114 7.13 2.95 14.34
1/31/2021 1:00:00 AM -0.1 31.82 0.115 7.12 2.98 14.33
1/31/2021 1:15:00 AM -0.1 31.82 0.115 7.11 3.03 14.33
1/31/2021 1:30:00 AM -0.1 31.82 0.115 7.12 2.85 14.32
1/31/2021 1:45:00 AM -0.1 31.82 0.114 7.13 2.95 14.32
1/31/2021 2:00:00 AM -0.1 31.82 0.115 7.15 2.95 14.31
1/31/2021 2:15:00 AM -0.1 31.82 0.115 7.11 2.9 14.31
1/31/2021 2:30:00 AM -0.1 31.82 0.115 7.1 3.09 14.31
1/31/2021 2:45:00 AM -0.1 31.82 0.116 7.13 2.88 14.31
1/31/2021 3:00:00 AM -0.1 31.82 0.114 7.11 2.9 14.3
1/31/2021 3:15:00 AM -0.1 31.82 0.115 7.11 2.76 14.3
1/31/2021 3:30:00 AM -0.1 31.82 0.115 7.14 2.92 14.3
1/31/2021 3:45:00 AM -0.09 31.838 0.114 7.11 2.81 14.29
1/31/2021 4:00:00 AM -0.1 31.82 0.115 7.11 2.82 14.29
1/31/2021 4:15:00 AM -0.1 31.82 0.116 7.1 2.82 14.29
1/31/2021 4:30:00 AM -0.1 31.82 0.116 7.11 2.89 14.29
1/31/2021 4:45:00 AM -0.1 31.82 0.114 7.1 2.84 14.29
1/31/2021 5:00:00 AM -0.1 31.82 0.116 7.1 2.89 14.28
1/31/2021 5:15:00 AM -0.1 31.82 0.116 7.11 3.04 14.28
1/31/2021 5:30:00 AM -0.09 31.838 0.116 7.13 2.84 14.27
1/31/2021 5:45:00 AM -0.09 31.838 0.115 7.12 2.97 14.27
1/31/2021 6:00:00 AM -0.09 31.838 0.115 7.11 2.77 14.27
1/31/2021 6:15:00 AM -0.09 31.838 0.116 7.11 2.84 14.27
1/31/2021 6:30:00 AM -0.09 31.838 0.116 7.13 2.89 14.27
1/31/2021 6:45:00 AM -0.09 31.838 0.115 7.12 2.85 14.26
1/31/2021 7:00:00 AM -0.09 31.838 0.116 7.13 2.83 14.26
1/31/2021 7:15:00 AM -0.09 31.838 0.116 7.12 2.85 14.26
1/31/2021 7:30:00 AM -0.09 31.838 0.116 7.09 3.12 14.26
1/31/2021 7:45:00 AM -0.09 31.838 0.115 7.11 2.92 14.27
1/31/2021 8:00:00 AM -0.09 31.838 0.115 7.13 2.75 14.3
1/31/2021 8:15:00 AM -0.09 31.838 0.116 7.15 2.97 14.36
1/31/2021 8:30:00 AM -0.09 31.838 0.116 7.15 2.83 14.42
1/31/2021 8:45:00 AM -0.08 31.856 0.115 7.18 2.87 14.47
1/31/2021 9:00:00 AM -0.08 31.856 0.116 7.19 2.99 14.53
1/31/2021 9:15:00 AM -0.08 31.856 0.116 7.23 2.99 14.58
1/31/2021 9:30:00 AM -0.09 31.838 0.115 7.18 2.87 14.62
1/31/2021 9:45:00 AM -0.09 31.838 0.115 7.22 2.86 14.66
1/31/2021 10:00:00 AM -0.09 31.838 0.115 7.26 2.89 14.7
1/31/2021 10:15:00 AM -0.09 31.838 0.116 7.25 2.9 14.73
1/31/2021 10:30:00 AM -0.09 31.838 0.116 7.26 2.91 14.77
1/31/2021 10:45:00 AM -0.08 31.856 0.115 7.29 2.89 14.8
1/31/2021 11:00:00 AM -0.08 31.856 0.115 7.3 2.93 14.83
1/31/2021 11:15:00 AM -0.07 31.874 0.115 7.34 2.87 14.86
1/31/2021 11:30:00 AM -0.07 31.874 0.114 7.32 2.97 14.88
1/31/2021 11:45:00 AM -0.07 31.874 0.114 7.33 2.85 14.91
1/31/2021 12:00:00 PM -0.06 31.892 0.115 7.34 2.86 14.92
1/31/2021 12:15:00 PM -0.05 31.91 0.114 7.36 2.89 14.93
1/31/2021 12:30:00 PM -0.05 31.91 0.114 7.38 2.78 14.93
1/31/2021 12:45:00 PM -0.06 31.892 0.113 7.33 2.93 14.92
1/31/2021 1:00:00 PM -0.07 31.874 0.115 7.26 2.8 14.92
1/31/2021 1:15:00 PM -0.08 31.856 0.114 7.37 2.92 14.91
1/31/2021 1:30:00 PM -0.08 31.856 0.115 7.37 3.1 14.9
1/31/2021 1:45:00 PM -0.08 31.856 0.115 7.38 2.93 14.89
1/31/2021 2:00:00 PM -0.08 31.856 0.114 7.23 2.89 14.88
1/31/2021 2:15:00 PM -0.06 31.892 0.115 7.38 3.06 14.88
1/31/2021 2:30:00 PM -0.06 31.892 0.114 7.38 2.95 14.88
1/31/2021 2:45:00 PM -0.07 31.874 0.114 7.37 2.94 14.88
1/31/2021 3:00:00 PM -0.08 31.856 0.114 7.39 3.01 14.89
1/31/2021 3:15:00 PM -0.07 31.874 0.115 7.4 3.01 14.9
1/31/2021 3:30:00 PM -0.08 31.856 0.114 7.4 3.03 14.88
1/31/2021 3:45:00 PM -0.08 31.856 0.114 7.42 3.04 14.88
1/31/2021 4:00:00 PM -0.09 31.838 0.113 7.39 2.93 14.85
1/31/2021 4:15:00 PM -0.09 31.838 0.114 7.38 3.08 14.82
1/31/2021 4:30:00 PM -0.09 31.838 0.114 7.31 2.98 14.78
1/31/2021 4:45:00 PM -0.09 31.838 0.113 7.29 2.89 14.73
1/31/2021 5:00:00 PM -0.1 31.82 0.113 7.26 2.91 14.68
1/31/2021 5:15:00 PM -0.1 31.82 0.113 7.31 2.89 14.62
1/31/2021 5:30:00 PM -0.09 31.838 0.114 7.26 2.8 14.55
1/31/2021 5:45:00 PM -0.09 31.838 0.114 7.27 2.87 14.49
1/31/2021 6:00:00 PM -0.1 31.82 0.114 7.19 2.89 14.44
1/31/2021 6:15:00 PM -0.09 31.838 0.114 7.23 2.91 14.39
1/31/2021 6:30:00 PM -0.09 31.838 0.113 7.24 2.84 14.35
1/31/2021 6:45:00 PM -0.1 31.82 0.113 7.21 2.81 14.32
1/31/2021 7:00:00 PM -0.1 31.82 0.113 7.19 2.99 14.3
1/31/2021 7:15:00 PM -0.1 31.82 0.113 7.18 2.89 14.27
1/31/2021 7:30:00 PM -0.1 31.82 0.114 7.15 2.93 14.26
1/31/2021 7:45:00 PM -0.1 31.82 0.112 7.17 2.92 14.25
1/31/2021 8:00:00 PM -0.1 31.82 0.112 7.17 2.86 14.24
1/31/2021 8:15:00 PM -0.1 31.82 0.113 7.16 3.01 14.23
1/31/2021 8:30:00 PM -0.1 31.82 0.113 7.16 2.95 14.23
1/31/2021 8:45:00 PM -0.1 31.82 0.113 7.14 2.91 14.22
1/31/2021 9:00:00 PM -0.1 31.82 0.113 7.14 2.92 14.21
1/31/2021 9:15:00 PM -0.1 31.82 0.113 7.18 2.98 14.21
1/31/2021 9:30:00 PM -0.1 31.82 0.113 7.15 2.87 14.2
1/31/2021 9:45:00 PM -0.09 31.838 0.112 7.14 2.91 14.19
1/31/2021 10:00:00 PM -0.09 31.838 0.113 7.14 2.89 14.19
1/31/2021 10:15:00 PM -0.09 31.838 0.113 7.13 3 14.18
1/31/2021 10:30:00 PM -0.09 31.838 0.113 7.16 2.94 14.17
1/31/2021 10:45:00 PM -0.09 31.838 0.113 7.13 2.9 14.17
1/31/2021 11:00:00 PM -0.1 31.82 0.113 7.13 3.05 14.17
1/31/2021 11:15:00 PM -0.1 31.82 0.112 7.13 2.93 14.16
1/31/2021 11:30:00 PM -0.1 31.82 0.112 7.13 2.94 14.16
1/31/2021 11:45:00 PM -0.1 31.82 0.113 7.14 2.79 14.15
2/1/2021 12:00:00 AM -0.1 31.82 0.113 7.13 2.79 14.15
2/1/2021 12:15:00 AM -0.1 31.82 0.113 7.12 2.8 14.15
2/1/2021 12:30:00 AM -0.1 31.82 0.113 7.12 2.89 14.15
2/1/2021 12:45:00 AM -0.1 31.82 0.113 7.12 2.96 14.14
2/1/2021 1:00:00 AM -0.09 31.838 0.114 7.09 2.96 14.14
2/1/2021 1:15:00 AM -0.09 31.838 0.113 7.08 2.92 14.13
2/1/2021 1:30:00 AM -0.09 31.838 0.113 7.09 2.93 14.13
2/1/2021 1:45:00 AM -0.09 31.838 0.113 7.1 2.94 14.13
2/1/2021 2:00:00 AM -0.09 31.838 0.113 7.09 2.87 14.13
2/1/2021 2:15:00 AM -0.09 31.838 0.113 7.13 2.81 14.13
2/1/2021 2:30:00 AM -0.09 31.838 0.112 7.12 2.94 14.12
2/1/2021 2:45:00 AM -0.09 31.838 0.112 7.15 2.82 14.12
2/1/2021 3:00:00 AM -0.09 31.838 0.113 7.12 2.91 14.12
2/1/2021 3:15:00 AM -0.09 31.838 0.113 7.15 2.91 14.12
2/1/2021 3:30:00 AM -0.09 31.838 0.112 7.13 2.85 14.11
2/1/2021 3:45:00 AM -0.09 31.838 0.113 7.13 2.89 14.11
2/1/2021 4:00:00 AM -0.09 31.838 0.113 7.15 2.95 14.11
2/1/2021 4:15:00 AM -0.09 31.838 0.113 7.14 2.95 14.11
2/1/2021 4:30:00 AM -0.09 31.838 0.114 7.15 2.94 14.11
2/1/2021 4:45:00 AM -0.09 31.838 0.114 7.13 2.76 14.1
2/1/2021 5:00:00 AM -0.09 31.838 0.114 7.14 2.94 14.1
2/1/2021 5:15:00 AM -0.09 31.838 0.114 7.14 2.9 14.1
2/1/2021 5:30:00 AM -0.09 31.838 0.114 7.11 2.91 14.1
2/1/2021 5:45:00 AM -0.1 31.82 0.115 7.11 2.91 14.1
2/1/2021 6:00:00 AM -0.1 31.82 0.114 7.15 2.84 14.11
2/1/2021 6:15:00 AM -0.1 31.82 0.115 7.12 2.87 14.1
2/1/2021 6:30:00 AM -0.1 31.82 0.113 7.11 2.82 14.11
2/1/2021 6:45:00 AM -0.1 31.82 0.114 7.12 2.83 14.11
2/1/2021 7:00:00 AM -0.1 31.82 0.115 7.12 2.9 14.11
2/1/2021 7:15:00 AM -0.1 31.82 0.115 7.13 2.87 14.11
2/1/2021 7:30:00 AM -0.1 31.82 0.115 7.11 2.8 14.11
2/1/2021 7:45:00 AM -0.1 31.82 0.114 7.15 2.94 14.12
2/1/2021 8:00:00 AM -0.1 31.82 0.114 7.12 2.95 14.13
2/1/2021 8:15:00 AM -0.1 31.82 0.114 7.14 2.93 14.15
2/1/2021 8:30:00 AM -0.1 31.82 0.113 7.12 2.91 14.18
2/1/2021 8:45:00 AM -0.1 31.82 0.114 7.13 2.98 14.21
2/1/2021 9:00:00 AM -0.09 31.838 0.113 7.16 2.89 14.26
2/1/2021 9:15:00 AM -0.09 31.838 0.114 7.15 3.01 14.32
2/1/2021 9:30:00 AM -0.1 31.82 0.113 7.18 2.81 14.38
2/1/2021 9:45:00 AM -0.1 31.82 0.114 7.2 2.91 14.42
2/1/2021 10:00:00 AM -0.1 31.82 0.113 7.21 2.96 14.45
2/1/2021 10:15:00 AM -0.1 31.82 0.113 7.21 2.84 14.47
2/1/2021 10:30:00 AM -0.1 31.82 0.112 7.21 2.85 14.49
2/1/2021 10:45:00 AM -0.09 31.838 0.112 7.23 2.94 14.51
2/1/2021 11:00:00 AM -0.09 31.838 0.112 7.24 2.87 14.55
2/1/2021 11:15:00 AM -0.08 31.856 0.112 7.25 2.92 14.6
2/1/2021 11:30:00 AM -0.07 31.874 0.111 7.26 2.91 14.63
2/1/2021 11:45:00 AM -0.07 31.874 0.112 7.29 2.86 14.69
2/1/2021 12:00:00 PM -0.07 31.874 0.112 7.3 2.86 14.7
2/1/2021 12:15:00 PM -0.07 31.874 0.111 7.31 2.9 14.74
2/1/2021 12:30:00 PM -0.07 31.874 0.11 7.34 2.75 14.76
2/1/2021 12:45:00 PM -0.07 31.874 0.111 7.35 2.8 14.77
2/1/2021 1:00:00 PM -0.08 31.856 0.111 7.35 2.94 14.77
2/1/2021 1:15:00 PM -0.07 31.874 0.11 7.38 2.95 14.76
2/1/2021 1:30:00 PM -0.07 31.874 0.111 7.4 2.92 14.75
2/1/2021 1:45:00 PM -0.08 31.856 0.111 7.37 2.82 14.75
2/1/2021 2:00:00 PM -0.08 31.856 0.111 7.35 2.84 14.75
2/1/2021 2:15:00 PM -0.08 31.856 0.11 7.38 2.93 14.74
2/1/2021 2:30:00 PM -0.09 31.838 0.11 7.4 3.06 14.73
2/1/2021 2:45:00 PM -0.09 31.838 0.11 7.37 2.95 14.7
2/1/2021 3:00:00 PM -0.09 31.838 0.111 7.36 2.9 14.68
2/1/2021 3:15:00 PM -0.09 31.838 0.11 7.35 2.99 14.66
2/1/2021 3:30:00 PM -0.08 31.856 0.111 7.35 2.97 14.65
2/1/2021 3:45:00 PM -0.08 31.856 0.111 7.33 2.96 14.63
2/1/2021 4:00:00 PM -0.08 31.856 0.111 7.32 2.95 14.63
2/1/2021 4:15:00 PM -0.08 31.856 0.111 7.35 2.91 14.63
2/1/2021 4:30:00 PM -0.08 31.856 0.11 7.25 2.87 14.61
2/1/2021 4:45:00 PM -0.08 31.856 0.111 7.3 2.86 14.55
2/1/2021 5:00:00 PM -0.08 31.856 0.111 7.3 2.83 14.5
2/1/2021 5:15:00 PM -0.08 31.856 0.111 7.26 2.73 14.45
2/1/2021 5:30:00 PM -0.08 31.856 0.112 7.28 2.94 14.39
2/1/2021 5:45:00 PM -0.08 31.856 0.111 7.28 2.94 14.33
2/1/2021 6:00:00 PM -0.08 31.856 0.112 7.25 2.9 14.29
2/1/2021 6:15:00 PM -0.08 31.856 0.111 7.22 2.77 14.25
2/1/2021 6:30:00 PM -0.09 31.838 0.111 7.12 2.88 14.21
2/1/2021 6:45:00 PM -0.08 31.856 0.112 7.09 2.81 14.18
2/1/2021 7:00:00 PM -0.09 31.838 0.111 7.1 2.84 14.16
2/1/2021 7:15:00 PM -0.09 31.838 0.112 7.15 2.92 14.14
2/1/2021 7:30:00 PM -0.08 31.856 0.111 7.09 2.96 14.12
2/1/2021 7:45:00 PM -0.08 31.856 0.111 7.16 2.96 14.11
2/1/2021 8:00:00 PM -0.08 31.856 0.111 7.15 3.01 14.1
2/1/2021 8:15:00 PM -0.09 31.838 0.111 7.17 2.96 14.1
2/1/2021 8:30:00 PM -0.09 31.838 0.111 7.15 2.95 14.08
2/1/2021 8:45:00 PM -0.09 31.838 0.111 7.15 2.83 14.08
2/1/2021 9:00:00 PM -0.08 31.856 0.112 7.17 2.89 14.07
2/1/2021 9:15:00 PM -0.08 31.856 0.111 7.14 2.87 14.07
2/1/2021 9:30:00 PM -0.09 31.838 0.111 7.17 2.9 14.06
2/1/2021 9:45:00 PM -0.09 31.838 0.111 7.04 2.86 14.06
2/1/2021 10:00:00 PM -0.09 31.838 0.112 6.98 2.87 14.06
2/1/2021 10:15:00 PM -0.09 31.838 0.111 7.01 2.84 14.05
2/1/2021 10:30:00 PM -0.09 31.838 0.111 7.05 2.9 14.05
2/1/2021 10:45:00 PM -0.09 31.838 0.111 7.03 2.93 14.05
2/1/2021 11:00:00 PM -0.09 31.838 0.111 7.12 2.98 14.04
2/1/2021 11:15:00 PM -0.09 31.838 0.111 7.15 2.86 14.04
2/1/2021 11:30:00 PM -0.09 31.838 0.11 7.12 2.77 14.04
2/1/2021 11:45:00 PM -0.09 31.838 0.111 7.12 2.84 14.04
2/2/2021 12:00:00 AM -0.09 31.838 0.11 7.04 2.8 14.03
2/2/2021 12:15:00 AM -0.09 31.838 0.111 6.87 2.91 14.03
2/2/2021 12:30:00 AM -0.09 31.838 0.11 7.12 2.86 14.03
2/2/2021 12:45:00 AM -0.09 31.838 0.111 7.04 2.83 14.03
2/2/2021 1:00:00 AM -0.09 31.838 0.111 7 2.86 14.03
2/2/2021 1:15:00 AM -0.09 31.838 0.111 7.12 2.91 14.02
2/2/2021 1:30:00 AM -0.09 31.838 0.111 7.15 2.91 14.02
2/2/2021 1:45:00 AM -0.09 31.838 0.111 7.12 2.98 14.02
2/2/2021 2:00:00 AM -0.09 31.838 0.111 7.12 2.92 14.02
2/2/2021 2:15:00 AM -0.09 31.838 0.111 7.12 2.81 14.02
2/2/2021 2:30:00 AM -0.09 31.838 0.11 7.12 2.8 14.01
2/2/2021 2:45:00 AM -0.1 31.82 0.111 7.12 2.95 14.01
2/2/2021 3:00:00 AM -0.1 31.82 0.111 7.13 2.97 14.01
2/2/2021 3:15:00 AM -0.1 31.82 0.111 7.13 2.93 14.01
2/2/2021 3:30:00 AM -0.09 31.838 0.11 7.13 2.85 14.01
2/2/2021 3:45:00 AM -0.09 31.838 0.111 7.05 2.8 14
2/2/2021 4:00:00 AM -0.09 31.838 0.111 7.12 2.98 14
2/2/2021 4:15:00 AM -0.09 31.838 0.112 7.12 2.82 14
2/2/2021 4:30:00 AM -0.1 31.82 0.111 7.02 2.82 14
2/2/2021 4:45:00 AM -0.09 31.838 0.111 7.02 2.79 14
2/2/2021 5:00:00 AM -0.09 31.838 0.111 7.04 2.77 14
2/2/2021 5:15:00 AM -0.1 31.82 0.111 7.11 2.88 14
2/2/2021 5:30:00 AM -0.1 31.82 0.111 7.12 2.9 14
2/2/2021 5:45:00 AM -0.1 31.82 0.112 7.11 2.91 13.99
2/2/2021 6:00:00 AM -0.1 31.82 0.111 7.13 2.8 13.99
2/2/2021 6:15:00 AM -0.09 31.838 0.112 7.13 2.82 13.99
2/2/2021 6:30:00 AM -0.09 31.838 0.111 7.12 2.86 13.99
2/2/2021 6:45:00 AM -0.09 31.838 0.111 7.12 2.81 13.98
2/2/2021 7:00:00 AM -0.09 31.838 0.112 7.12 2.86 13.99
2/2/2021 7:15:00 AM -0.09 31.838 0.112 7.11 2.8 13.98
2/2/2021 7:30:00 AM -0.08 31.856 0.11 7.12 2.72 13.99
2/2/2021 7:45:00 AM -0.08 31.856 0.112 6.98 2.67 14.01
2/2/2021 8:00:00 AM -0.08 31.856 0.111 7.09 2.82 14.04
2/2/2021 8:15:00 AM -0.08 31.856 0.112 7.1 2.74 14.07
2/2/2021 8:30:00 AM -0.08 31.856 0.111 7.07 2.71 14.12
2/2/2021 8:45:00 AM -0.08 31.856 0.111 7.16 2.77 14.17
2/2/2021 9:00:00 AM -0.08 31.856 0.111 7.14 2.78 14.21
2/2/2021 9:15:00 AM -0.08 31.856 0.111 7.19 2.81 14.26
2/2/2021 9:30:00 AM -0.08 31.856 0.111 7.21 2.77 14.3
2/2/2021 9:45:00 AM -0.08 31.856 0.111 7.22 2.93 14.34
2/2/2021 10:00:00 AM -0.08 31.856 0.111 7.24 2.84 14.38
2/2/2021 10:15:00 AM -0.08 31.856 0.111 7.28 2.83 14.4
2/2/2021 10:30:00 AM -0.08 31.856 0.111 7.26 2.84 14.41
2/2/2021 10:45:00 AM -0.08 31.856 0.112 7.27 2.97 14.44
2/2/2021 11:00:00 AM -0.08 31.856 0.111 7.29 2.78 14.46
2/2/2021 11:15:00 AM -0.08 31.856 0.111 7.2 2.88 14.48
2/2/2021 11:30:00 AM -0.08 31.856 0.11 7.19 2.79 14.49
2/2/2021 11:45:00 AM -0.08 31.856 0.11 7.3 2.81 14.5
2/2/2021 12:00:00 PM -0.08 31.856 0.11 7.31 2.95 14.51
2/2/2021 12:15:00 PM -0.07 31.874 0.11 7.33 2.88 14.54
2/2/2021 12:30:00 PM -0.07 31.874 0.11 7.36 2.87 14.57
2/2/2021 12:45:00 PM -0.08 31.856 0.109 7.35 2.81 14.57
2/2/2021 1:00:00 PM -0.08 31.856 0.11 7.36 2.86 14.57
2/2/2021 1:15:00 PM -0.07 31.874 0.11 7.3 2.85 14.57
2/2/2021 1:30:00 PM -0.08 31.856 0.109 7.35 2.97 14.57
2/2/2021 1:45:00 PM -0.07 31.874 0.11 7.36 2.84 14.55
2/2/2021 2:00:00 PM -0.07 31.874 0.109 7.36 2.82 14.56
2/2/2021 2:15:00 PM -0.09 31.838 0.109 7.4 2.96 14.58
2/2/2021 2:30:00 PM -0.08 31.856 0.11 7.37 2.82 14.55
2/2/2021 2:45:00 PM -0.08 31.856 0.109 7.37 2.96 14.55
2/2/2021 3:00:00 PM -0.09 31.838 0.11 7.38 2.91 14.54
2/2/2021 3:15:00 PM -0.09 31.838 0.109 7.37 2.82 14.52
2/2/2021 3:30:00 PM -0.09 31.838 0.108 7.36 2.8 14.49
2/2/2021 3:45:00 PM -0.09 31.838 0.109 7.37 2.87 14.47
2/2/2021 4:00:00 PM -0.09 31.838 0.108 7.33 2.94 14.44
2/2/2021 4:15:00 PM -0.09 31.838 0.109 7.33 2.83 14.42
2/2/2021 4:30:00 PM -0.09 31.838 0.109 7.35 2.91 14.41
2/2/2021 4:45:00 PM -0.09 31.838 0.108 7.31 2.89 14.4
2/2/2021 5:00:00 PM -0.09 31.838 0.109 7.33 2.92 14.37
2/2/2021 5:15:00 PM -0.09 31.838 0.109 7.25 2.8 14.34
2/2/2021 5:30:00 PM -0.09 31.838 0.109 7.27 2.88 14.29
2/2/2021 5:45:00 PM -0.09 31.838 0.109 7.24 2.81 14.24
2/2/2021 6:00:00 PM -0.09 31.838 0.109 7.24 2.84 14.2
2/2/2021 6:15:00 PM -0.09 31.838 0.109 7.22 2.92 14.16
2/2/2021 6:30:00 PM -0.09 31.838 0.109 7.23 2.81 14.12
2/2/2021 6:45:00 PM -0.09 31.838 0.11 7.1 2.84 14.09
2/2/2021 7:00:00 PM -0.09 31.838 0.109 7.1 2.85 14.07
2/2/2021 7:15:00 PM -0.09 31.838 0.109 7.15 2.79 14.05
2/2/2021 7:30:00 PM -0.09 31.838 0.11 7.11 2.83 14.03
2/2/2021 7:45:00 PM -0.09 31.838 0.11 7.05 2.82 14.02
2/2/2021 8:00:00 PM -0.09 31.838 0.11 7.17 2.84 14.01
2/2/2021 8:15:00 PM -0.09 31.838 0.109 7.15 2.82 14
2/2/2021 8:30:00 PM -0.09 31.838 0.11 7.15 2.85 13.99
2/2/2021 8:45:00 PM -0.09 31.838 0.109 7.08 2.86 13.99
2/2/2021 9:00:00 PM -0.09 31.838 0.11 7.14 2.73 13.98
2/2/2021 9:15:00 PM -0.09 31.838 0.11 7.14 2.88 13.97
2/2/2021 9:30:00 PM -0.09 31.838 0.109 7.11 2.92 13.97
2/2/2021 9:45:00 PM -0.09 31.838 0.109 7.15 2.69 13.96
2/2/2021 10:00:00 PM -0.09 31.838 0.11 7.11 2.75 13.96
2/2/2021 10:15:00 PM -0.09 31.838 0.11 7.17 2.77 13.95
2/2/2021 10:30:00 PM -0.09 31.838 0.11 7.1 2.88 13.95
2/2/2021 10:45:00 PM -0.09 31.838 0.11 7.07 2.92 13.94
2/2/2021 11:00:00 PM -0.08 31.856 0.11 7.08 2.79 13.94
2/2/2021 11:15:00 PM -0.08 31.856 0.11 7.13 2.82 13.94
2/2/2021 11:30:00 PM -0.09 31.838 0.11 7.15 2.74 13.93
2/2/2021 11:45:00 PM -0.09 31.838 0.11 7.08 2.82 13.93
2/3/2021 12:00:00 AM -0.09 31.838 0.11 7.12 2.76 13.93
2/3/2021 12:15:00 AM -0.09 31.838 0.11 7.15 2.77 13.93
2/3/2021 12:30:00 AM -0.09 31.838 0.11 7.05 2.8 13.92
2/3/2021 12:45:00 AM -0.08 31.856 0.11 7.14 2.78 13.92
2/3/2021 1:00:00 AM -0.09 31.838 0.11 7.13 2.8 13.92
2/3/2021 1:15:00 AM -0.09 31.838 0.111 7.13 2.91 13.92
2/3/2021 1:30:00 AM -0.09 31.838 0.111 7.15 2.72 13.92
2/3/2021 1:45:00 AM -0.09 31.838 0.111 7.06 2.94 13.92
2/3/2021 2:00:00 AM -0.09 31.838 0.111 7.12 2.76 13.92
2/3/2021 2:15:00 AM -0.08 31.856 0.111 7.12 2.76 13.91
2/3/2021 2:30:00 AM -0.08 31.856 0.112 7.1 2.73 13.91
2/3/2021 2:45:00 AM -0.08 31.856 0.11 7.13 2.65 13.91
2/3/2021 3:00:00 AM -0.08 31.856 0.111 7.11 2.73 13.92
2/3/2021 3:15:00 AM -0.08 31.856 0.112 7.12 2.96 13.91
2/3/2021 3:30:00 AM -0.08 31.856 0.111 7.04 2.82 13.91
2/3/2021 3:45:00 AM -0.08 31.856 0.112 7.05 2.89 13.91
2/3/2021 4:00:00 AM -0.08 31.856 0.112 6.99 2.92 13.91
2/3/2021 4:15:00 AM -0.08 31.856 0.112 7.05 2.69 13.91
2/3/2021 4:30:00 AM -0.08 31.856 0.112 7.01 2.69 13.91
2/3/2021 4:45:00 AM -0.08 31.856 0.112 7.04 2.77 13.91
2/3/2021 5:00:00 AM -0.08 31.856 0.112 7.09 2.86 13.91
2/3/2021 5:15:00 AM -0.08 31.856 0.112 7.12 2.8 13.91
2/3/2021 5:30:00 AM -0.08 31.856 0.113 7.01 2.81 13.91
2/3/2021 5:45:00 AM -0.08 31.856 0.112 7.05 2.78 13.91
2/3/2021 6:00:00 AM -0.09 31.838 0.113 7.12 2.77 13.92
2/3/2021 6:15:00 AM -0.09 31.838 0.113 7.12 2.77 13.91
2/3/2021 6:30:00 AM -0.08 31.856 0.113 7.12 2.9 13.92
2/3/2021 6:45:00 AM -0.08 31.856 0.113 7.09 2.7 13.92
2/3/2021 7:00:00 AM -0.08 31.856 0.113 7.12 2.69 13.92
2/3/2021 7:15:00 AM -0.09 31.838 0.113 7.13 2.75 13.93
2/3/2021 7:30:00 AM -0.09 31.838 0.112 6.76 2.78 13.94
2/3/2021 7:45:00 AM -0.09 31.838 0.113 6.84 2.76 13.96
2/3/2021 8:00:00 AM -0.08 31.856 0.113 7.06 2.67 13.99
2/3/2021 8:15:00 AM -0.08 31.856 0.112 7.07 2.82 14.06
2/3/2021 8:30:00 AM -0.08 31.856 0.112 7.1 2.78 14.13
2/3/2021 8:45:00 AM -0.08 31.856 0.112 7.06 2.81 14.2
2/3/2021 9:00:00 AM -0.07 31.874 0.112 7.18 2.66 14.27
2/3/2021 9:15:00 AM -0.07 31.874 0.112 7.19 2.81 14.33
2/3/2021 9:30:00 AM -0.07 31.874 0.112 7.24 2.82 14.39
2/3/2021 9:45:00 AM -0.07 31.874 0.112 7.19 2.67 14.44
2/3/2021 10:00:00 AM -0.06 31.892 0.112 7.18 2.72 14.47
2/3/2021 10:15:00 AM -0.05 31.91 0.112 7.21 2.83 14.5
2/3/2021 10:30:00 AM -0.06 31.892 0.112 7.3 2.89 14.53
2/3/2021 10:45:00 AM -0.06 31.892 0.112 7.2 2.76 14.54
2/3/2021 11:00:00 AM -0.06 31.892 0.112 7 2.8 14.54
2/3/2021 11:15:00 AM -0.06 31.892 0.112 7.33 2.89 14.54
2/3/2021 11:30:00 AM -0.04 31.928 0.111 7.26 3.16 14.55
2/3/2021 11:45:00 AM -0.04 31.928 0.111 7.27 2.85 14.55
2/3/2021 12:00:00 PM -0.04 31.928 0.111 7.28 2.84 14.55
2/3/2021 12:15:00 PM -0.04 31.928 0.111 7.29 2.92 14.55
2/3/2021 12:30:00 PM -0.06 31.892 0.111 7.29 3.57 14.54
2/3/2021 12:45:00 PM -0.05 31.91 0.11 7.37 3.18 14.52
2/3/2021 1:00:00 PM -0.06 31.892 0.111 7.37 4.46 14.5
2/3/2021 1:15:00 PM -0.05 31.91 0.111 7.38 3.62 14.49
2/3/2021 1:30:00 PM -0.06 31.892 0.11 7.37 3.62 14.47
2/3/2021 1:45:00 PM -0.05 31.91 0.11 7.3 3.3 14.46
2/3/2021 2:00:00 PM -0.05 31.91 0.11 7.38 3.25 14.46
2/3/2021 2:15:00 PM -0.07 31.874 0.11 7.37 3.73 14.45
2/3/2021 2:30:00 PM -0.06 31.892 0.11 7.36 3.37 14.44
2/3/2021 2:45:00 PM -0.06 31.892 0.11 7.26 2.98 14.43
2/3/2021 3:00:00 PM -0.06 31.892 0.109 7.31 2.95 14.42
2/3/2021 3:15:00 PM -0.06 31.892 0.11 7.37 3.11 14.41
2/3/2021 3:30:00 PM -0.06 31.892 0.109 7.4 3.36 14.39
2/3/2021 3:45:00 PM -0.06 31.892 0.109 7.36 2.98 14.39
2/3/2021 4:00:00 PM -0.06 31.892 0.109 7.34 3.11 14.39
2/3/2021 4:15:00 PM -0.06 31.892 0.109 7.35 3.12 14.38
2/3/2021 4:30:00 PM -0.07 31.874 0.11 7.35 3.38 14.38
2/3/2021 4:45:00 PM -0.07 31.874 0.11 7.35 2.95 14.36
2/3/2021 5:00:00 PM -0.08 31.856 0.109 7.36 2.92 14.34
2/3/2021 5:15:00 PM -0.08 31.856 0.11 7.22 3.12 14.3
2/3/2021 5:30:00 PM -0.08 31.856 0.11 7.22 3.05 14.25
2/3/2021 5:45:00 PM -0.08 31.856 0.11 7.26 3.04 14.21
2/3/2021 6:00:00 PM -0.09 31.838 0.11 7.2 3.02 14.16
2/3/2021 6:15:00 PM -0.09 31.838 0.109 7.02 2.87 14.12
2/3/2021 6:30:00 PM -0.09 31.838 0.11 7.08 2.9 14.09
2/3/2021 6:45:00 PM -0.09 31.838 0.11 7.2 2.96 14.07
2/3/2021 7:00:00 PM -0.09 31.838 0.11 7.19 2.95 14.06
2/3/2021 7:15:00 PM -0.09 31.838 0.11 7.17 2.93 14.06
2/3/2021 7:30:00 PM -0.09 31.838 0.11 7.16 2.9 14.05
2/3/2021 7:45:00 PM -0.09 31.838 0.111 7.17 3.05 14.05
2/3/2021 8:00:00 PM -0.09 31.838 0.111 7.18 2.9 14.05
2/3/2021 8:15:00 PM -0.09 31.838 0.11 7.09 2.87 14.05
2/3/2021 8:30:00 PM -0.09 31.838 0.11 7.16 2.91 14.05
2/3/2021 8:45:00 PM -0.09 31.838 0.11 7.14 2.84 14.05
2/3/2021 9:00:00 PM -0.09 31.838 0.11 7.16 2.76 14.06
2/3/2021 9:15:00 PM -0.1 31.82 0.11 7.14 2.73 14.06
2/3/2021 9:30:00 PM -0.1 31.82 0.11 7.06 2.8 14.06
2/3/2021 9:45:00 PM -0.1 31.82 0.112 7.15 2.85 14.07
2/3/2021 10:00:00 PM -0.1 31.82 0.111 7.01 2.94 14.07
2/3/2021 10:15:00 PM -0.1 31.82 0.111 7.09 2.98 14.07
2/3/2021 10:30:00 PM -0.1 31.82 0.112 7.12 2.84 14.07
2/3/2021 10:45:00 PM -0.1 31.82 0.112 7.07 2.85 14.07
2/3/2021 11:00:00 PM -0.1 31.82 0.112 7.17 2.84 14.08
2/3/2021 11:15:00 PM -0.1 31.82 0.111 7.15 2.85 14.08
2/3/2021 11:30:00 PM -0.1 31.82 0.112 7 2.85 14.08
2/3/2021 11:45:00 PM -0.1 31.82 0.112 7.09 2.79 14.08
2/4/2021 12:00:00 AM -0.1 31.82 0.112 7.02 2.86 14.08
2/4/2021 12:15:00 AM -0.1 31.82 0.112 7.16 2.84 14.08
2/4/2021 12:30:00 AM -0.1 31.82 0.112 7.04 2.8 14.08
2/4/2021 12:45:00 AM -0.1 31.82 0.112 7.13 3.59 14.08
2/4/2021 1:00:00 AM -0.1 31.82 0.112 7.04 2.93 14.08
2/4/2021 1:15:00 AM -0.1 31.82 0.111 7.15 2.8 14.09
2/4/2021 1:30:00 AM -0.1 31.82 0.112 7.04 2.85 14.09
2/4/2021 1:45:00 AM -0.11 31.802 0.113 6.86 2.83 14.09
2/4/2021 2:00:00 AM -0.11 31.802 0.111 7.09 2.71 14.1
2/4/2021 2:15:00 AM -0.11 31.802 0.112 7.11 2.74 14.09
2/4/2021 2:30:00 AM -0.11 31.802 0.113 7.12 2.84 14.1
2/4/2021 2:45:00 AM -0.1 31.82 0.113 7.01 2.79 14.09
2/4/2021 3:00:00 AM -0.1 31.82 0.113 7.15 2.89 14.09
2/4/2021 3:15:00 AM -0.1 31.82 0.112 6.95 2.85 14.09
2/4/2021 3:30:00 AM -0.1 31.82 0.114 7.12 3.14 14.08
2/4/2021 3:45:00 AM -0.1 31.82 0.113 7.13 2.92 14.08
2/4/2021 4:00:00 AM -0.1 31.82 0.113 6.99 2.86 14.09
2/4/2021 4:15:00 AM -0.1 31.82 0.113 7.11 2.78 14.09
2/4/2021 4:30:00 AM -0.1 31.82 0.113 7.14 2.91 14.09
2/4/2021 4:45:00 AM -0.1 31.82 0.113 7.09 2.83 14.09
2/4/2021 5:00:00 AM -0.1 31.82 0.112 7.11 2.79 14.1
2/4/2021 5:15:00 AM -0.1 31.82 0.112 7.13 2.78 14.09
2/4/2021 5:30:00 AM -0.1 31.82 0.112 7.03 2.78 14.1
2/4/2021 5:45:00 AM -0.1 31.82 0.113 7.13 3.16 14.09
2/4/2021 6:00:00 AM -0.1 31.82 0.112 6.93 3.1 14.1
2/4/2021 6:15:00 AM -0.1 31.82 0.112 7.11 2.82 14.09
2/4/2021 6:30:00 AM -0.09 31.838 0.112 7.02 2.79 14.09
2/4/2021 6:45:00 AM -0.1 31.82 0.113 7.12 2.79 14.09
2/4/2021 7:00:00 AM -0.09 31.838 0.112 7.12 2.8 14.1
2/4/2021 7:15:00 AM -0.1 31.82 0.117 7.02 2.74 14.11
2/4/2021 7:30:00 AM -0.1 31.82 0.113 7.08 2.73 14.12
2/4/2021 7:45:00 AM -0.09 31.838 0.113 7.09 2.74 14.16
2/4/2021 8:00:00 AM -0.09 31.838 0.112 7.1 2.74 14.2
2/4/2021 8:15:00 AM -0.09 31.838 0.112 7.14 2.87 14.24
2/4/2021 8:30:00 AM -0.09 31.838 0.112 7.15 2.76 14.28
2/4/2021 8:45:00 AM -0.09 31.838 0.111 7.13 2.74 14.34
2/4/2021 9:00:00 AM -0.08 31.856 0.111 7.17 2.95 14.39
2/4/2021 9:15:00 AM -0.07 31.874 0.11 7.18 2.9 14.45
2/4/2021 9:30:00 AM -0.06 31.892 0.111 7.2 2.84 14.5
2/4/2021 9:45:00 AM -0.06 31.892 0.11 7.15 2.78 14.55
2/4/2021 10:00:00 AM -0.06 31.892 0.11 7.12 2.81 14.58
2/4/2021 10:15:00 AM -0.05 31.91 0.111 7.22 2.96 14.61
2/4/2021 10:30:00 AM -0.06 31.892 0.11 7.17 4.38 14.63
2/4/2021 10:45:00 AM -0.06 31.892 0.111 7.06 2.77 14.65
2/4/2021 11:00:00 AM -0.05 31.91 0.109 7.26 2.89 14.69
2/4/2021 11:15:00 AM -0.05 31.91 0.109 7.22 3.7 14.7
2/4/2021 11:30:00 AM -0.04 31.928 0.109 7.25 3 14.71
2/4/2021 11:45:00 AM -0.03 31.946 0.109 7.27 2.86 14.71
2/4/2021 12:00:00 PM -0.02 31.964 0.109 7.2 3.05 14.7
2/4/2021 12:15:00 PM -0.02 31.964 0.108 7.29 2.95 14.7
2/4/2021 12:30:00 PM -0.01 31.982 0.109 7.3 2.93 14.69
2/4/2021 12:45:00 PM -0.01 31.982 0.109 7.24 2.87 14.69
2/4/2021 1:00:00 PM -0.01 31.982 0.109 7.31 2.93 14.67
2/4/2021 1:15:00 PM -0.02 31.964 0.109 7.21 3.17 14.66
2/4/2021 1:30:00 PM -0.02 31.964 0.109 7.33 3.24 14.64
2/4/2021 1:45:00 PM -0.04 31.928 0.11 7.31 3.84 14.62
2/4/2021 2:00:00 PM -0.05 31.91 0.111 7.34 3.64 14.6
2/4/2021 2:15:00 PM -0.05 31.91 0.113 7.35 4.12 14.58
2/4/2021 2:30:00 PM -0.06 31.892 0.114 7.32 3.42 14.55
2/4/2021 2:45:00 PM -0.06 31.892 0.114 7.33 3.58 14.53
2/4/2021 3:00:00 PM -0.06 31.892 0.115 7.33 3.37 14.51
2/4/2021 3:15:00 PM -0.07 31.874 0.116 7.24 3.48 14.51
2/4/2021 3:30:00 PM -0.07 31.874 0.116 7.32 3.44 14.5
2/4/2021 3:45:00 PM -0.07 31.874 0.116 7.34 3.42 14.48
2/4/2021 4:00:00 PM -0.07 31.874 0.116 7.32 3.48 14.46
2/4/2021 4:15:00 PM -0.07 31.874 0.116 7.3 3.69 14.45
2/4/2021 4:30:00 PM -0.07 31.874 0.117 7.25 3.34 14.44
2/4/2021 4:45:00 PM -0.07 31.874 0.117 7.22 3.48 14.42
2/4/2021 5:00:00 PM -0.08 31.856 0.116 7.31 3.24 14.4
2/4/2021 5:15:00 PM -0.08 31.856 0.115 7.25 3.18 14.36
2/4/2021 5:30:00 PM -0.08 31.856 0.115 7.27 3.16 14.32
2/4/2021 5:45:00 PM -0.09 31.838 0.116 7.27 3.32 14.27
2/4/2021 6:00:00 PM -0.09 31.838 0.116 7.16 3.31 14.23
2/4/2021 6:15:00 PM -0.09 31.838 0.116 7.18 3.22 14.19
2/4/2021 6:30:00 PM -0.09 31.838 0.116 7.14 3.24 14.17
2/4/2021 6:45:00 PM -0.09 31.838 0.115 7.18 3.16 14.15
2/4/2021 7:00:00 PM -0.09 31.838 0.115 7.17 3.11 14.14
2/4/2021 7:15:00 PM -0.09 31.838 0.116 7.15 3.53 14.13
2/4/2021 7:30:00 PM -0.09 31.838 0.116 7.19 3.19 14.13
2/4/2021 7:45:00 PM -0.09 31.838 0.115 7.06 2.99 14.13
2/4/2021 8:00:00 PM -0.09 31.838 0.115 6.83 3.34 14.12
2/4/2021 8:15:00 PM -0.09 31.838 0.115 7.16 3.04 14.12
2/4/2021 8:30:00 PM -0.09 31.838 0.115 7.12 3.16 14.12
2/4/2021 8:45:00 PM -0.09 31.838 0.114 7.15 2.93 14.11
2/4/2021 9:00:00 PM -0.09 31.838 0.114 7.15 2.94 14.11
2/4/2021 9:15:00 PM -0.09 31.838 0.114 7.16 3.04 14.11
2/4/2021 9:30:00 PM -0.09 31.838 0.115 7.13 3.01 14.1
2/4/2021 9:45:00 PM -0.09 31.838 0.115 7.09 2.97 14.1
2/4/2021 10:00:00 PM -0.09 31.838 0.114 7.14 2.89 14.1
2/4/2021 10:15:00 PM -0.09 31.838 0.115 7.04 2.97 14.09
2/4/2021 10:30:00 PM -0.09 31.838 0.115 7.06 2.9 14.08
2/4/2021 10:45:00 PM -0.09 31.838 0.115 7.06 2.96 14.08
2/4/2021 11:00:00 PM -0.08 31.856 0.116 7.04 3.03 14.07
2/4/2021 11:15:00 PM -0.08 31.856 0.115 7.04 2.78 14.06
2/4/2021 11:30:00 PM -0.08 31.856 0.116 7.13 2.91 14.04
2/4/2021 11:45:00 PM -0.08 31.856 0.114 7.15 2.8 14.04
2/5/2021 12:00:00 AM -0.08 31.856 0.115 7.12 2.76 14.03
2/5/2021 12:15:00 AM -0.08 31.856 0.115 7.11 3.22 14.02
2/5/2021 12:30:00 AM -0.08 31.856 0.116 7.06 2.98 14.01
2/5/2021 12:45:00 AM -0.1 31.82 0.115 7.08 2.85 14.01
2/5/2021 1:00:00 AM -0.09 31.838 0.115 7.14 2.97 14.01
2/5/2021 1:15:00 AM -0.08 31.856 0.116 7.18 2.91 14
2/5/2021 1:30:00 AM -0.08 31.856 0.116 7.11 2.9 14.01
2/5/2021 1:45:00 AM -0.08 31.856 0.116 7.16 2.87 14
2/5/2021 2:00:00 AM -0.08 31.856 0.117 7.07 2.9 13.99
2/5/2021 2:15:00 AM -0.08 31.856 0.116 7.04 2.84 14
2/5/2021 2:30:00 AM -0.08 31.856 0.118 7.03 2.87 13.99
2/5/2021 2:45:00 AM -0.09 31.838 0.117 7.14 2.93 13.97
2/5/2021 3:00:00 AM -0.09 31.838 0.118 7.07 3.22 13.97
2/5/2021 3:15:00 AM -0.09 31.838 0.118 7.07 2.89 13.96
2/5/2021 3:30:00 AM -0.08 31.856 0.118 7.08 2.89 13.96
2/5/2021 3:45:00 AM -0.08 31.856 0.119 7.07 2.98 13.96
2/5/2021 4:00:00 AM -0.08 31.856 0.118 7.07 2.86 13.96
2/5/2021 4:15:00 AM -0.08 31.856 0.118 7.07 2.89 13.95
2/5/2021 4:30:00 AM -0.08 31.856 0.119 7.07 2.78 13.95
2/5/2021 4:45:00 AM -0.09 31.838 0.119 7.06 2.83 13.94
2/5/2021 5:00:00 AM -0.09 31.838 0.119 7.07 2.87 13.93
2/5/2021 5:15:00 AM -0.08 31.856 0.118 7.06 2.85 13.93
2/5/2021 5:30:00 AM -0.08 31.856 0.118 7.13 2.84 13.93
2/5/2021 5:45:00 AM -0.08 31.856 0.119 7.05 2.83 13.92
2/5/2021 6:00:00 AM -0.08 31.856 0.119 7.06 2.79 13.93
2/5/2021 6:15:00 AM -0.08 31.856 0.12 7.18 2.85 13.93
2/5/2021 6:30:00 AM -0.08 31.856 0.119 7.05 2.79 13.92
2/5/2021 6:45:00 AM -0.08 31.856 0.119 7.07 2.91 13.92
2/5/2021 7:00:00 AM -0.07 31.874 0.119 7.08 2.99 13.91
2/5/2021 7:15:00 AM -0.08 31.856 0.119 7.08 2.86 13.92
2/5/2021 7:30:00 AM -0.07 31.874 0.119 7.17 2.98 13.92
2/5/2021 7:45:00 AM -0.07 31.874 0.119 7.09 2.94 13.94
2/5/2021 8:00:00 AM -0.07 31.874 0.12 7.07 2.88 13.96
2/5/2021 8:15:00 AM -0.07 31.874 0.12 7.16 2.9 14.02
2/5/2021 8:30:00 AM -0.06 31.892 0.12 7.2 2.91 14.07
2/5/2021 8:45:00 AM -0.06 31.892 0.12 7.13 2.82 14.14
2/5/2021 9:00:00 AM -0.05 31.91 0.119 7.17 2.88 14.21
2/5/2021 9:15:00 AM -0.06 31.892 0.119 7.19 2.93 14.25
2/5/2021 9:30:00 AM -0.06 31.892 0.118 7.2 2.81 14.29
2/5/2021 9:45:00 AM -0.06 31.892 0.119 7.28 2.88 14.31
2/5/2021 10:00:00 AM -0.05 31.91 0.119 7.3 2.92 14.33
2/5/2021 10:15:00 AM -0.02 31.964 0.119 7.24 3.13 14.36